<?xml version="1.0" encoding="UTF-8" standalone="no" ?>
<gpx xmlns="http://www.topografix.com/GPX/1/1" xmlns:xsi="http://www.w3.org/2001/XMLSchema-instance" xsi:schemaLocation="http://www.topografix.com/GPX/1/1 http://www.topografix.com/GPX/1/1/gpx.xsd" version="1.1" creator="VisuGPX - https://www.visugpx.com">
  <metadata>
    <name>J19 Jura, la der!</name>
    <desc><![CDATA[#jura ]]></desc>
  </metadata>
  <trk>
    <name><![CDATA[J19 Jura, la der!_1]]></name>
    <trkseg>
      <trkpt lat="48.65247" lon="5.99406">
        <ele>215</ele>
        <time>2022-07-06T06:35:59Z</time>
      </trkpt>
      <trkpt lat="48.65246" lon="5.99402">
        <ele>191.8</ele>
        <time>2022-07-06T06:36:00Z</time>
      </trkpt>
      <trkpt lat="48.65246" lon="5.99399">
        <ele>191.8</ele>
        <time>2022-07-06T06:36:01Z</time>
      </trkpt>
      <trkpt lat="48.65244" lon="5.99391">
        <ele>215</ele>
        <time>2022-07-06T06:36:03Z</time>
      </trkpt>
      <trkpt lat="48.65243" lon="5.99387">
        <ele>214.8</ele>
        <time>2022-07-06T06:36:04Z</time>
      </trkpt>
      <trkpt lat="48.65236" lon="5.99321">
        <ele>214.4</ele>
        <time>2022-07-06T06:36:21Z</time>
      </trkpt>
      <trkpt lat="48.65265" lon="5.99284">
        <ele>215</ele>
        <time>2022-07-06T06:36:36Z</time>
      </trkpt>
      <trkpt lat="48.65298" lon="5.99264">
        <ele>215.6</ele>
        <time>2022-07-06T06:36:54Z</time>
      </trkpt>
      <trkpt lat="48.65298" lon="5.99262">
        <ele>215.4</ele>
        <time>2022-07-06T06:36:55Z</time>
      </trkpt>
      <trkpt lat="48.65298" lon="5.99259">
        <ele>215.4</ele>
        <time>2022-07-06T06:36:56Z</time>
      </trkpt>
      <trkpt lat="48.65298" lon="5.99256">
        <ele>215.4</ele>
        <time>2022-07-06T06:36:57Z</time>
      </trkpt>
      <trkpt lat="48.65298" lon="5.99253">
        <ele>215.4</ele>
        <time>2022-07-06T06:36:58Z</time>
      </trkpt>
      <trkpt lat="48.65298" lon="5.9925">
        <ele>215.4</ele>
        <time>2022-07-06T06:36:59Z</time>
      </trkpt>
      <trkpt lat="48.65297" lon="5.99246">
        <ele>215.2</ele>
        <time>2022-07-06T06:37:00Z</time>
      </trkpt>
      <trkpt lat="48.65296" lon="5.99242">
        <ele>215.2</ele>
        <time>2022-07-06T06:37:01Z</time>
      </trkpt>
      <trkpt lat="48.6528" lon="5.99155">
        <ele>214.8</ele>
        <time>2022-07-06T06:37:17Z</time>
      </trkpt>
      <trkpt lat="48.65277" lon="5.99137">
        <ele>214.8</ele>
        <time>2022-07-06T06:37:20Z</time>
      </trkpt>
      <trkpt lat="48.65267" lon="5.99047">
        <ele>214.6</ele>
        <time>2022-07-06T06:37:34Z</time>
      </trkpt>
      <trkpt lat="48.65264" lon="5.99015">
        <ele>214.4</ele>
        <time>2022-07-06T06:37:39Z</time>
      </trkpt>
      <trkpt lat="48.65259" lon="5.98922">
        <ele>214.2</ele>
        <time>2022-07-06T06:37:53Z</time>
      </trkpt>
      <trkpt lat="48.65258" lon="5.98883">
        <ele>214</ele>
        <time>2022-07-06T06:37:59Z</time>
      </trkpt>
      <trkpt lat="48.65256" lon="5.98794">
        <ele>214.6</ele>
        <time>2022-07-06T06:38:13Z</time>
      </trkpt>
      <trkpt lat="48.65257" lon="5.98787">
        <ele>214.6</ele>
        <time>2022-07-06T06:38:14Z</time>
      </trkpt>
      <trkpt lat="48.65257" lon="5.98782">
        <ele>214.6</ele>
        <time>2022-07-06T06:38:15Z</time>
      </trkpt>
      <trkpt lat="48.65258" lon="5.98775">
        <ele>214.4</ele>
        <time>2022-07-06T06:38:16Z</time>
      </trkpt>
      <trkpt lat="48.65258" lon="5.98769">
        <ele>214.2</ele>
        <time>2022-07-06T06:38:17Z</time>
      </trkpt>
      <trkpt lat="48.65257" lon="5.98764">
        <ele>214</ele>
        <time>2022-07-06T06:38:18Z</time>
      </trkpt>
      <trkpt lat="48.65257" lon="5.98758">
        <ele>213.8</ele>
        <time>2022-07-06T06:38:19Z</time>
      </trkpt>
      <trkpt lat="48.65256" lon="5.98753">
        <ele>213.8</ele>
        <time>2022-07-06T06:38:20Z</time>
      </trkpt>
      <trkpt lat="48.65255" lon="5.98748">
        <ele>214</ele>
        <time>2022-07-06T06:38:21Z</time>
      </trkpt>
      <trkpt lat="48.65254" lon="5.98736">
        <ele>214.2</ele>
        <time>2022-07-06T06:38:23Z</time>
      </trkpt>
      <trkpt lat="48.65257" lon="5.98647">
        <ele>213.6</ele>
        <time>2022-07-06T06:38:36Z</time>
      </trkpt>
      <trkpt lat="48.65262" lon="5.9856">
        <ele>213</ele>
        <time>2022-07-06T06:38:48Z</time>
      </trkpt>
      <trkpt lat="48.65263" lon="5.9847">
        <ele>214</ele>
        <time>2022-07-06T06:39:00Z</time>
      </trkpt>
      <trkpt lat="48.65265" lon="5.98378">
        <ele>213.2</ele>
        <time>2022-07-06T06:39:12Z</time>
      </trkpt>
      <trkpt lat="48.65267" lon="5.9829">
        <ele>213.4</ele>
        <time>2022-07-06T06:39:23Z</time>
      </trkpt>
      <trkpt lat="48.65266" lon="5.98202">
        <ele>213.2</ele>
        <time>2022-07-06T06:39:34Z</time>
      </trkpt>
      <trkpt lat="48.65264" lon="5.98163">
        <ele>213.4</ele>
        <time>2022-07-06T06:39:39Z</time>
      </trkpt>
      <trkpt lat="48.65264" lon="5.98155">
        <ele>213.6</ele>
        <time>2022-07-06T06:39:40Z</time>
      </trkpt>
      <trkpt lat="48.65257" lon="5.98062">
        <ele>213.8</ele>
        <time>2022-07-06T06:39:52Z</time>
      </trkpt>
      <trkpt lat="48.65245" lon="5.97972">
        <ele>213.8</ele>
        <time>2022-07-06T06:40:04Z</time>
      </trkpt>
      <trkpt lat="48.65231" lon="5.97884">
        <ele>213.8</ele>
        <time>2022-07-06T06:40:16Z</time>
      </trkpt>
      <trkpt lat="48.65224" lon="5.97848">
        <ele>214.4</ele>
        <time>2022-07-06T06:40:21Z</time>
      </trkpt>
      <trkpt lat="48.65211" lon="5.97796">
        <ele>217.4</ele>
        <time>2022-07-06T06:40:32Z</time>
      </trkpt>
      <trkpt lat="48.65197" lon="5.97786">
        <ele>218.8</ele>
        <time>2022-07-06T06:40:39Z</time>
      </trkpt>
      <trkpt lat="48.65194" lon="5.97787">
        <ele>219.2</ele>
        <time>2022-07-06T06:40:40Z</time>
      </trkpt>
      <trkpt lat="48.65192" lon="5.97787">
        <ele>219.2</ele>
        <time>2022-07-06T06:40:41Z</time>
      </trkpt>
      <trkpt lat="48.65191" lon="5.97787">
        <ele>219.4</ele>
        <time>2022-07-06T06:40:42Z</time>
      </trkpt>
      <trkpt lat="48.65189" lon="5.97788">
        <ele>219.4</ele>
        <time>2022-07-06T06:40:43Z</time>
      </trkpt>
      <trkpt lat="48.65187" lon="5.97789">
        <ele>219.6</ele>
        <time>2022-07-06T06:40:44Z</time>
      </trkpt>
      <trkpt lat="48.65184" lon="5.9779">
        <ele>219.6</ele>
        <time>2022-07-06T06:40:45Z</time>
      </trkpt>
      <trkpt lat="48.65182" lon="5.97792">
        <ele>219.6</ele>
        <time>2022-07-06T06:40:46Z</time>
      </trkpt>
      <trkpt lat="48.65127" lon="5.97815">
        <ele>219</ele>
        <time>2022-07-06T06:41:03Z</time>
      </trkpt>
      <trkpt lat="48.6509" lon="5.97829">
        <ele>217.6</ele>
        <time>2022-07-06T06:41:13Z</time>
      </trkpt>
      <trkpt lat="48.65085" lon="5.97829">
        <ele>217.2</ele>
        <time>2022-07-06T06:41:14Z</time>
      </trkpt>
      <trkpt lat="48.6508" lon="5.97827">
        <ele>216.8</ele>
        <time>2022-07-06T06:41:15Z</time>
      </trkpt>
      <trkpt lat="48.65076" lon="5.97823">
        <ele>216.8</ele>
        <time>2022-07-06T06:41:16Z</time>
      </trkpt>
      <trkpt lat="48.65072" lon="5.97818">
        <ele>216.8</ele>
        <time>2022-07-06T06:41:17Z</time>
      </trkpt>
      <trkpt lat="48.65068" lon="5.9781">
        <ele>216.4</ele>
        <time>2022-07-06T06:41:18Z</time>
      </trkpt>
      <trkpt lat="48.65066" lon="5.97801">
        <ele>215.8</ele>
        <time>2022-07-06T06:41:19Z</time>
      </trkpt>
      <trkpt lat="48.65065" lon="5.9779">
        <ele>215.6</ele>
        <time>2022-07-06T06:41:20Z</time>
      </trkpt>
      <trkpt lat="48.65064" lon="5.9778">
        <ele>215</ele>
        <time>2022-07-06T06:41:21Z</time>
      </trkpt>
      <trkpt lat="48.65053" lon="5.97686">
        <ele>213.4</ele>
        <time>2022-07-06T06:41:30Z</time>
      </trkpt>
      <trkpt lat="48.65034" lon="5.97601">
        <ele>214.4</ele>
        <time>2022-07-06T06:41:39Z</time>
      </trkpt>
      <trkpt lat="48.65011" lon="5.97513">
        <ele>214</ele>
        <time>2022-07-06T06:41:49Z</time>
      </trkpt>
      <trkpt lat="48.64988" lon="5.9743">
        <ele>216</ele>
        <time>2022-07-06T06:41:59Z</time>
      </trkpt>
      <trkpt lat="48.64976" lon="5.97389">
        <ele>216</ele>
        <time>2022-07-06T06:42:05Z</time>
      </trkpt>
      <trkpt lat="48.64972" lon="5.97384">
        <ele>215.8</ele>
        <time>2022-07-06T06:42:06Z</time>
      </trkpt>
      <trkpt lat="48.64968" lon="5.97379">
        <ele>215.8</ele>
        <time>2022-07-06T06:42:07Z</time>
      </trkpt>
      <trkpt lat="48.64964" lon="5.97377">
        <ele>215.4</ele>
        <time>2022-07-06T06:42:08Z</time>
      </trkpt>
      <trkpt lat="48.64959" lon="5.97376">
        <ele>215.8</ele>
        <time>2022-07-06T06:42:09Z</time>
      </trkpt>
      <trkpt lat="48.64955" lon="5.97376">
        <ele>216</ele>
        <time>2022-07-06T06:42:10Z</time>
      </trkpt>
      <trkpt lat="48.64951" lon="5.97377">
        <ele>216</ele>
        <time>2022-07-06T06:42:11Z</time>
      </trkpt>
      <trkpt lat="48.64947" lon="5.9738">
        <ele>215.8</ele>
        <time>2022-07-06T06:42:12Z</time>
      </trkpt>
      <trkpt lat="48.64944" lon="5.97382">
        <ele>215.8</ele>
        <time>2022-07-06T06:42:13Z</time>
      </trkpt>
      <trkpt lat="48.64926" lon="5.97453">
        <ele>213.8</ele>
        <time>2022-07-06T06:42:33Z</time>
      </trkpt>
      <trkpt lat="48.64932" lon="5.97482">
        <ele>213.6</ele>
        <time>2022-07-06T06:42:38Z</time>
      </trkpt>
      <trkpt lat="48.64954" lon="5.97564">
        <ele>213.4</ele>
        <time>2022-07-06T06:42:51Z</time>
      </trkpt>
      <trkpt lat="48.64974" lon="5.97647">
        <ele>212.2</ele>
        <time>2022-07-06T06:43:03Z</time>
      </trkpt>
      <trkpt lat="48.64991" lon="5.97728">
        <ele>212.6</ele>
        <time>2022-07-06T06:43:14Z</time>
      </trkpt>
      <trkpt lat="48.65009" lon="5.97813">
        <ele>213</ele>
        <time>2022-07-06T06:43:25Z</time>
      </trkpt>
      <trkpt lat="48.65026" lon="5.97895">
        <ele>211.2</ele>
        <time>2022-07-06T06:43:36Z</time>
      </trkpt>
      <trkpt lat="48.65044" lon="5.97981">
        <ele>212.4</ele>
        <time>2022-07-06T06:43:48Z</time>
      </trkpt>
      <trkpt lat="48.65052" lon="5.98068">
        <ele>212.2</ele>
        <time>2022-07-06T06:44:01Z</time>
      </trkpt>
      <trkpt lat="48.65053" lon="5.98155">
        <ele>211.6</ele>
        <time>2022-07-06T06:44:14Z</time>
      </trkpt>
      <trkpt lat="48.65054" lon="5.98244">
        <ele>211.8</ele>
        <time>2022-07-06T06:44:27Z</time>
      </trkpt>
      <trkpt lat="48.65056" lon="5.98334">
        <ele>211.6</ele>
        <time>2022-07-06T06:44:40Z</time>
      </trkpt>
      <trkpt lat="48.65055" lon="5.98426">
        <ele>213</ele>
        <time>2022-07-06T06:44:53Z</time>
      </trkpt>
      <trkpt lat="48.65055" lon="5.98463">
        <ele>212.4</ele>
        <time>2022-07-06T06:44:58Z</time>
      </trkpt>
      <trkpt lat="48.65061" lon="5.98551">
        <ele>212.8</ele>
        <time>2022-07-06T06:45:09Z</time>
      </trkpt>
      <trkpt lat="48.65061" lon="5.9856">
        <ele>212.8</ele>
        <time>2022-07-06T06:45:10Z</time>
      </trkpt>
      <trkpt lat="48.65063" lon="5.98653">
        <ele>213</ele>
        <time>2022-07-06T06:45:21Z</time>
      </trkpt>
      <trkpt lat="48.65063" lon="5.98746">
        <ele>215.2</ele>
        <time>2022-07-06T06:45:34Z</time>
      </trkpt>
      <trkpt lat="48.65067" lon="5.98816">
        <ele>215.6</ele>
        <time>2022-07-06T06:45:44Z</time>
      </trkpt>
      <trkpt lat="48.65077" lon="5.98907">
        <ele>215</ele>
        <time>2022-07-06T06:45:56Z</time>
      </trkpt>
      <trkpt lat="48.65077" lon="5.98914">
        <ele>215.2</ele>
        <time>2022-07-06T06:45:57Z</time>
      </trkpt>
      <trkpt lat="48.65079" lon="5.98967">
        <ele>215.2</ele>
        <time>2022-07-06T06:46:04Z</time>
      </trkpt>
      <trkpt lat="48.6508" lon="5.98982">
        <ele>215.2</ele>
        <time>2022-07-06T06:46:06Z</time>
      </trkpt>
      <trkpt lat="48.65082" lon="5.9899">
        <ele>215.2</ele>
        <time>2022-07-06T06:46:07Z</time>
      </trkpt>
      <trkpt lat="48.6509" lon="5.99082">
        <ele>214.4</ele>
        <time>2022-07-06T06:46:19Z</time>
      </trkpt>
      <trkpt lat="48.65095" lon="5.9914">
        <ele>214.2</ele>
        <time>2022-07-06T06:46:26Z</time>
      </trkpt>
      <trkpt lat="48.65104" lon="5.99232">
        <ele>212.8</ele>
        <time>2022-07-06T06:46:38Z</time>
      </trkpt>
      <trkpt lat="48.6511" lon="5.99323">
        <ele>214</ele>
        <time>2022-07-06T06:46:50Z</time>
      </trkpt>
      <trkpt lat="48.65118" lon="5.9941">
        <ele>213.8</ele>
        <time>2022-07-06T06:47:01Z</time>
      </trkpt>
      <trkpt lat="48.65128" lon="5.9948">
        <ele>213.6</ele>
        <time>2022-07-06T06:47:10Z</time>
      </trkpt>
      <trkpt lat="48.65139" lon="5.99549">
        <ele>213.2</ele>
        <time>2022-07-06T06:47:19Z</time>
      </trkpt>
      <trkpt lat="48.65142" lon="5.99587">
        <ele>213.4</ele>
        <time>2022-07-06T06:47:24Z</time>
      </trkpt>
      <trkpt lat="48.65143" lon="5.99594">
        <ele>213.4</ele>
        <time>2022-07-06T06:47:25Z</time>
      </trkpt>
      <trkpt lat="48.6516" lon="5.99682">
        <ele>215.8</ele>
        <time>2022-07-06T06:47:41Z</time>
      </trkpt>
      <trkpt lat="48.65171" lon="5.99739">
        <ele>215.6</ele>
        <time>2022-07-06T06:47:51Z</time>
      </trkpt>
      <trkpt lat="48.65174" lon="5.9976">
        <ele>214.4</ele>
        <time>2022-07-06T06:47:54Z</time>
      </trkpt>
      <trkpt lat="48.65178" lon="5.99825">
        <ele>211.4</ele>
        <time>2022-07-06T06:48:01Z</time>
      </trkpt>
      <trkpt lat="48.65183" lon="5.99855">
        <ele>211</ele>
        <time>2022-07-06T06:48:04Z</time>
      </trkpt>
      <trkpt lat="48.65186" lon="5.99864">
        <ele>211</ele>
        <time>2022-07-06T06:48:05Z</time>
      </trkpt>
      <trkpt lat="48.65188" lon="5.99871">
        <ele>211</ele>
        <time>2022-07-06T06:48:06Z</time>
      </trkpt>
      <trkpt lat="48.65198" lon="5.99891">
        <ele>211</ele>
        <time>2022-07-06T06:48:09Z</time>
      </trkpt>
      <trkpt lat="48.65203" lon="5.99897">
        <ele>211</ele>
        <time>2022-07-06T06:48:10Z</time>
      </trkpt>
      <trkpt lat="48.65255" lon="5.99952">
        <ele>211.2</ele>
        <time>2022-07-06T06:48:22Z</time>
      </trkpt>
      <trkpt lat="48.65307" lon="6.00009">
        <ele>212.4</ele>
        <time>2022-07-06T06:48:34Z</time>
      </trkpt>
      <trkpt lat="48.65357" lon="6.00069">
        <ele>212.4</ele>
        <time>2022-07-06T06:48:46Z</time>
      </trkpt>
      <trkpt lat="48.65366" lon="6.00078">
        <ele>212.4</ele>
        <time>2022-07-06T06:48:48Z</time>
      </trkpt>
      <trkpt lat="48.65381" lon="6.00089">
        <ele>212</ele>
        <time>2022-07-06T06:48:51Z</time>
      </trkpt>
      <trkpt lat="48.65441" lon="6.00121">
        <ele>212.4</ele>
        <time>2022-07-06T06:49:02Z</time>
      </trkpt>
      <trkpt lat="48.65447" lon="6.00123">
        <ele>212.2</ele>
        <time>2022-07-06T06:49:03Z</time>
      </trkpt>
      <trkpt lat="48.65501" lon="6.00144">
        <ele>212.6</ele>
        <time>2022-07-06T06:49:13Z</time>
      </trkpt>
      <trkpt lat="48.65559" lon="6.00174">
        <ele>212.6</ele>
        <time>2022-07-06T06:49:24Z</time>
      </trkpt>
      <trkpt lat="48.65619" lon="6.00209">
        <ele>212.6</ele>
        <time>2022-07-06T06:49:36Z</time>
      </trkpt>
      <trkpt lat="48.65674" lon="6.00246">
        <ele>212.6</ele>
        <time>2022-07-06T06:49:47Z</time>
      </trkpt>
      <trkpt lat="48.65678" lon="6.00251">
        <ele>212.4</ele>
        <time>2022-07-06T06:49:48Z</time>
      </trkpt>
      <trkpt lat="48.65691" lon="6.00265">
        <ele>212.2</ele>
        <time>2022-07-06T06:49:51Z</time>
      </trkpt>
      <trkpt lat="48.6572" lon="6.00296">
        <ele>212.4</ele>
        <time>2022-07-06T06:49:58Z</time>
      </trkpt>
      <trkpt lat="48.65725" lon="6.00301">
        <ele>212.4</ele>
        <time>2022-07-06T06:49:59Z</time>
      </trkpt>
      <trkpt lat="48.65778" lon="6.00357">
        <ele>212.8</ele>
        <time>2022-07-06T06:50:11Z</time>
      </trkpt>
      <trkpt lat="48.65827" lon="6.00418">
        <ele>213</ele>
        <time>2022-07-06T06:50:23Z</time>
      </trkpt>
      <trkpt lat="48.65834" lon="6.00429">
        <ele>213.2</ele>
        <time>2022-07-06T06:50:25Z</time>
      </trkpt>
      <trkpt lat="48.65837" lon="6.00434">
        <ele>213</ele>
        <time>2022-07-06T06:50:26Z</time>
      </trkpt>
      <trkpt lat="48.65882" lon="6.00491">
        <ele>212.4</ele>
        <time>2022-07-06T06:50:36Z</time>
      </trkpt>
      <trkpt lat="48.6593" lon="6.00562">
        <ele>212.8</ele>
        <time>2022-07-06T06:50:48Z</time>
      </trkpt>
      <trkpt lat="48.65971" lon="6.00632">
        <ele>212.8</ele>
        <time>2022-07-06T06:50:59Z</time>
      </trkpt>
      <trkpt lat="48.66012" lon="6.00707">
        <ele>212.6</ele>
        <time>2022-07-06T06:51:10Z</time>
      </trkpt>
      <trkpt lat="48.66045" lon="6.00785">
        <ele>212.6</ele>
        <time>2022-07-06T06:51:21Z</time>
      </trkpt>
      <trkpt lat="48.66074" lon="6.00866">
        <ele>212.6</ele>
        <time>2022-07-06T06:51:32Z</time>
      </trkpt>
      <trkpt lat="48.66101" lon="6.00953">
        <ele>212.6</ele>
        <time>2022-07-06T06:51:43Z</time>
      </trkpt>
      <trkpt lat="48.66121" lon="6.01031">
        <ele>212.6</ele>
        <time>2022-07-06T06:51:53Z</time>
      </trkpt>
      <trkpt lat="48.66142" lon="6.01115">
        <ele>212.8</ele>
        <time>2022-07-06T06:52:04Z</time>
      </trkpt>
      <trkpt lat="48.66146" lon="6.0113">
        <ele>212.4</ele>
        <time>2022-07-06T06:52:06Z</time>
      </trkpt>
      <trkpt lat="48.6615" lon="6.01146">
        <ele>212.4</ele>
        <time>2022-07-06T06:52:08Z</time>
      </trkpt>
      <trkpt lat="48.66165" lon="6.01234">
        <ele>212.6</ele>
        <time>2022-07-06T06:52:19Z</time>
      </trkpt>
      <trkpt lat="48.66165" lon="6.01243">
        <ele>212.6</ele>
        <time>2022-07-06T06:52:20Z</time>
      </trkpt>
      <trkpt lat="48.66167" lon="6.01251">
        <ele>212.6</ele>
        <time>2022-07-06T06:52:21Z</time>
      </trkpt>
      <trkpt lat="48.66168" lon="6.0126">
        <ele>212.6</ele>
        <time>2022-07-06T06:52:22Z</time>
      </trkpt>
      <trkpt lat="48.66171" lon="6.01311">
        <ele>212.4</ele>
        <time>2022-07-06T06:52:28Z</time>
      </trkpt>
      <trkpt lat="48.66172" lon="6.01319">
        <ele>212.4</ele>
        <time>2022-07-06T06:52:29Z</time>
      </trkpt>
      <trkpt lat="48.66173" lon="6.0136">
        <ele>212.4</ele>
        <time>2022-07-06T06:52:34Z</time>
      </trkpt>
      <trkpt lat="48.6617" lon="6.01451">
        <ele>212.2</ele>
        <time>2022-07-06T06:52:45Z</time>
      </trkpt>
      <trkpt lat="48.66168" lon="6.01458">
        <ele>212.4</ele>
        <time>2022-07-06T06:52:46Z</time>
      </trkpt>
      <trkpt lat="48.66167" lon="6.01466">
        <ele>212.4</ele>
        <time>2022-07-06T06:52:47Z</time>
      </trkpt>
      <trkpt lat="48.66166" lon="6.01474">
        <ele>212.4</ele>
        <time>2022-07-06T06:52:48Z</time>
      </trkpt>
      <trkpt lat="48.66165" lon="6.01483">
        <ele>212.4</ele>
        <time>2022-07-06T06:52:49Z</time>
      </trkpt>
      <trkpt lat="48.66164" lon="6.01492">
        <ele>212.4</ele>
        <time>2022-07-06T06:52:50Z</time>
      </trkpt>
      <trkpt lat="48.6616" lon="6.01538">
        <ele>212.4</ele>
        <time>2022-07-06T06:52:56Z</time>
      </trkpt>
      <trkpt lat="48.6616" lon="6.01547">
        <ele>212.2</ele>
        <time>2022-07-06T06:52:57Z</time>
      </trkpt>
      <trkpt lat="48.66158" lon="6.01555">
        <ele>212.2</ele>
        <time>2022-07-06T06:52:58Z</time>
      </trkpt>
      <trkpt lat="48.66149" lon="6.01626">
        <ele>212.2</ele>
        <time>2022-07-06T06:53:07Z</time>
      </trkpt>
      <trkpt lat="48.66142" lon="6.01694">
        <ele>212.6</ele>
        <time>2022-07-06T06:53:15Z</time>
      </trkpt>
      <trkpt lat="48.6612" lon="6.01778">
        <ele>211.8</ele>
        <time>2022-07-06T06:53:26Z</time>
      </trkpt>
      <trkpt lat="48.66097" lon="6.01851">
        <ele>211.8</ele>
        <time>2022-07-06T06:53:36Z</time>
      </trkpt>
      <trkpt lat="48.66069" lon="6.0193">
        <ele>211.8</ele>
        <time>2022-07-06T06:53:47Z</time>
      </trkpt>
      <trkpt lat="48.66051" lon="6.01968">
        <ele>211.6</ele>
        <time>2022-07-06T06:53:53Z</time>
      </trkpt>
      <trkpt lat="48.66048" lon="6.01975">
        <ele>211.4</ele>
        <time>2022-07-06T06:53:54Z</time>
      </trkpt>
      <trkpt lat="48.66013" lon="6.02048">
        <ele>211.6</ele>
        <time>2022-07-06T06:54:05Z</time>
      </trkpt>
      <trkpt lat="48.6597" lon="6.02112">
        <ele>211.8</ele>
        <time>2022-07-06T06:54:16Z</time>
      </trkpt>
      <trkpt lat="48.65943" lon="6.02143">
        <ele>212</ele>
        <time>2022-07-06T06:54:22Z</time>
      </trkpt>
      <trkpt lat="48.65904" lon="6.02185">
        <ele>212.8</ele>
        <time>2022-07-06T06:54:31Z</time>
      </trkpt>
      <trkpt lat="48.65882" lon="6.02207">
        <ele>212.8</ele>
        <time>2022-07-06T06:54:36Z</time>
      </trkpt>
      <trkpt lat="48.65878" lon="6.02212">
        <ele>212.8</ele>
        <time>2022-07-06T06:54:37Z</time>
      </trkpt>
      <trkpt lat="48.65865" lon="6.02227">
        <ele>212.4</ele>
        <time>2022-07-06T06:54:40Z</time>
      </trkpt>
      <trkpt lat="48.65861" lon="6.02233">
        <ele>212.4</ele>
        <time>2022-07-06T06:54:41Z</time>
      </trkpt>
      <trkpt lat="48.65848" lon="6.02249">
        <ele>212</ele>
        <time>2022-07-06T06:54:44Z</time>
      </trkpt>
      <trkpt lat="48.65804" lon="6.02315">
        <ele>212</ele>
        <time>2022-07-06T06:54:55Z</time>
      </trkpt>
      <trkpt lat="48.65768" lon="6.02385">
        <ele>212.4</ele>
        <time>2022-07-06T06:55:06Z</time>
      </trkpt>
      <trkpt lat="48.65733" lon="6.02468">
        <ele>212.8</ele>
        <time>2022-07-06T06:55:17Z</time>
      </trkpt>
      <trkpt lat="48.65699" lon="6.02558">
        <ele>212.6</ele>
        <time>2022-07-06T06:55:28Z</time>
      </trkpt>
      <trkpt lat="48.65663" lon="6.0264">
        <ele>212.6</ele>
        <time>2022-07-06T06:55:39Z</time>
      </trkpt>
      <trkpt lat="48.65629" lon="6.02719">
        <ele>212</ele>
        <time>2022-07-06T06:55:49Z</time>
      </trkpt>
      <trkpt lat="48.65593" lon="6.02793">
        <ele>212</ele>
        <time>2022-07-06T06:56:00Z</time>
      </trkpt>
      <trkpt lat="48.65557" lon="6.02867">
        <ele>211.2</ele>
        <time>2022-07-06T06:56:11Z</time>
      </trkpt>
      <trkpt lat="48.65521" lon="6.02946">
        <ele>210.8</ele>
        <time>2022-07-06T06:56:22Z</time>
      </trkpt>
      <trkpt lat="48.65483" lon="6.03014">
        <ele>211.2</ele>
        <time>2022-07-06T06:56:33Z</time>
      </trkpt>
      <trkpt lat="48.65472" lon="6.03032">
        <ele>211.2</ele>
        <time>2022-07-06T06:56:36Z</time>
      </trkpt>
      <trkpt lat="48.65465" lon="6.03044">
        <ele>211.6</ele>
        <time>2022-07-06T06:56:38Z</time>
      </trkpt>
      <trkpt lat="48.65435" lon="6.03094">
        <ele>212</ele>
        <time>2022-07-06T06:56:46Z</time>
      </trkpt>
      <trkpt lat="48.65399" lon="6.03169">
        <ele>214.4</ele>
        <time>2022-07-06T06:57:02Z</time>
      </trkpt>
      <trkpt lat="48.65369" lon="6.03219">
        <ele>213.6</ele>
        <time>2022-07-06T06:57:11Z</time>
      </trkpt>
      <trkpt lat="48.65344" lon="6.03263">
        <ele>213.6</ele>
        <time>2022-07-06T06:57:18Z</time>
      </trkpt>
      <trkpt lat="48.65341" lon="6.03269">
        <ele>213.6</ele>
        <time>2022-07-06T06:57:19Z</time>
      </trkpt>
      <trkpt lat="48.65306" lon="6.03332">
        <ele>214</ele>
        <time>2022-07-06T06:57:29Z</time>
      </trkpt>
      <trkpt lat="48.65299" lon="6.03347">
        <ele>214</ele>
        <time>2022-07-06T06:57:31Z</time>
      </trkpt>
      <trkpt lat="48.65296" lon="6.03355">
        <ele>214</ele>
        <time>2022-07-06T06:57:32Z</time>
      </trkpt>
      <trkpt lat="48.65278" lon="6.03406">
        <ele>213.8</ele>
        <time>2022-07-06T06:57:38Z</time>
      </trkpt>
      <trkpt lat="48.65275" lon="6.03414">
        <ele>214</ele>
        <time>2022-07-06T06:57:39Z</time>
      </trkpt>
      <trkpt lat="48.65272" lon="6.03422">
        <ele>214</ele>
        <time>2022-07-06T06:57:40Z</time>
      </trkpt>
      <trkpt lat="48.6527" lon="6.0343">
        <ele>214.2</ele>
        <time>2022-07-06T06:57:41Z</time>
      </trkpt>
      <trkpt lat="48.65267" lon="6.03438">
        <ele>214</ele>
        <time>2022-07-06T06:57:42Z</time>
      </trkpt>
      <trkpt lat="48.65263" lon="6.03446">
        <ele>213.8</ele>
        <time>2022-07-06T06:57:43Z</time>
      </trkpt>
      <trkpt lat="48.65229" lon="6.03525">
        <ele>212.8</ele>
        <time>2022-07-06T06:57:54Z</time>
      </trkpt>
      <trkpt lat="48.65209" lon="6.03569">
        <ele>211.8</ele>
        <time>2022-07-06T06:58:00Z</time>
      </trkpt>
      <trkpt lat="48.65206" lon="6.03575">
        <ele>211.8</ele>
        <time>2022-07-06T06:58:01Z</time>
      </trkpt>
      <trkpt lat="48.65202" lon="6.03581">
        <ele>212</ele>
        <time>2022-07-06T06:58:02Z</time>
      </trkpt>
      <trkpt lat="48.65159" lon="6.03649">
        <ele>212.6</ele>
        <time>2022-07-06T06:58:13Z</time>
      </trkpt>
      <trkpt lat="48.65112" lon="6.03706">
        <ele>213.4</ele>
        <time>2022-07-06T06:58:24Z</time>
      </trkpt>
      <trkpt lat="48.65063" lon="6.03757">
        <ele>213.2</ele>
        <time>2022-07-06T06:58:34Z</time>
      </trkpt>
      <trkpt lat="48.65007" lon="6.03807">
        <ele>213.2</ele>
        <time>2022-07-06T06:58:44Z</time>
      </trkpt>
      <trkpt lat="48.64953" lon="6.03854">
        <ele>213.6</ele>
        <time>2022-07-06T06:58:54Z</time>
      </trkpt>
      <trkpt lat="48.64898" lon="6.03903">
        <ele>213.8</ele>
        <time>2022-07-06T06:59:04Z</time>
      </trkpt>
      <trkpt lat="48.6484" lon="6.0395">
        <ele>213.6</ele>
        <time>2022-07-06T06:59:14Z</time>
      </trkpt>
      <trkpt lat="48.64786" lon="6.03984">
        <ele>213.8</ele>
        <time>2022-07-06T06:59:23Z</time>
      </trkpt>
      <trkpt lat="48.64726" lon="6.04014">
        <ele>214.4</ele>
        <time>2022-07-06T06:59:33Z</time>
      </trkpt>
      <trkpt lat="48.6467" lon="6.04035">
        <ele>213.8</ele>
        <time>2022-07-06T06:59:42Z</time>
      </trkpt>
      <trkpt lat="48.6461" lon="6.04052">
        <ele>213.4</ele>
        <time>2022-07-06T06:59:51Z</time>
      </trkpt>
      <trkpt lat="48.64552" lon="6.0406">
        <ele>213.6</ele>
        <time>2022-07-06T07:00:00Z</time>
      </trkpt>
      <trkpt lat="48.64493" lon="6.04054">
        <ele>213.4</ele>
        <time>2022-07-06T07:00:09Z</time>
      </trkpt>
      <trkpt lat="48.64434" lon="6.0404">
        <ele>213.8</ele>
        <time>2022-07-06T07:00:18Z</time>
      </trkpt>
      <trkpt lat="48.64375" lon="6.04028">
        <ele>213.6</ele>
        <time>2022-07-06T07:00:27Z</time>
      </trkpt>
      <trkpt lat="48.64317" lon="6.04019">
        <ele>214</ele>
        <time>2022-07-06T07:00:36Z</time>
      </trkpt>
      <trkpt lat="48.64257" lon="6.04012">
        <ele>214</ele>
        <time>2022-07-06T07:00:45Z</time>
      </trkpt>
      <trkpt lat="48.64199" lon="6.04002">
        <ele>214.4</ele>
        <time>2022-07-06T07:00:54Z</time>
      </trkpt>
      <trkpt lat="48.64142" lon="6.03985">
        <ele>216</ele>
        <time>2022-07-06T07:01:04Z</time>
      </trkpt>
      <trkpt lat="48.64084" lon="6.0397">
        <ele>216.6</ele>
        <time>2022-07-06T07:01:14Z</time>
      </trkpt>
      <trkpt lat="48.64078" lon="6.03969">
        <ele>216.6</ele>
        <time>2022-07-06T07:01:15Z</time>
      </trkpt>
      <trkpt lat="48.64072" lon="6.03968">
        <ele>216.8</ele>
        <time>2022-07-06T07:01:16Z</time>
      </trkpt>
      <trkpt lat="48.6401" lon="6.03959">
        <ele>217</ele>
        <time>2022-07-06T07:01:26Z</time>
      </trkpt>
      <trkpt lat="48.63956" lon="6.03954">
        <ele>217.6</ele>
        <time>2022-07-06T07:01:35Z</time>
      </trkpt>
      <trkpt lat="48.63895" lon="6.03962">
        <ele>217.4</ele>
        <time>2022-07-06T07:01:46Z</time>
      </trkpt>
      <trkpt lat="48.63889" lon="6.03962">
        <ele>217.6</ele>
        <time>2022-07-06T07:01:47Z</time>
      </trkpt>
      <trkpt lat="48.63845" lon="6.03967">
        <ele>217</ele>
        <time>2022-07-06T07:01:54Z</time>
      </trkpt>
      <trkpt lat="48.63781" lon="6.03983">
        <ele>216.4</ele>
        <time>2022-07-06T07:02:04Z</time>
      </trkpt>
      <trkpt lat="48.63719" lon="6.04002">
        <ele>215.6</ele>
        <time>2022-07-06T07:02:13Z</time>
      </trkpt>
      <trkpt lat="48.63706" lon="6.0401">
        <ele>215</ele>
        <time>2022-07-06T07:02:15Z</time>
      </trkpt>
      <trkpt lat="48.63649" lon="6.04052">
        <ele>214.4</ele>
        <time>2022-07-06T07:02:25Z</time>
      </trkpt>
      <trkpt lat="48.63633" lon="6.04066">
        <ele>214</ele>
        <time>2022-07-06T07:02:28Z</time>
      </trkpt>
      <trkpt lat="48.63583" lon="6.04123">
        <ele>214.8</ele>
        <time>2022-07-06T07:02:38Z</time>
      </trkpt>
      <trkpt lat="48.63572" lon="6.04136">
        <ele>214.6</ele>
        <time>2022-07-06T07:02:41Z</time>
      </trkpt>
      <trkpt lat="48.63569" lon="6.0414">
        <ele>214.4</ele>
        <time>2022-07-06T07:02:42Z</time>
      </trkpt>
      <trkpt lat="48.63565" lon="6.04143">
        <ele>214.6</ele>
        <time>2022-07-06T07:02:43Z</time>
      </trkpt>
      <trkpt lat="48.63561" lon="6.04148">
        <ele>214.6</ele>
        <time>2022-07-06T07:02:44Z</time>
      </trkpt>
      <trkpt lat="48.63557" lon="6.04152">
        <ele>214.6</ele>
        <time>2022-07-06T07:02:45Z</time>
      </trkpt>
      <trkpt lat="48.63507" lon="6.04211">
        <ele>214.2</ele>
        <time>2022-07-06T07:03:00Z</time>
      </trkpt>
      <trkpt lat="48.63457" lon="6.04264">
        <ele>214.2</ele>
        <time>2022-07-06T07:03:13Z</time>
      </trkpt>
      <trkpt lat="48.63417" lon="6.04295">
        <ele>214.6</ele>
        <time>2022-07-06T07:03:36Z</time>
      </trkpt>
      <trkpt lat="48.63408" lon="6.04306">
        <ele>214.8</ele>
        <time>2022-07-06T07:05:25Z</time>
      </trkpt>
      <trkpt lat="48.63407" lon="6.04309">
        <ele>214.8</ele>
        <time>2022-07-06T07:05:26Z</time>
      </trkpt>
      <trkpt lat="48.63367" lon="6.04368">
        <ele>214.6</ele>
        <time>2022-07-06T07:05:41Z</time>
      </trkpt>
      <trkpt lat="48.6332" lon="6.04417">
        <ele>214.4</ele>
        <time>2022-07-06T07:05:55Z</time>
      </trkpt>
      <trkpt lat="48.63266" lon="6.04458">
        <ele>214.4</ele>
        <time>2022-07-06T07:06:10Z</time>
      </trkpt>
      <trkpt lat="48.63249" lon="6.04469">
        <ele>214.2</ele>
        <time>2022-07-06T07:06:14Z</time>
      </trkpt>
      <trkpt lat="48.63244" lon="6.0447">
        <ele>214.2</ele>
        <time>2022-07-06T07:06:15Z</time>
      </trkpt>
      <trkpt lat="48.6324" lon="6.04471">
        <ele>214.2</ele>
        <time>2022-07-06T07:06:16Z</time>
      </trkpt>
      <trkpt lat="48.63235" lon="6.04472">
        <ele>214</ele>
        <time>2022-07-06T07:06:17Z</time>
      </trkpt>
      <trkpt lat="48.6323" lon="6.04473">
        <ele>214</ele>
        <time>2022-07-06T07:06:18Z</time>
      </trkpt>
      <trkpt lat="48.63225" lon="6.04474">
        <ele>213.8</ele>
        <time>2022-07-06T07:06:19Z</time>
      </trkpt>
      <trkpt lat="48.63221" lon="6.04477">
        <ele>213.8</ele>
        <time>2022-07-06T07:06:20Z</time>
      </trkpt>
      <trkpt lat="48.63217" lon="6.0448">
        <ele>213.6</ele>
        <time>2022-07-06T07:06:21Z</time>
      </trkpt>
      <trkpt lat="48.63158" lon="6.04512">
        <ele>213.4</ele>
        <time>2022-07-06T07:06:33Z</time>
      </trkpt>
      <trkpt lat="48.63095" lon="6.04526">
        <ele>213.6</ele>
        <time>2022-07-06T07:06:44Z</time>
      </trkpt>
      <trkpt lat="48.63049" lon="6.04535">
        <ele>213.8</ele>
        <time>2022-07-06T07:06:53Z</time>
      </trkpt>
      <trkpt lat="48.63044" lon="6.04534">
        <ele>214</ele>
        <time>2022-07-06T07:06:54Z</time>
      </trkpt>
      <trkpt lat="48.6304" lon="6.04533">
        <ele>214</ele>
        <time>2022-07-06T07:06:55Z</time>
      </trkpt>
      <trkpt lat="48.63036" lon="6.04532">
        <ele>214</ele>
        <time>2022-07-06T07:06:56Z</time>
      </trkpt>
      <trkpt lat="48.63033" lon="6.0453">
        <ele>213.8</ele>
        <time>2022-07-06T07:06:57Z</time>
      </trkpt>
      <trkpt lat="48.62981" lon="6.04483">
        <ele>212.8</ele>
        <time>2022-07-06T07:07:10Z</time>
      </trkpt>
      <trkpt lat="48.62966" lon="6.04474">
        <ele>212.8</ele>
        <time>2022-07-06T07:07:13Z</time>
      </trkpt>
      <trkpt lat="48.62961" lon="6.04472">
        <ele>212.8</ele>
        <time>2022-07-06T07:07:14Z</time>
      </trkpt>
      <trkpt lat="48.62955" lon="6.04471">
        <ele>212.8</ele>
        <time>2022-07-06T07:07:15Z</time>
      </trkpt>
      <trkpt lat="48.62932" lon="6.04472">
        <ele>212.6</ele>
        <time>2022-07-06T07:07:19Z</time>
      </trkpt>
      <trkpt lat="48.62899" lon="6.04478">
        <ele>213.2</ele>
        <time>2022-07-06T07:07:25Z</time>
      </trkpt>
      <trkpt lat="48.62895" lon="6.04479">
        <ele>213.6</ele>
        <time>2022-07-06T07:07:26Z</time>
      </trkpt>
      <trkpt lat="48.62854" lon="6.04501">
        <ele>215.4</ele>
        <time>2022-07-06T07:07:36Z</time>
      </trkpt>
      <trkpt lat="48.62851" lon="6.04503">
        <ele>215.6</ele>
        <time>2022-07-06T07:07:37Z</time>
      </trkpt>
      <trkpt lat="48.62847" lon="6.04506">
        <ele>215.8</ele>
        <time>2022-07-06T07:07:38Z</time>
      </trkpt>
      <trkpt lat="48.62793" lon="6.04538">
        <ele>216.6</ele>
        <time>2022-07-06T07:07:52Z</time>
      </trkpt>
      <trkpt lat="48.62764" lon="6.04558">
        <ele>216.4</ele>
        <time>2022-07-06T07:07:58Z</time>
      </trkpt>
      <trkpt lat="48.62751" lon="6.04573">
        <ele>216.6</ele>
        <time>2022-07-06T07:08:01Z</time>
      </trkpt>
      <trkpt lat="48.62737" lon="6.04597">
        <ele>216.4</ele>
        <time>2022-07-06T07:08:05Z</time>
      </trkpt>
      <trkpt lat="48.62734" lon="6.04605">
        <ele>216.2</ele>
        <time>2022-07-06T07:08:06Z</time>
      </trkpt>
      <trkpt lat="48.62731" lon="6.04613">
        <ele>216.2</ele>
        <time>2022-07-06T07:08:07Z</time>
      </trkpt>
      <trkpt lat="48.62728" lon="6.04621">
        <ele>216</ele>
        <time>2022-07-06T07:08:08Z</time>
      </trkpt>
      <trkpt lat="48.62725" lon="6.0463">
        <ele>216</ele>
        <time>2022-07-06T07:08:09Z</time>
      </trkpt>
      <trkpt lat="48.62721" lon="6.04638">
        <ele>215.8</ele>
        <time>2022-07-06T07:08:10Z</time>
      </trkpt>
      <trkpt lat="48.62717" lon="6.04645">
        <ele>215.8</ele>
        <time>2022-07-06T07:08:11Z</time>
      </trkpt>
      <trkpt lat="48.62712" lon="6.0465">
        <ele>215.6</ele>
        <time>2022-07-06T07:08:12Z</time>
      </trkpt>
      <trkpt lat="48.62707" lon="6.04653">
        <ele>215.4</ele>
        <time>2022-07-06T07:08:13Z</time>
      </trkpt>
      <trkpt lat="48.62702" lon="6.04657">
        <ele>215.4</ele>
        <time>2022-07-06T07:08:14Z</time>
      </trkpt>
      <trkpt lat="48.62643" lon="6.04685">
        <ele>216.2</ele>
        <time>2022-07-06T07:08:27Z</time>
      </trkpt>
      <trkpt lat="48.62586" lon="6.04707">
        <ele>216.2</ele>
        <time>2022-07-06T07:08:38Z</time>
      </trkpt>
      <trkpt lat="48.6253" lon="6.0473">
        <ele>215.8</ele>
        <time>2022-07-06T07:08:48Z</time>
      </trkpt>
      <trkpt lat="48.62525" lon="6.04733">
        <ele>215.8</ele>
        <time>2022-07-06T07:08:49Z</time>
      </trkpt>
      <trkpt lat="48.62504" lon="6.0474">
        <ele>216.2</ele>
        <time>2022-07-06T07:08:53Z</time>
      </trkpt>
      <trkpt lat="48.62499" lon="6.04741">
        <ele>216.4</ele>
        <time>2022-07-06T07:08:54Z</time>
      </trkpt>
      <trkpt lat="48.62465" lon="6.04745">
        <ele>216</ele>
        <time>2022-07-06T07:09:00Z</time>
      </trkpt>
      <trkpt lat="48.62459" lon="6.04745">
        <ele>216</ele>
        <time>2022-07-06T07:09:01Z</time>
      </trkpt>
      <trkpt lat="48.62401" lon="6.04755">
        <ele>216.4</ele>
        <time>2022-07-06T07:09:11Z</time>
      </trkpt>
      <trkpt lat="48.62341" lon="6.04782">
        <ele>216.2</ele>
        <time>2022-07-06T07:09:22Z</time>
      </trkpt>
      <trkpt lat="48.62289" lon="6.04831">
        <ele>216.2</ele>
        <time>2022-07-06T07:09:34Z</time>
      </trkpt>
      <trkpt lat="48.62247" lon="6.04898">
        <ele>215.8</ele>
        <time>2022-07-06T07:09:53Z</time>
      </trkpt>
      <trkpt lat="48.6222" lon="6.04981">
        <ele>216.8</ele>
        <time>2022-07-06T07:10:06Z</time>
      </trkpt>
      <trkpt lat="48.62206" lon="6.0507">
        <ele>216.4</ele>
        <time>2022-07-06T07:10:18Z</time>
      </trkpt>
      <trkpt lat="48.62199" lon="6.05163">
        <ele>215.6</ele>
        <time>2022-07-06T07:10:29Z</time>
      </trkpt>
      <trkpt lat="48.62198" lon="6.05171">
        <ele>215.6</ele>
        <time>2022-07-06T07:10:30Z</time>
      </trkpt>
      <trkpt lat="48.62191" lon="6.0526">
        <ele>216.8</ele>
        <time>2022-07-06T07:10:44Z</time>
      </trkpt>
      <trkpt lat="48.62185" lon="6.05345">
        <ele>217.2</ele>
        <time>2022-07-06T07:10:57Z</time>
      </trkpt>
      <trkpt lat="48.6217" lon="6.05428">
        <ele>217.6</ele>
        <time>2022-07-06T07:11:10Z</time>
      </trkpt>
      <trkpt lat="48.62147" lon="6.05505">
        <ele>217.6</ele>
        <time>2022-07-06T07:11:22Z</time>
      </trkpt>
      <trkpt lat="48.62128" lon="6.05583">
        <ele>217.2</ele>
        <time>2022-07-06T07:11:33Z</time>
      </trkpt>
      <trkpt lat="48.62117" lon="6.05638">
        <ele>217</ele>
        <time>2022-07-06T07:11:41Z</time>
      </trkpt>
      <trkpt lat="48.62117" lon="6.05644">
        <ele>217</ele>
        <time>2022-07-06T07:11:42Z</time>
      </trkpt>
      <trkpt lat="48.62117" lon="6.0565">
        <ele>217.2</ele>
        <time>2022-07-06T07:11:43Z</time>
      </trkpt>
      <trkpt lat="48.62118" lon="6.05673">
        <ele>217.2</ele>
        <time>2022-07-06T07:11:47Z</time>
      </trkpt>
      <trkpt lat="48.62117" lon="6.0568">
        <ele>217.4</ele>
        <time>2022-07-06T07:11:48Z</time>
      </trkpt>
      <trkpt lat="48.62116" lon="6.05686">
        <ele>217.4</ele>
        <time>2022-07-06T07:11:49Z</time>
      </trkpt>
      <trkpt lat="48.62112" lon="6.05699">
        <ele>217.4</ele>
        <time>2022-07-06T07:11:51Z</time>
      </trkpt>
      <trkpt lat="48.62084" lon="6.05778">
        <ele>217.2</ele>
        <time>2022-07-06T07:12:02Z</time>
      </trkpt>
      <trkpt lat="48.62061" lon="6.05858">
        <ele>217</ele>
        <time>2022-07-06T07:12:12Z</time>
      </trkpt>
      <trkpt lat="48.62037" lon="6.0594">
        <ele>216.4</ele>
        <time>2022-07-06T07:12:23Z</time>
      </trkpt>
      <trkpt lat="48.62034" lon="6.05947">
        <ele>216.2</ele>
        <time>2022-07-06T07:12:24Z</time>
      </trkpt>
      <trkpt lat="48.62017" lon="6.06026">
        <ele>215.8</ele>
        <time>2022-07-06T07:12:34Z</time>
      </trkpt>
      <trkpt lat="48.61996" lon="6.06112">
        <ele>215</ele>
        <time>2022-07-06T07:12:45Z</time>
      </trkpt>
      <trkpt lat="48.61975" lon="6.06198">
        <ele>215</ele>
        <time>2022-07-06T07:12:56Z</time>
      </trkpt>
      <trkpt lat="48.61952" lon="6.06286">
        <ele>214.8</ele>
        <time>2022-07-06T07:13:07Z</time>
      </trkpt>
      <trkpt lat="48.61946" lon="6.06311">
        <ele>215</ele>
        <time>2022-07-06T07:13:10Z</time>
      </trkpt>
      <trkpt lat="48.61924" lon="6.06401">
        <ele>215.4</ele>
        <time>2022-07-06T07:13:21Z</time>
      </trkpt>
      <trkpt lat="48.61901" lon="6.0649">
        <ele>215</ele>
        <time>2022-07-06T07:13:32Z</time>
      </trkpt>
      <trkpt lat="48.61879" lon="6.06577">
        <ele>214.6</ele>
        <time>2022-07-06T07:13:43Z</time>
      </trkpt>
      <trkpt lat="48.61855" lon="6.06666">
        <ele>215</ele>
        <time>2022-07-06T07:13:54Z</time>
      </trkpt>
      <trkpt lat="48.61832" lon="6.06747">
        <ele>214.8</ele>
        <time>2022-07-06T07:14:04Z</time>
      </trkpt>
      <trkpt lat="48.6181" lon="6.06838">
        <ele>215.2</ele>
        <time>2022-07-06T07:14:15Z</time>
      </trkpt>
      <trkpt lat="48.61787" lon="6.06928">
        <ele>214.8</ele>
        <time>2022-07-06T07:14:26Z</time>
      </trkpt>
      <trkpt lat="48.61766" lon="6.07009">
        <ele>214.8</ele>
        <time>2022-07-06T07:14:36Z</time>
      </trkpt>
      <trkpt lat="48.61764" lon="6.07017">
        <ele>215</ele>
        <time>2022-07-06T07:14:37Z</time>
      </trkpt>
      <trkpt lat="48.61762" lon="6.07024">
        <ele>215</ele>
        <time>2022-07-06T07:14:38Z</time>
      </trkpt>
      <trkpt lat="48.61737" lon="6.07109">
        <ele>214.6</ele>
        <time>2022-07-06T07:14:49Z</time>
      </trkpt>
      <trkpt lat="48.61704" lon="6.07185">
        <ele>215.2</ele>
        <time>2022-07-06T07:15:00Z</time>
      </trkpt>
      <trkpt lat="48.6167" lon="6.07261">
        <ele>215</ele>
        <time>2022-07-06T07:15:11Z</time>
      </trkpt>
      <trkpt lat="48.61635" lon="6.0734">
        <ele>215.6</ele>
        <time>2022-07-06T07:15:22Z</time>
      </trkpt>
      <trkpt lat="48.61612" lon="6.07393">
        <ele>215.4</ele>
        <time>2022-07-06T07:15:29Z</time>
      </trkpt>
      <trkpt lat="48.61583" lon="6.0747">
        <ele>217.8</ele>
        <time>2022-07-06T07:15:41Z</time>
      </trkpt>
      <trkpt lat="48.61578" lon="6.07484">
        <ele>219</ele>
        <time>2022-07-06T07:15:47Z</time>
      </trkpt>
      <trkpt lat="48.61578" lon="6.07485">
        <ele>219</ele>
        <time>2022-07-06T07:15:48Z</time>
      </trkpt>
      <trkpt lat="48.61577" lon="6.07486">
        <ele>219</ele>
        <time>2022-07-06T07:15:49Z</time>
      </trkpt>
      <trkpt lat="48.61577" lon="6.07488">
        <ele>219</ele>
        <time>2022-07-06T07:15:50Z</time>
      </trkpt>
      <trkpt lat="48.61577" lon="6.0749">
        <ele>219</ele>
        <time>2022-07-06T07:15:51Z</time>
      </trkpt>
      <trkpt lat="48.61576" lon="6.07493">
        <ele>219</ele>
        <time>2022-07-06T07:15:52Z</time>
      </trkpt>
      <trkpt lat="48.61575" lon="6.07497">
        <ele>219</ele>
        <time>2022-07-06T07:15:53Z</time>
      </trkpt>
      <trkpt lat="48.61574" lon="6.07502">
        <ele>218.6</ele>
        <time>2022-07-06T07:15:54Z</time>
      </trkpt>
      <trkpt lat="48.61572" lon="6.07507">
        <ele>218.4</ele>
        <time>2022-07-06T07:15:55Z</time>
      </trkpt>
      <trkpt lat="48.61569" lon="6.07513">
        <ele>218.4</ele>
        <time>2022-07-06T07:15:56Z</time>
      </trkpt>
      <trkpt lat="48.61567" lon="6.07519">
        <ele>218.2</ele>
        <time>2022-07-06T07:15:57Z</time>
      </trkpt>
      <trkpt lat="48.61535" lon="6.07592">
        <ele>216.8</ele>
        <time>2022-07-06T07:16:09Z</time>
      </trkpt>
      <trkpt lat="48.61502" lon="6.0767">
        <ele>217</ele>
        <time>2022-07-06T07:16:20Z</time>
      </trkpt>
      <trkpt lat="48.61476" lon="6.07746">
        <ele>217.8</ele>
        <time>2022-07-06T07:16:30Z</time>
      </trkpt>
      <trkpt lat="48.61472" lon="6.07762">
        <ele>218.4</ele>
        <time>2022-07-06T07:16:32Z</time>
      </trkpt>
      <trkpt lat="48.61467" lon="6.07776">
        <ele>218.4</ele>
        <time>2022-07-06T07:16:34Z</time>
      </trkpt>
      <trkpt lat="48.61464" lon="6.07783">
        <ele>218.4</ele>
        <time>2022-07-06T07:16:35Z</time>
      </trkpt>
      <trkpt lat="48.61461" lon="6.07789">
        <ele>218.2</ele>
        <time>2022-07-06T07:16:36Z</time>
      </trkpt>
      <trkpt lat="48.61429" lon="6.07871">
        <ele>217</ele>
        <time>2022-07-06T07:16:47Z</time>
      </trkpt>
      <trkpt lat="48.61393" lon="6.07945">
        <ele>216.8</ele>
        <time>2022-07-06T07:16:57Z</time>
      </trkpt>
      <trkpt lat="48.6139" lon="6.07952">
        <ele>216.8</ele>
        <time>2022-07-06T07:16:58Z</time>
      </trkpt>
      <trkpt lat="48.61366" lon="6.08007">
        <ele>216.2</ele>
        <time>2022-07-06T07:17:05Z</time>
      </trkpt>
      <trkpt lat="48.61357" lon="6.08042">
        <ele>216.4</ele>
        <time>2022-07-06T07:17:09Z</time>
      </trkpt>
      <trkpt lat="48.6134" lon="6.08098">
        <ele>217.6</ele>
        <time>2022-07-06T07:17:17Z</time>
      </trkpt>
      <trkpt lat="48.61313" lon="6.08178">
        <ele>216</ele>
        <time>2022-07-06T07:17:28Z</time>
      </trkpt>
      <trkpt lat="48.61307" lon="6.08193">
        <ele>217.2</ele>
        <time>2022-07-06T07:17:30Z</time>
      </trkpt>
      <trkpt lat="48.61276" lon="6.08273">
        <ele>217.8</ele>
        <time>2022-07-06T07:17:40Z</time>
      </trkpt>
      <trkpt lat="48.61261" lon="6.08314">
        <ele>218.2</ele>
        <time>2022-07-06T07:17:45Z</time>
      </trkpt>
      <trkpt lat="48.61259" lon="6.08321">
        <ele>217.6</ele>
        <time>2022-07-06T07:17:46Z</time>
      </trkpt>
      <trkpt lat="48.61232" lon="6.08399">
        <ele>217.6</ele>
        <time>2022-07-06T07:17:56Z</time>
      </trkpt>
      <trkpt lat="48.61202" lon="6.08475">
        <ele>218.4</ele>
        <time>2022-07-06T07:18:06Z</time>
      </trkpt>
      <trkpt lat="48.61171" lon="6.0855">
        <ele>218</ele>
        <time>2022-07-06T07:18:16Z</time>
      </trkpt>
      <trkpt lat="48.61168" lon="6.08557">
        <ele>218.2</ele>
        <time>2022-07-06T07:18:17Z</time>
      </trkpt>
      <trkpt lat="48.61136" lon="6.0863">
        <ele>218.8</ele>
        <time>2022-07-06T07:18:27Z</time>
      </trkpt>
      <trkpt lat="48.611" lon="6.087">
        <ele>218.6</ele>
        <time>2022-07-06T07:18:37Z</time>
      </trkpt>
      <trkpt lat="48.61093" lon="6.08714">
        <ele>218.8</ele>
        <time>2022-07-06T07:18:39Z</time>
      </trkpt>
      <trkpt lat="48.61058" lon="6.08788">
        <ele>218.4</ele>
        <time>2022-07-06T07:18:49Z</time>
      </trkpt>
      <trkpt lat="48.61027" lon="6.08869">
        <ele>218.8</ele>
        <time>2022-07-06T07:18:59Z</time>
      </trkpt>
      <trkpt lat="48.61002" lon="6.08951">
        <ele>218.8</ele>
        <time>2022-07-06T07:19:09Z</time>
      </trkpt>
      <trkpt lat="48.60989" lon="6.08983">
        <ele>218.6</ele>
        <time>2022-07-06T07:19:14Z</time>
      </trkpt>
      <trkpt lat="48.60972" lon="6.09028">
        <ele>220.8</ele>
        <time>2022-07-06T07:19:27Z</time>
      </trkpt>
      <trkpt lat="48.60972" lon="6.0903">
        <ele>220.8</ele>
        <time>2022-07-06T07:19:28Z</time>
      </trkpt>
      <trkpt lat="48.60972" lon="6.09032">
        <ele>221</ele>
        <time>2022-07-06T07:19:34Z</time>
      </trkpt>
      <trkpt lat="48.60977" lon="6.09042">
        <ele>221.2</ele>
        <time>2022-07-06T07:19:57Z</time>
      </trkpt>
      <trkpt lat="48.60978" lon="6.09044">
        <ele>221.2</ele>
        <time>2022-07-06T07:19:58Z</time>
      </trkpt>
      <trkpt lat="48.6098" lon="6.09047">
        <ele>221.2</ele>
        <time>2022-07-06T07:19:59Z</time>
      </trkpt>
      <trkpt lat="48.60981" lon="6.09049">
        <ele>221.2</ele>
        <time>2022-07-06T07:20:00Z</time>
      </trkpt>
      <trkpt lat="48.60983" lon="6.0905">
        <ele>221.2</ele>
        <time>2022-07-06T07:20:01Z</time>
      </trkpt>
      <trkpt lat="48.60985" lon="6.09052">
        <ele>221.2</ele>
        <time>2022-07-06T07:20:02Z</time>
      </trkpt>
      <trkpt lat="48.60986" lon="6.09055">
        <ele>221</ele>
        <time>2022-07-06T07:20:09Z</time>
      </trkpt>
      <trkpt lat="48.60996" lon="6.09059">
        <ele>221.4</ele>
        <time>2022-07-06T07:22:21Z</time>
      </trkpt>
      <trkpt lat="48.60997" lon="6.09061">
        <ele>221.4</ele>
        <time>2022-07-06T07:22:22Z</time>
      </trkpt>
      <trkpt lat="48.61034" lon="6.09094">
        <ele>221.4</ele>
        <time>2022-07-06T07:22:49Z</time>
      </trkpt>
      <trkpt lat="48.61034" lon="6.09094">
        <ele>221.4</ele>
        <time>2022-07-06T07:22:50Z</time>
      </trkpt>
      <trkpt lat="48.61039" lon="6.09083">
        <ele>220.8</ele>
        <time>2022-07-06T07:23:19Z</time>
      </trkpt>
      <trkpt lat="48.6104" lon="6.0908">
        <ele>220.6</ele>
        <time>2022-07-06T07:23:20Z</time>
      </trkpt>
      <trkpt lat="48.61042" lon="6.09075">
        <ele>220.2</ele>
        <time>2022-07-06T07:23:21Z</time>
      </trkpt>
      <trkpt lat="48.61044" lon="6.09069">
        <ele>220</ele>
        <time>2022-07-06T07:23:22Z</time>
      </trkpt>
      <trkpt lat="48.61047" lon="6.09061">
        <ele>219.8</ele>
        <time>2022-07-06T07:23:23Z</time>
      </trkpt>
      <trkpt lat="48.6105" lon="6.09052">
        <ele>219.4</ele>
        <time>2022-07-06T07:23:24Z</time>
      </trkpt>
      <trkpt lat="48.61057" lon="6.09036">
        <ele>218.4</ele>
        <time>2022-07-06T07:23:26Z</time>
      </trkpt>
      <trkpt lat="48.61061" lon="6.09029">
        <ele>218</ele>
        <time>2022-07-06T07:23:27Z</time>
      </trkpt>
      <trkpt lat="48.61066" lon="6.09023">
        <ele>218</ele>
        <time>2022-07-06T07:23:28Z</time>
      </trkpt>
      <trkpt lat="48.61099" lon="6.08987">
        <ele>217.6</ele>
        <time>2022-07-06T07:23:35Z</time>
      </trkpt>
      <trkpt lat="48.61104" lon="6.08984">
        <ele>217.4</ele>
        <time>2022-07-06T07:23:36Z</time>
      </trkpt>
      <trkpt lat="48.61109" lon="6.08983">
        <ele>217.4</ele>
        <time>2022-07-06T07:23:37Z</time>
      </trkpt>
      <trkpt lat="48.61113" lon="6.08983">
        <ele>217.4</ele>
        <time>2022-07-06T07:23:38Z</time>
      </trkpt>
      <trkpt lat="48.61118" lon="6.08984">
        <ele>217.6</ele>
        <time>2022-07-06T07:23:39Z</time>
      </trkpt>
      <trkpt lat="48.61122" lon="6.08985">
        <ele>217.6</ele>
        <time>2022-07-06T07:23:40Z</time>
      </trkpt>
      <trkpt lat="48.61156" lon="6.08997">
        <ele>218.6</ele>
        <time>2022-07-06T07:23:49Z</time>
      </trkpt>
      <trkpt lat="48.61159" lon="6.09001">
        <ele>218.4</ele>
        <time>2022-07-06T07:23:50Z</time>
      </trkpt>
      <trkpt lat="48.61161" lon="6.09006">
        <ele>218.2</ele>
        <time>2022-07-06T07:23:51Z</time>
      </trkpt>
      <trkpt lat="48.61162" lon="6.09011">
        <ele>218</ele>
        <time>2022-07-06T07:23:52Z</time>
      </trkpt>
      <trkpt lat="48.61163" lon="6.09015">
        <ele>218</ele>
        <time>2022-07-06T07:23:53Z</time>
      </trkpt>
      <trkpt lat="48.61163" lon="6.09019">
        <ele>218.2</ele>
        <time>2022-07-06T07:23:54Z</time>
      </trkpt>
      <trkpt lat="48.61162" lon="6.09024">
        <ele>218.6</ele>
        <time>2022-07-06T07:23:55Z</time>
      </trkpt>
      <trkpt lat="48.61161" lon="6.09028">
        <ele>218.6</ele>
        <time>2022-07-06T07:23:56Z</time>
      </trkpt>
      <trkpt lat="48.61159" lon="6.09032">
        <ele>218.8</ele>
        <time>2022-07-06T07:23:57Z</time>
      </trkpt>
      <trkpt lat="48.61157" lon="6.09036">
        <ele>219</ele>
        <time>2022-07-06T07:23:58Z</time>
      </trkpt>
      <trkpt lat="48.61124" lon="6.09107">
        <ele>219</ele>
        <time>2022-07-06T07:24:11Z</time>
      </trkpt>
      <trkpt lat="48.61091" lon="6.09178">
        <ele>218.6</ele>
        <time>2022-07-06T07:24:22Z</time>
      </trkpt>
      <trkpt lat="48.61055" lon="6.09255">
        <ele>218.2</ele>
        <time>2022-07-06T07:24:33Z</time>
      </trkpt>
      <trkpt lat="48.6102" lon="6.09331">
        <ele>218.2</ele>
        <time>2022-07-06T07:24:44Z</time>
      </trkpt>
      <trkpt lat="48.60987" lon="6.09403">
        <ele>218.2</ele>
        <time>2022-07-06T07:24:54Z</time>
      </trkpt>
      <trkpt lat="48.60953" lon="6.09475">
        <ele>218.4</ele>
        <time>2022-07-06T07:25:04Z</time>
      </trkpt>
      <trkpt lat="48.60921" lon="6.09548">
        <ele>218.2</ele>
        <time>2022-07-06T07:25:14Z</time>
      </trkpt>
      <trkpt lat="48.60894" lon="6.09625">
        <ele>219</ele>
        <time>2022-07-06T07:25:24Z</time>
      </trkpt>
      <trkpt lat="48.60866" lon="6.09701">
        <ele>219</ele>
        <time>2022-07-06T07:25:34Z</time>
      </trkpt>
      <trkpt lat="48.60838" lon="6.0978">
        <ele>219.2</ele>
        <time>2022-07-06T07:25:44Z</time>
      </trkpt>
      <trkpt lat="48.6081" lon="6.09855">
        <ele>219.6</ele>
        <time>2022-07-06T07:25:54Z</time>
      </trkpt>
      <trkpt lat="48.60786" lon="6.09936">
        <ele>220.4</ele>
        <time>2022-07-06T07:26:06Z</time>
      </trkpt>
      <trkpt lat="48.60767" lon="6.10007">
        <ele>222.4</ele>
        <time>2022-07-06T07:26:35Z</time>
      </trkpt>
      <trkpt lat="48.60764" lon="6.10021">
        <ele>222.4</ele>
        <time>2022-07-06T07:26:48Z</time>
      </trkpt>
      <trkpt lat="48.60763" lon="6.10024">
        <ele>222.2</ele>
        <time>2022-07-06T07:26:49Z</time>
      </trkpt>
      <trkpt lat="48.60764" lon="6.10027">
        <ele>222</ele>
        <time>2022-07-06T07:26:50Z</time>
      </trkpt>
      <trkpt lat="48.60765" lon="6.1003">
        <ele>221.8</ele>
        <time>2022-07-06T07:26:51Z</time>
      </trkpt>
      <trkpt lat="48.60766" lon="6.10033">
        <ele>221.8</ele>
        <time>2022-07-06T07:26:52Z</time>
      </trkpt>
      <trkpt lat="48.60766" lon="6.10036">
        <ele>221.8</ele>
        <time>2022-07-06T07:26:53Z</time>
      </trkpt>
      <trkpt lat="48.60765" lon="6.10039">
        <ele>221.8</ele>
        <time>2022-07-06T07:26:54Z</time>
      </trkpt>
      <trkpt lat="48.60765" lon="6.10043">
        <ele>221.6</ele>
        <time>2022-07-06T07:26:55Z</time>
      </trkpt>
      <trkpt lat="48.60764" lon="6.10047">
        <ele>221.6</ele>
        <time>2022-07-06T07:26:56Z</time>
      </trkpt>
      <trkpt lat="48.6075" lon="6.10139">
        <ele>220.2</ele>
        <time>2022-07-06T07:27:09Z</time>
      </trkpt>
      <trkpt lat="48.6074" lon="6.10228">
        <ele>218.8</ele>
        <time>2022-07-06T07:27:19Z</time>
      </trkpt>
      <trkpt lat="48.60726" lon="6.10323">
        <ele>217.6</ele>
        <time>2022-07-06T07:27:29Z</time>
      </trkpt>
      <trkpt lat="48.60704" lon="6.10412">
        <ele>218</ele>
        <time>2022-07-06T07:27:39Z</time>
      </trkpt>
      <trkpt lat="48.60677" lon="6.10486">
        <ele>220.8</ele>
        <time>2022-07-06T07:27:56Z</time>
      </trkpt>
      <trkpt lat="48.60672" lon="6.10517">
        <ele>219.6</ele>
        <time>2022-07-06T07:28:02Z</time>
      </trkpt>
      <trkpt lat="48.60669" lon="6.1053">
        <ele>219.2</ele>
        <time>2022-07-06T07:28:04Z</time>
      </trkpt>
      <trkpt lat="48.60667" lon="6.10537">
        <ele>219.2</ele>
        <time>2022-07-06T07:28:05Z</time>
      </trkpt>
      <trkpt lat="48.60663" lon="6.1055">
        <ele>219.2</ele>
        <time>2022-07-06T07:28:07Z</time>
      </trkpt>
      <trkpt lat="48.60661" lon="6.10556">
        <ele>219.4</ele>
        <time>2022-07-06T07:28:08Z</time>
      </trkpt>
      <trkpt lat="48.6066" lon="6.10564">
        <ele>219.4</ele>
        <time>2022-07-06T07:28:09Z</time>
      </trkpt>
      <trkpt lat="48.6066" lon="6.10571">
        <ele>219.2</ele>
        <time>2022-07-06T07:28:10Z</time>
      </trkpt>
      <trkpt lat="48.60659" lon="6.10578">
        <ele>219.2</ele>
        <time>2022-07-06T07:28:11Z</time>
      </trkpt>
      <trkpt lat="48.60659" lon="6.10586">
        <ele>219.2</ele>
        <time>2022-07-06T07:28:12Z</time>
      </trkpt>
      <trkpt lat="48.6066" lon="6.10679">
        <ele>220.2</ele>
        <time>2022-07-06T07:28:24Z</time>
      </trkpt>
      <trkpt lat="48.6066" lon="6.10702">
        <ele>219.8</ele>
        <time>2022-07-06T07:28:27Z</time>
      </trkpt>
      <trkpt lat="48.60657" lon="6.10741">
        <ele>219.8</ele>
        <time>2022-07-06T07:28:32Z</time>
      </trkpt>
      <trkpt lat="48.60655" lon="6.10748">
        <ele>220</ele>
        <time>2022-07-06T07:28:33Z</time>
      </trkpt>
      <trkpt lat="48.60652" lon="6.10755">
        <ele>220.2</ele>
        <time>2022-07-06T07:28:34Z</time>
      </trkpt>
      <trkpt lat="48.60649" lon="6.1076">
        <ele>220.2</ele>
        <time>2022-07-06T07:28:35Z</time>
      </trkpt>
      <trkpt lat="48.60645" lon="6.10765">
        <ele>220.4</ele>
        <time>2022-07-06T07:28:36Z</time>
      </trkpt>
      <trkpt lat="48.60642" lon="6.10769">
        <ele>220.4</ele>
        <time>2022-07-06T07:28:37Z</time>
      </trkpt>
      <trkpt lat="48.60615" lon="6.108">
        <ele>221.6</ele>
        <time>2022-07-06T07:28:49Z</time>
      </trkpt>
      <trkpt lat="48.60613" lon="6.10798">
        <ele>221.6</ele>
        <time>2022-07-06T07:28:50Z</time>
      </trkpt>
      <trkpt lat="48.60611" lon="6.10796">
        <ele>221.6</ele>
        <time>2022-07-06T07:28:51Z</time>
      </trkpt>
      <trkpt lat="48.6061" lon="6.10792">
        <ele>221.8</ele>
        <time>2022-07-06T07:28:52Z</time>
      </trkpt>
      <trkpt lat="48.6061" lon="6.10787">
        <ele>221.8</ele>
        <time>2022-07-06T07:28:53Z</time>
      </trkpt>
      <trkpt lat="48.6061" lon="6.10783">
        <ele>221.8</ele>
        <time>2022-07-06T07:28:54Z</time>
      </trkpt>
      <trkpt lat="48.6058" lon="6.10756">
        <ele>221.2</ele>
        <time>2022-07-06T07:29:04Z</time>
      </trkpt>
      <trkpt lat="48.60575" lon="6.10757">
        <ele>221</ele>
        <time>2022-07-06T07:29:05Z</time>
      </trkpt>
      <trkpt lat="48.60569" lon="6.1076">
        <ele>220.8</ele>
        <time>2022-07-06T07:29:06Z</time>
      </trkpt>
      <trkpt lat="48.60557" lon="6.10767">
        <ele>220</ele>
        <time>2022-07-06T07:29:08Z</time>
      </trkpt>
      <trkpt lat="48.6052" lon="6.10802">
        <ele>219.2</ele>
        <time>2022-07-06T07:29:16Z</time>
      </trkpt>
      <trkpt lat="48.60517" lon="6.10802">
        <ele>219.2</ele>
        <time>2022-07-06T07:29:17Z</time>
      </trkpt>
      <trkpt lat="48.60514" lon="6.10801">
        <ele>219.2</ele>
        <time>2022-07-06T07:29:18Z</time>
      </trkpt>
      <trkpt lat="48.60513" lon="6.10798">
        <ele>219.2</ele>
        <time>2022-07-06T07:29:19Z</time>
      </trkpt>
      <trkpt lat="48.60511" lon="6.10795">
        <ele>219.4</ele>
        <time>2022-07-06T07:29:20Z</time>
      </trkpt>
      <trkpt lat="48.60509" lon="6.10794">
        <ele>219.2</ele>
        <time>2022-07-06T07:29:21Z</time>
      </trkpt>
      <trkpt lat="48.60506" lon="6.10796">
        <ele>219.2</ele>
        <time>2022-07-06T07:29:22Z</time>
      </trkpt>
      <trkpt lat="48.60503" lon="6.10799">
        <ele>219</ele>
        <time>2022-07-06T07:29:23Z</time>
      </trkpt>
      <trkpt lat="48.605" lon="6.10802">
        <ele>219</ele>
        <time>2022-07-06T07:29:24Z</time>
      </trkpt>
      <trkpt lat="48.60453" lon="6.10866">
        <ele>219.4</ele>
        <time>2022-07-06T07:29:39Z</time>
      </trkpt>
      <trkpt lat="48.60444" lon="6.10886">
        <ele>219.6</ele>
        <time>2022-07-06T07:29:42Z</time>
      </trkpt>
      <trkpt lat="48.60441" lon="6.10892">
        <ele>219.8</ele>
        <time>2022-07-06T07:29:43Z</time>
      </trkpt>
      <trkpt lat="48.60435" lon="6.10912">
        <ele>219.8</ele>
        <time>2022-07-06T07:29:46Z</time>
      </trkpt>
      <trkpt lat="48.60433" lon="6.1092">
        <ele>219.8</ele>
        <time>2022-07-06T07:29:47Z</time>
      </trkpt>
      <trkpt lat="48.60433" lon="6.10927">
        <ele>220</ele>
        <time>2022-07-06T07:29:48Z</time>
      </trkpt>
      <trkpt lat="48.60431" lon="6.10941">
        <ele>220</ele>
        <time>2022-07-06T07:29:50Z</time>
      </trkpt>
      <trkpt lat="48.60432" lon="6.11034">
        <ele>220.8</ele>
        <time>2022-07-06T07:30:03Z</time>
      </trkpt>
      <trkpt lat="48.60448" lon="6.1112">
        <ele>220</ele>
        <time>2022-07-06T07:30:13Z</time>
      </trkpt>
      <trkpt lat="48.60476" lon="6.11196">
        <ele>220.6</ele>
        <time>2022-07-06T07:30:23Z</time>
      </trkpt>
      <trkpt lat="48.60504" lon="6.11265">
        <ele>221</ele>
        <time>2022-07-06T07:30:33Z</time>
      </trkpt>
      <trkpt lat="48.60508" lon="6.11279">
        <ele>220.8</ele>
        <time>2022-07-06T07:30:35Z</time>
      </trkpt>
      <trkpt lat="48.60519" lon="6.11325">
        <ele>220</ele>
        <time>2022-07-06T07:30:41Z</time>
      </trkpt>
      <trkpt lat="48.60547" lon="6.11386">
        <ele>219.6</ele>
        <time>2022-07-06T07:30:50Z</time>
      </trkpt>
      <trkpt lat="48.60552" lon="6.11391">
        <ele>219</ele>
        <time>2022-07-06T07:30:51Z</time>
      </trkpt>
      <trkpt lat="48.606" lon="6.11445">
        <ele>219.6</ele>
        <time>2022-07-06T07:31:02Z</time>
      </trkpt>
      <trkpt lat="48.6065" lon="6.11499">
        <ele>219.6</ele>
        <time>2022-07-06T07:31:13Z</time>
      </trkpt>
      <trkpt lat="48.6067" lon="6.11525">
        <ele>219.2</ele>
        <time>2022-07-06T07:31:18Z</time>
      </trkpt>
      <trkpt lat="48.60704" lon="6.11595">
        <ele>220.2</ele>
        <time>2022-07-06T07:31:30Z</time>
      </trkpt>
      <trkpt lat="48.60736" lon="6.11671">
        <ele>220.8</ele>
        <time>2022-07-06T07:31:42Z</time>
      </trkpt>
      <trkpt lat="48.60768" lon="6.11749">
        <ele>221</ele>
        <time>2022-07-06T07:31:54Z</time>
      </trkpt>
      <trkpt lat="48.60795" lon="6.11816">
        <ele>220.4</ele>
        <time>2022-07-06T07:32:04Z</time>
      </trkpt>
      <trkpt lat="48.60796" lon="6.11824">
        <ele>220.6</ele>
        <time>2022-07-06T07:32:05Z</time>
      </trkpt>
      <trkpt lat="48.60803" lon="6.11914">
        <ele>220.8</ele>
        <time>2022-07-06T07:32:17Z</time>
      </trkpt>
      <trkpt lat="48.60815" lon="6.12">
        <ele>220.2</ele>
        <time>2022-07-06T07:32:29Z</time>
      </trkpt>
      <trkpt lat="48.60828" lon="6.1209">
        <ele>220.6</ele>
        <time>2022-07-06T07:32:41Z</time>
      </trkpt>
      <trkpt lat="48.60839" lon="6.1218">
        <ele>220.6</ele>
        <time>2022-07-06T07:32:53Z</time>
      </trkpt>
      <trkpt lat="48.60843" lon="6.12271">
        <ele>220.8</ele>
        <time>2022-07-06T07:33:04Z</time>
      </trkpt>
      <trkpt lat="48.60856" lon="6.12352">
        <ele>220.8</ele>
        <time>2022-07-06T07:33:14Z</time>
      </trkpt>
      <trkpt lat="48.60859" lon="6.12358">
        <ele>221</ele>
        <time>2022-07-06T07:33:15Z</time>
      </trkpt>
      <trkpt lat="48.60861" lon="6.12363">
        <ele>221.4</ele>
        <time>2022-07-06T07:33:16Z</time>
      </trkpt>
      <trkpt lat="48.60874" lon="6.12394">
        <ele>222.2</ele>
        <time>2022-07-06T07:33:22Z</time>
      </trkpt>
      <trkpt lat="48.60875" lon="6.12401">
        <ele>222.2</ele>
        <time>2022-07-06T07:33:23Z</time>
      </trkpt>
      <trkpt lat="48.60876" lon="6.12407">
        <ele>222.2</ele>
        <time>2022-07-06T07:33:24Z</time>
      </trkpt>
      <trkpt lat="48.60877" lon="6.12414">
        <ele>222.2</ele>
        <time>2022-07-06T07:33:25Z</time>
      </trkpt>
      <trkpt lat="48.60878" lon="6.1242">
        <ele>222.4</ele>
        <time>2022-07-06T07:33:26Z</time>
      </trkpt>
      <trkpt lat="48.60889" lon="6.12493">
        <ele>220.8</ele>
        <time>2022-07-06T07:33:36Z</time>
      </trkpt>
      <trkpt lat="48.60891" lon="6.12529">
        <ele>220.4</ele>
        <time>2022-07-06T07:33:41Z</time>
      </trkpt>
      <trkpt lat="48.6089" lon="6.12536">
        <ele>220.6</ele>
        <time>2022-07-06T07:33:42Z</time>
      </trkpt>
      <trkpt lat="48.60888" lon="6.12542">
        <ele>220.8</ele>
        <time>2022-07-06T07:33:43Z</time>
      </trkpt>
      <trkpt lat="48.60886" lon="6.12548">
        <ele>221</ele>
        <time>2022-07-06T07:33:44Z</time>
      </trkpt>
      <trkpt lat="48.60883" lon="6.12554">
        <ele>221</ele>
        <time>2022-07-06T07:33:45Z</time>
      </trkpt>
      <trkpt lat="48.60879" lon="6.12559">
        <ele>221.2</ele>
        <time>2022-07-06T07:33:46Z</time>
      </trkpt>
      <trkpt lat="48.60875" lon="6.12563">
        <ele>221.4</ele>
        <time>2022-07-06T07:33:47Z</time>
      </trkpt>
      <trkpt lat="48.60871" lon="6.12565">
        <ele>221.4</ele>
        <time>2022-07-06T07:33:48Z</time>
      </trkpt>
      <trkpt lat="48.60866" lon="6.12567">
        <ele>221.6</ele>
        <time>2022-07-06T07:33:49Z</time>
      </trkpt>
      <trkpt lat="48.60861" lon="6.12568">
        <ele>221.6</ele>
        <time>2022-07-06T07:33:50Z</time>
      </trkpt>
      <trkpt lat="48.60856" lon="6.1257">
        <ele>221.6</ele>
        <time>2022-07-06T07:33:51Z</time>
      </trkpt>
      <trkpt lat="48.60826" lon="6.12579">
        <ele>221.2</ele>
        <time>2022-07-06T07:33:57Z</time>
      </trkpt>
      <trkpt lat="48.60822" lon="6.12583">
        <ele>221</ele>
        <time>2022-07-06T07:33:58Z</time>
      </trkpt>
      <trkpt lat="48.60818" lon="6.12587">
        <ele>221</ele>
        <time>2022-07-06T07:33:59Z</time>
      </trkpt>
      <trkpt lat="48.60815" lon="6.12592">
        <ele>220.6</ele>
        <time>2022-07-06T07:34:00Z</time>
      </trkpt>
      <trkpt lat="48.60812" lon="6.12599">
        <ele>220.4</ele>
        <time>2022-07-06T07:34:01Z</time>
      </trkpt>
      <trkpt lat="48.6081" lon="6.12606">
        <ele>220.4</ele>
        <time>2022-07-06T07:34:02Z</time>
      </trkpt>
      <trkpt lat="48.60809" lon="6.12614">
        <ele>220.6</ele>
        <time>2022-07-06T07:34:03Z</time>
      </trkpt>
      <trkpt lat="48.60809" lon="6.12622">
        <ele>220.6</ele>
        <time>2022-07-06T07:34:04Z</time>
      </trkpt>
      <trkpt lat="48.60808" lon="6.1263">
        <ele>220.6</ele>
        <time>2022-07-06T07:34:05Z</time>
      </trkpt>
      <trkpt lat="48.60809" lon="6.1272">
        <ele>220.6</ele>
        <time>2022-07-06T07:34:16Z</time>
      </trkpt>
      <trkpt lat="48.60818" lon="6.12808">
        <ele>220.8</ele>
        <time>2022-07-06T07:34:27Z</time>
      </trkpt>
      <trkpt lat="48.60834" lon="6.12889">
        <ele>221.2</ele>
        <time>2022-07-06T07:34:37Z</time>
      </trkpt>
      <trkpt lat="48.60836" lon="6.12897">
        <ele>221.2</ele>
        <time>2022-07-06T07:34:38Z</time>
      </trkpt>
      <trkpt lat="48.6084" lon="6.12904">
        <ele>221.2</ele>
        <time>2022-07-06T07:34:39Z</time>
      </trkpt>
      <trkpt lat="48.60844" lon="6.12909">
        <ele>221</ele>
        <time>2022-07-06T07:34:40Z</time>
      </trkpt>
      <trkpt lat="48.60848" lon="6.12915">
        <ele>220.8</ele>
        <time>2022-07-06T07:34:41Z</time>
      </trkpt>
      <trkpt lat="48.60856" lon="6.12927">
        <ele>221</ele>
        <time>2022-07-06T07:34:43Z</time>
      </trkpt>
      <trkpt lat="48.6086" lon="6.12934">
        <ele>221.2</ele>
        <time>2022-07-06T07:34:44Z</time>
      </trkpt>
      <trkpt lat="48.60863" lon="6.12942">
        <ele>221.2</ele>
        <time>2022-07-06T07:34:45Z</time>
      </trkpt>
      <trkpt lat="48.60891" lon="6.13024">
        <ele>220.8</ele>
        <time>2022-07-06T07:34:56Z</time>
      </trkpt>
      <trkpt lat="48.60892" lon="6.13031">
        <ele>221.2</ele>
        <time>2022-07-06T07:34:57Z</time>
      </trkpt>
      <trkpt lat="48.60892" lon="6.13038">
        <ele>221.4</ele>
        <time>2022-07-06T07:34:58Z</time>
      </trkpt>
      <trkpt lat="48.6089" lon="6.13045">
        <ele>221.6</ele>
        <time>2022-07-06T07:34:59Z</time>
      </trkpt>
      <trkpt lat="48.60888" lon="6.13049">
        <ele>221.6</ele>
        <time>2022-07-06T07:35:00Z</time>
      </trkpt>
      <trkpt lat="48.60885" lon="6.13053">
        <ele>221.4</ele>
        <time>2022-07-06T07:35:01Z</time>
      </trkpt>
      <trkpt lat="48.6088" lon="6.13054">
        <ele>221.4</ele>
        <time>2022-07-06T07:35:02Z</time>
      </trkpt>
      <trkpt lat="48.60876" lon="6.13056">
        <ele>221.4</ele>
        <time>2022-07-06T07:35:03Z</time>
      </trkpt>
      <trkpt lat="48.60862" lon="6.13061">
        <ele>221</ele>
        <time>2022-07-06T07:35:06Z</time>
      </trkpt>
      <trkpt lat="48.60845" lon="6.13062">
        <ele>220.2</ele>
        <time>2022-07-06T07:35:09Z</time>
      </trkpt>
      <trkpt lat="48.60839" lon="6.13061">
        <ele>220</ele>
        <time>2022-07-06T07:35:10Z</time>
      </trkpt>
      <trkpt lat="48.60824" lon="6.13056">
        <ele>220.2</ele>
        <time>2022-07-06T07:35:13Z</time>
      </trkpt>
      <trkpt lat="48.60819" lon="6.13057">
        <ele>220.2</ele>
        <time>2022-07-06T07:35:14Z</time>
      </trkpt>
      <trkpt lat="48.60814" lon="6.13058">
        <ele>220</ele>
        <time>2022-07-06T07:35:15Z</time>
      </trkpt>
      <trkpt lat="48.60809" lon="6.13061">
        <ele>220</ele>
        <time>2022-07-06T07:35:16Z</time>
      </trkpt>
      <trkpt lat="48.60804" lon="6.13066">
        <ele>220</ele>
        <time>2022-07-06T07:35:17Z</time>
      </trkpt>
      <trkpt lat="48.608" lon="6.13072">
        <ele>220</ele>
        <time>2022-07-06T07:35:18Z</time>
      </trkpt>
      <trkpt lat="48.60795" lon="6.13079">
        <ele>220</ele>
        <time>2022-07-06T07:35:19Z</time>
      </trkpt>
      <trkpt lat="48.60767" lon="6.1314">
        <ele>220.2</ele>
        <time>2022-07-06T07:35:27Z</time>
      </trkpt>
      <trkpt lat="48.6076" lon="6.13163">
        <ele>220.2</ele>
        <time>2022-07-06T07:35:30Z</time>
      </trkpt>
      <trkpt lat="48.60758" lon="6.13171">
        <ele>220.2</ele>
        <time>2022-07-06T07:35:31Z</time>
      </trkpt>
      <trkpt lat="48.60759" lon="6.13181">
        <ele>220.2</ele>
        <time>2022-07-06T07:35:32Z</time>
      </trkpt>
      <trkpt lat="48.60759" lon="6.1319">
        <ele>220</ele>
        <time>2022-07-06T07:35:33Z</time>
      </trkpt>
      <trkpt lat="48.6076" lon="6.13199">
        <ele>219.8</ele>
        <time>2022-07-06T07:35:34Z</time>
      </trkpt>
      <trkpt lat="48.60762" lon="6.13296">
        <ele>220.2</ele>
        <time>2022-07-06T07:35:45Z</time>
      </trkpt>
      <trkpt lat="48.60761" lon="6.13314">
        <ele>220</ele>
        <time>2022-07-06T07:35:47Z</time>
      </trkpt>
      <trkpt lat="48.60759" lon="6.13322">
        <ele>219.8</ele>
        <time>2022-07-06T07:35:48Z</time>
      </trkpt>
      <trkpt lat="48.60737" lon="6.13392">
        <ele>221.2</ele>
        <time>2022-07-06T07:35:58Z</time>
      </trkpt>
      <trkpt lat="48.60735" lon="6.13399">
        <ele>221</ele>
        <time>2022-07-06T07:35:59Z</time>
      </trkpt>
      <trkpt lat="48.60736" lon="6.13407">
        <ele>221</ele>
        <time>2022-07-06T07:36:00Z</time>
      </trkpt>
      <trkpt lat="48.60739" lon="6.13413">
        <ele>220.6</ele>
        <time>2022-07-06T07:36:01Z</time>
      </trkpt>
      <trkpt lat="48.60741" lon="6.1342">
        <ele>219.2</ele>
        <time>2022-07-06T07:36:02Z</time>
      </trkpt>
      <trkpt lat="48.60745" lon="6.13426">
        <ele>218.4</ele>
        <time>2022-07-06T07:36:03Z</time>
      </trkpt>
      <trkpt lat="48.60748" lon="6.13432">
        <ele>218.2</ele>
        <time>2022-07-06T07:36:04Z</time>
      </trkpt>
      <trkpt lat="48.60755" lon="6.13444">
        <ele>218.4</ele>
        <time>2022-07-06T07:36:06Z</time>
      </trkpt>
      <trkpt lat="48.60791" lon="6.1349">
        <ele>217.2</ele>
        <time>2022-07-06T07:36:14Z</time>
      </trkpt>
      <trkpt lat="48.60795" lon="6.13498">
        <ele>217.4</ele>
        <time>2022-07-06T07:36:15Z</time>
      </trkpt>
      <trkpt lat="48.60798" lon="6.13505">
        <ele>217.6</ele>
        <time>2022-07-06T07:36:16Z</time>
      </trkpt>
      <trkpt lat="48.60831" lon="6.13583">
        <ele>217</ele>
        <time>2022-07-06T07:36:26Z</time>
      </trkpt>
      <trkpt lat="48.60839" lon="6.13605">
        <ele>219</ele>
        <time>2022-07-06T07:36:29Z</time>
      </trkpt>
      <trkpt lat="48.60851" lon="6.13646">
        <ele>222</ele>
        <time>2022-07-06T07:36:38Z</time>
      </trkpt>
      <trkpt lat="48.60863" lon="6.13662">
        <ele>222.2</ele>
        <time>2022-07-06T07:36:43Z</time>
      </trkpt>
      <trkpt lat="48.60867" lon="6.13664">
        <ele>222.2</ele>
        <time>2022-07-06T07:36:44Z</time>
      </trkpt>
      <trkpt lat="48.60872" lon="6.13665">
        <ele>222</ele>
        <time>2022-07-06T07:36:45Z</time>
      </trkpt>
      <trkpt lat="48.60876" lon="6.13665">
        <ele>222</ele>
        <time>2022-07-06T07:36:46Z</time>
      </trkpt>
      <trkpt lat="48.6088" lon="6.13664">
        <ele>222</ele>
        <time>2022-07-06T07:36:47Z</time>
      </trkpt>
      <trkpt lat="48.60884" lon="6.13662">
        <ele>222</ele>
        <time>2022-07-06T07:36:48Z</time>
      </trkpt>
      <trkpt lat="48.60899" lon="6.13662">
        <ele>222.4</ele>
        <time>2022-07-06T07:36:52Z</time>
      </trkpt>
      <trkpt lat="48.60901" lon="6.13666">
        <ele>222.4</ele>
        <time>2022-07-06T07:36:53Z</time>
      </trkpt>
      <trkpt lat="48.60903" lon="6.1367">
        <ele>222.4</ele>
        <time>2022-07-06T07:36:54Z</time>
      </trkpt>
      <trkpt lat="48.60904" lon="6.13675">
        <ele>222.4</ele>
        <time>2022-07-06T07:36:55Z</time>
      </trkpt>
      <trkpt lat="48.60904" lon="6.1368">
        <ele>222.4</ele>
        <time>2022-07-06T07:36:56Z</time>
      </trkpt>
      <trkpt lat="48.60903" lon="6.13686">
        <ele>222.4</ele>
        <time>2022-07-06T07:36:57Z</time>
      </trkpt>
      <trkpt lat="48.60902" lon="6.13691">
        <ele>222.4</ele>
        <time>2022-07-06T07:36:58Z</time>
      </trkpt>
      <trkpt lat="48.60901" lon="6.13696">
        <ele>222.4</ele>
        <time>2022-07-06T07:36:59Z</time>
      </trkpt>
      <trkpt lat="48.60898" lon="6.13702">
        <ele>222.4</ele>
        <time>2022-07-06T07:37:00Z</time>
      </trkpt>
      <trkpt lat="48.60897" lon="6.13708">
        <ele>222.4</ele>
        <time>2022-07-06T07:37:01Z</time>
      </trkpt>
      <trkpt lat="48.60895" lon="6.13714">
        <ele>222.4</ele>
        <time>2022-07-06T07:37:02Z</time>
      </trkpt>
      <trkpt lat="48.60893" lon="6.1372">
        <ele>222.4</ele>
        <time>2022-07-06T07:37:03Z</time>
      </trkpt>
      <trkpt lat="48.60891" lon="6.13726">
        <ele>222.4</ele>
        <time>2022-07-06T07:37:04Z</time>
      </trkpt>
      <trkpt lat="48.6088" lon="6.13764">
        <ele>222</ele>
        <time>2022-07-06T07:37:10Z</time>
      </trkpt>
      <trkpt lat="48.60879" lon="6.13772">
        <ele>222</ele>
        <time>2022-07-06T07:37:11Z</time>
      </trkpt>
      <trkpt lat="48.60878" lon="6.13779">
        <ele>221.8</ele>
        <time>2022-07-06T07:37:12Z</time>
      </trkpt>
      <trkpt lat="48.60878" lon="6.13787">
        <ele>221.8</ele>
        <time>2022-07-06T07:37:13Z</time>
      </trkpt>
      <trkpt lat="48.60879" lon="6.13795">
        <ele>222.2</ele>
        <time>2022-07-06T07:37:14Z</time>
      </trkpt>
      <trkpt lat="48.60879" lon="6.13803">
        <ele>222.4</ele>
        <time>2022-07-06T07:37:15Z</time>
      </trkpt>
      <trkpt lat="48.6088" lon="6.13811">
        <ele>222.4</ele>
        <time>2022-07-06T07:37:16Z</time>
      </trkpt>
      <trkpt lat="48.6088" lon="6.13815">
        <ele>222.2</ele>
        <time>2022-07-06T07:37:17Z</time>
      </trkpt>
      <trkpt lat="48.6088" lon="6.13816">
        <ele>221.2</ele>
        <time>2022-07-06T07:37:26Z</time>
      </trkpt>
      <trkpt lat="48.60886" lon="6.13827">
        <ele>221.4</ele>
        <time>2022-07-06T07:41:50Z</time>
      </trkpt>
      <trkpt lat="48.60887" lon="6.13831">
        <ele>221.4</ele>
        <time>2022-07-06T07:41:51Z</time>
      </trkpt>
      <trkpt lat="48.60894" lon="6.13878">
        <ele>220.8</ele>
        <time>2022-07-06T07:42:01Z</time>
      </trkpt>
      <trkpt lat="48.60896" lon="6.13881">
        <ele>220.8</ele>
        <time>2022-07-06T07:42:02Z</time>
      </trkpt>
      <trkpt lat="48.60898" lon="6.13884">
        <ele>221</ele>
        <time>2022-07-06T07:42:03Z</time>
      </trkpt>
      <trkpt lat="48.60901" lon="6.13886">
        <ele>221.4</ele>
        <time>2022-07-06T07:42:04Z</time>
      </trkpt>
      <trkpt lat="48.60905" lon="6.13888">
        <ele>221.6</ele>
        <time>2022-07-06T07:42:05Z</time>
      </trkpt>
      <trkpt lat="48.60909" lon="6.13889">
        <ele>221.4</ele>
        <time>2022-07-06T07:42:06Z</time>
      </trkpt>
      <trkpt lat="48.60912" lon="6.1389">
        <ele>221.4</ele>
        <time>2022-07-06T07:42:07Z</time>
      </trkpt>
      <trkpt lat="48.60968" lon="6.139">
        <ele>221.4</ele>
        <time>2022-07-06T07:42:20Z</time>
      </trkpt>
      <trkpt lat="48.61" lon="6.13913">
        <ele>222</ele>
        <time>2022-07-06T07:42:28Z</time>
      </trkpt>
      <trkpt lat="48.61001" lon="6.13917">
        <ele>222.4</ele>
        <time>2022-07-06T07:42:29Z</time>
      </trkpt>
      <trkpt lat="48.61002" lon="6.13921">
        <ele>222.6</ele>
        <time>2022-07-06T07:42:30Z</time>
      </trkpt>
      <trkpt lat="48.61001" lon="6.13926">
        <ele>223</ele>
        <time>2022-07-06T07:42:31Z</time>
      </trkpt>
      <trkpt lat="48.61001" lon="6.13931">
        <ele>223.2</ele>
        <time>2022-07-06T07:42:32Z</time>
      </trkpt>
      <trkpt lat="48.60991" lon="6.14017">
        <ele>223.2</ele>
        <time>2022-07-06T07:42:44Z</time>
      </trkpt>
      <trkpt lat="48.60981" lon="6.14105">
        <ele>223.8</ele>
        <time>2022-07-06T07:42:54Z</time>
      </trkpt>
      <trkpt lat="48.60972" lon="6.14189">
        <ele>223.8</ele>
        <time>2022-07-06T07:43:07Z</time>
      </trkpt>
      <trkpt lat="48.60962" lon="6.14271">
        <ele>224.2</ele>
        <time>2022-07-06T07:43:20Z</time>
      </trkpt>
      <trkpt lat="48.60949" lon="6.14357">
        <ele>224</ele>
        <time>2022-07-06T07:43:36Z</time>
      </trkpt>
      <trkpt lat="48.60939" lon="6.14443">
        <ele>224.2</ele>
        <time>2022-07-06T07:43:49Z</time>
      </trkpt>
      <trkpt lat="48.60933" lon="6.14504">
        <ele>224</ele>
        <time>2022-07-06T07:43:57Z</time>
      </trkpt>
      <trkpt lat="48.60926" lon="6.14574">
        <ele>224.6</ele>
        <time>2022-07-06T07:44:06Z</time>
      </trkpt>
      <trkpt lat="48.60915" lon="6.14663">
        <ele>224</ele>
        <time>2022-07-06T07:44:18Z</time>
      </trkpt>
      <trkpt lat="48.60903" lon="6.14747">
        <ele>224.2</ele>
        <time>2022-07-06T07:44:30Z</time>
      </trkpt>
      <trkpt lat="48.60873" lon="6.14828">
        <ele>224</ele>
        <time>2022-07-06T07:44:42Z</time>
      </trkpt>
      <trkpt lat="48.6083" lon="6.14885">
        <ele>224.8</ele>
        <time>2022-07-06T07:44:53Z</time>
      </trkpt>
      <trkpt lat="48.60826" lon="6.1489">
        <ele>225</ele>
        <time>2022-07-06T07:44:54Z</time>
      </trkpt>
      <trkpt lat="48.60821" lon="6.14893">
        <ele>225</ele>
        <time>2022-07-06T07:44:55Z</time>
      </trkpt>
      <trkpt lat="48.6076" lon="6.14923">
        <ele>225</ele>
        <time>2022-07-06T07:45:06Z</time>
      </trkpt>
      <trkpt lat="48.60699" lon="6.14952">
        <ele>224.4</ele>
        <time>2022-07-06T07:45:17Z</time>
      </trkpt>
      <trkpt lat="48.60665" lon="6.14971">
        <ele>224.6</ele>
        <time>2022-07-06T07:45:23Z</time>
      </trkpt>
      <trkpt lat="48.60606" lon="6.15004">
        <ele>225</ele>
        <time>2022-07-06T07:45:33Z</time>
      </trkpt>
      <trkpt lat="48.60549" lon="6.15047">
        <ele>224.6</ele>
        <time>2022-07-06T07:45:43Z</time>
      </trkpt>
      <trkpt lat="48.60497" lon="6.151">
        <ele>224.4</ele>
        <time>2022-07-06T07:45:53Z</time>
      </trkpt>
      <trkpt lat="48.60447" lon="6.15153">
        <ele>224.2</ele>
        <time>2022-07-06T07:46:03Z</time>
      </trkpt>
      <trkpt lat="48.60395" lon="6.15208">
        <ele>225</ele>
        <time>2022-07-06T07:46:13Z</time>
      </trkpt>
      <trkpt lat="48.60345" lon="6.15267">
        <ele>223.6</ele>
        <time>2022-07-06T07:46:23Z</time>
      </trkpt>
      <trkpt lat="48.60296" lon="6.15318">
        <ele>224.6</ele>
        <time>2022-07-06T07:46:33Z</time>
      </trkpt>
      <trkpt lat="48.60245" lon="6.15368">
        <ele>225.4</ele>
        <time>2022-07-06T07:46:47Z</time>
      </trkpt>
      <trkpt lat="48.60235" lon="6.15381">
        <ele>226</ele>
        <time>2022-07-06T07:46:54Z</time>
      </trkpt>
      <trkpt lat="48.60235" lon="6.15384">
        <ele>226.2</ele>
        <time>2022-07-06T07:46:55Z</time>
      </trkpt>
      <trkpt lat="48.60235" lon="6.15388">
        <ele>226.2</ele>
        <time>2022-07-06T07:46:56Z</time>
      </trkpt>
      <trkpt lat="48.60236" lon="6.15392">
        <ele>226.2</ele>
        <time>2022-07-06T07:46:57Z</time>
      </trkpt>
      <trkpt lat="48.60237" lon="6.15396">
        <ele>226.2</ele>
        <time>2022-07-06T07:46:58Z</time>
      </trkpt>
      <trkpt lat="48.60239" lon="6.15399">
        <ele>226.2</ele>
        <time>2022-07-06T07:46:59Z</time>
      </trkpt>
      <trkpt lat="48.60243" lon="6.15417">
        <ele>226.2</ele>
        <time>2022-07-06T07:47:04Z</time>
      </trkpt>
      <trkpt lat="48.60241" lon="6.15418">
        <ele>226.2</ele>
        <time>2022-07-06T07:47:05Z</time>
      </trkpt>
      <trkpt lat="48.60239" lon="6.15419">
        <ele>226.2</ele>
        <time>2022-07-06T07:47:06Z</time>
      </trkpt>
      <trkpt lat="48.60217" lon="6.1544">
        <ele>226.4</ele>
        <time>2022-07-06T07:47:13Z</time>
      </trkpt>
      <trkpt lat="48.60172" lon="6.15496">
        <ele>226.2</ele>
        <time>2022-07-06T07:47:29Z</time>
      </trkpt>
      <trkpt lat="48.60165" lon="6.15561">
        <ele>229.6</ele>
        <time>2022-07-06T07:47:45Z</time>
      </trkpt>
      <trkpt lat="48.60163" lon="6.15565">
        <ele>230.2</ele>
        <time>2022-07-06T07:47:53Z</time>
      </trkpt>
      <trkpt lat="48.60159" lon="6.15567">
        <ele>230.2</ele>
        <time>2022-07-06T07:47:56Z</time>
      </trkpt>
      <trkpt lat="48.60157" lon="6.15568">
        <ele>230.2</ele>
        <time>2022-07-06T07:47:57Z</time>
      </trkpt>
      <trkpt lat="48.60153" lon="6.1557">
        <ele>230.2</ele>
        <time>2022-07-06T07:47:59Z</time>
      </trkpt>
      <trkpt lat="48.60152" lon="6.15573">
        <ele>230.2</ele>
        <time>2022-07-06T07:48:00Z</time>
      </trkpt>
      <trkpt lat="48.60152" lon="6.15578">
        <ele>230.2</ele>
        <time>2022-07-06T07:48:01Z</time>
      </trkpt>
      <trkpt lat="48.60153" lon="6.15583">
        <ele>230</ele>
        <time>2022-07-06T07:48:02Z</time>
      </trkpt>
      <trkpt lat="48.60156" lon="6.15589">
        <ele>230</ele>
        <time>2022-07-06T07:48:03Z</time>
      </trkpt>
      <trkpt lat="48.60158" lon="6.15594">
        <ele>229.8</ele>
        <time>2022-07-06T07:48:04Z</time>
      </trkpt>
      <trkpt lat="48.60164" lon="6.15606">
        <ele>229.4</ele>
        <time>2022-07-06T07:48:06Z</time>
      </trkpt>
      <trkpt lat="48.60167" lon="6.15612">
        <ele>229.4</ele>
        <time>2022-07-06T07:48:07Z</time>
      </trkpt>
      <trkpt lat="48.60203" lon="6.15687">
        <ele>229.4</ele>
        <time>2022-07-06T07:48:21Z</time>
      </trkpt>
      <trkpt lat="48.60202" lon="6.1569">
        <ele>229.4</ele>
        <time>2022-07-06T07:48:22Z</time>
      </trkpt>
      <trkpt lat="48.602" lon="6.15693">
        <ele>229.4</ele>
        <time>2022-07-06T07:48:23Z</time>
      </trkpt>
      <trkpt lat="48.60199" lon="6.15697">
        <ele>229.4</ele>
        <time>2022-07-06T07:48:24Z</time>
      </trkpt>
      <trkpt lat="48.60199" lon="6.15701">
        <ele>229.4</ele>
        <time>2022-07-06T07:48:25Z</time>
      </trkpt>
      <trkpt lat="48.60201" lon="6.15705">
        <ele>229.4</ele>
        <time>2022-07-06T07:48:26Z</time>
      </trkpt>
      <trkpt lat="48.60204" lon="6.15709">
        <ele>229.2</ele>
        <time>2022-07-06T07:48:27Z</time>
      </trkpt>
      <trkpt lat="48.60207" lon="6.15713">
        <ele>229.2</ele>
        <time>2022-07-06T07:48:28Z</time>
      </trkpt>
      <trkpt lat="48.60211" lon="6.15717">
        <ele>229</ele>
        <time>2022-07-06T07:48:29Z</time>
      </trkpt>
      <trkpt lat="48.60215" lon="6.15721">
        <ele>229</ele>
        <time>2022-07-06T07:48:30Z</time>
      </trkpt>
      <trkpt lat="48.60258" lon="6.15774">
        <ele>229</ele>
        <time>2022-07-06T07:48:43Z</time>
      </trkpt>
      <trkpt lat="48.60299" lon="6.15835">
        <ele>231.4</ele>
        <time>2022-07-06T07:49:01Z</time>
      </trkpt>
      <trkpt lat="48.60325" lon="6.15876">
        <ele>231.6</ele>
        <time>2022-07-06T07:49:12Z</time>
      </trkpt>
      <trkpt lat="48.60329" lon="6.15881">
        <ele>231.6</ele>
        <time>2022-07-06T07:49:13Z</time>
      </trkpt>
      <trkpt lat="48.60351" lon="6.15902">
        <ele>232</ele>
        <time>2022-07-06T07:49:18Z</time>
      </trkpt>
      <trkpt lat="48.60356" lon="6.15907">
        <ele>232</ele>
        <time>2022-07-06T07:49:19Z</time>
      </trkpt>
      <trkpt lat="48.60391" lon="6.15951">
        <ele>232</ele>
        <time>2022-07-06T07:49:28Z</time>
      </trkpt>
      <trkpt lat="48.60394" lon="6.15955">
        <ele>232.2</ele>
        <time>2022-07-06T07:49:29Z</time>
      </trkpt>
      <trkpt lat="48.60407" lon="6.15973">
        <ele>232</ele>
        <time>2022-07-06T07:49:33Z</time>
      </trkpt>
      <trkpt lat="48.60411" lon="6.15978">
        <ele>232</ele>
        <time>2022-07-06T07:49:34Z</time>
      </trkpt>
      <trkpt lat="48.60434" lon="6.1601">
        <ele>232</ele>
        <time>2022-07-06T07:49:40Z</time>
      </trkpt>
      <trkpt lat="48.60479" lon="6.16089">
        <ele>233.4</ele>
        <time>2022-07-06T07:49:51Z</time>
      </trkpt>
      <trkpt lat="48.60481" lon="6.16095">
        <ele>233.6</ele>
        <time>2022-07-06T07:49:52Z</time>
      </trkpt>
      <trkpt lat="48.60487" lon="6.16107">
        <ele>234.4</ele>
        <time>2022-07-06T07:49:54Z</time>
      </trkpt>
      <trkpt lat="48.6049" lon="6.16113">
        <ele>234.6</ele>
        <time>2022-07-06T07:49:55Z</time>
      </trkpt>
      <trkpt lat="48.60513" lon="6.16173">
        <ele>234.2</ele>
        <time>2022-07-06T07:50:05Z</time>
      </trkpt>
      <trkpt lat="48.60515" lon="6.16179">
        <ele>234.2</ele>
        <time>2022-07-06T07:50:06Z</time>
      </trkpt>
      <trkpt lat="48.60517" lon="6.16185">
        <ele>234.4</ele>
        <time>2022-07-06T07:50:07Z</time>
      </trkpt>
      <trkpt lat="48.6052" lon="6.16191">
        <ele>234.6</ele>
        <time>2022-07-06T07:50:08Z</time>
      </trkpt>
      <trkpt lat="48.60523" lon="6.16197">
        <ele>234.6</ele>
        <time>2022-07-06T07:50:09Z</time>
      </trkpt>
      <trkpt lat="48.60533" lon="6.16218">
        <ele>235.2</ele>
        <time>2022-07-06T07:50:12Z</time>
      </trkpt>
      <trkpt lat="48.60536" lon="6.16224">
        <ele>235.2</ele>
        <time>2022-07-06T07:50:13Z</time>
      </trkpt>
      <trkpt lat="48.60538" lon="6.16232">
        <ele>235.2</ele>
        <time>2022-07-06T07:50:14Z</time>
      </trkpt>
      <trkpt lat="48.6054" lon="6.16239">
        <ele>235.2</ele>
        <time>2022-07-06T07:50:15Z</time>
      </trkpt>
      <trkpt lat="48.60543" lon="6.16246">
        <ele>235.4</ele>
        <time>2022-07-06T07:50:16Z</time>
      </trkpt>
      <trkpt lat="48.60547" lon="6.16253">
        <ele>235.6</ele>
        <time>2022-07-06T07:50:17Z</time>
      </trkpt>
      <trkpt lat="48.60583" lon="6.16336">
        <ele>235.4</ele>
        <time>2022-07-06T07:50:28Z</time>
      </trkpt>
      <trkpt lat="48.60619" lon="6.16416">
        <ele>235.2</ele>
        <time>2022-07-06T07:50:42Z</time>
      </trkpt>
      <trkpt lat="48.60625" lon="6.16426">
        <ele>235.6</ele>
        <time>2022-07-06T07:50:44Z</time>
      </trkpt>
      <trkpt lat="48.60647" lon="6.16477">
        <ele>235</ele>
        <time>2022-07-06T07:50:53Z</time>
      </trkpt>
      <trkpt lat="48.60649" lon="6.16483">
        <ele>234.8</ele>
        <time>2022-07-06T07:50:54Z</time>
      </trkpt>
      <trkpt lat="48.60655" lon="6.16495">
        <ele>235</ele>
        <time>2022-07-06T07:50:56Z</time>
      </trkpt>
      <trkpt lat="48.60658" lon="6.165">
        <ele>235.4</ele>
        <time>2022-07-06T07:50:57Z</time>
      </trkpt>
      <trkpt lat="48.60664" lon="6.16512">
        <ele>235.8</ele>
        <time>2022-07-06T07:50:59Z</time>
      </trkpt>
      <trkpt lat="48.60666" lon="6.16518">
        <ele>236</ele>
        <time>2022-07-06T07:51:00Z</time>
      </trkpt>
      <trkpt lat="48.607" lon="6.16597">
        <ele>237.6</ele>
        <time>2022-07-06T07:51:14Z</time>
      </trkpt>
      <trkpt lat="48.60707" lon="6.16614">
        <ele>237.8</ele>
        <time>2022-07-06T07:51:17Z</time>
      </trkpt>
      <trkpt lat="48.60715" lon="6.16632">
        <ele>237.8</ele>
        <time>2022-07-06T07:51:20Z</time>
      </trkpt>
      <trkpt lat="48.60717" lon="6.16638">
        <ele>238.2</ele>
        <time>2022-07-06T07:51:21Z</time>
      </trkpt>
      <trkpt lat="48.60726" lon="6.16659">
        <ele>237.8</ele>
        <time>2022-07-06T07:51:24Z</time>
      </trkpt>
      <trkpt lat="48.6073" lon="6.16666">
        <ele>237.4</ele>
        <time>2022-07-06T07:51:25Z</time>
      </trkpt>
      <trkpt lat="48.60762" lon="6.16745">
        <ele>238.2</ele>
        <time>2022-07-06T07:51:36Z</time>
      </trkpt>
      <trkpt lat="48.60776" lon="6.16781">
        <ele>237.6</ele>
        <time>2022-07-06T07:51:41Z</time>
      </trkpt>
      <trkpt lat="48.60793" lon="6.1685">
        <ele>238</ele>
        <time>2022-07-06T07:51:50Z</time>
      </trkpt>
      <trkpt lat="48.60805" lon="6.1692">
        <ele>238.8</ele>
        <time>2022-07-06T07:51:59Z</time>
      </trkpt>
      <trkpt lat="48.60806" lon="6.16928">
        <ele>238.8</ele>
        <time>2022-07-06T07:52:00Z</time>
      </trkpt>
      <trkpt lat="48.6082" lon="6.17015">
        <ele>238</ele>
        <time>2022-07-06T07:52:10Z</time>
      </trkpt>
      <trkpt lat="48.6083" lon="6.17102">
        <ele>237.2</ele>
        <time>2022-07-06T07:52:20Z</time>
      </trkpt>
      <trkpt lat="48.6083" lon="6.17111">
        <ele>237.4</ele>
        <time>2022-07-06T07:52:21Z</time>
      </trkpt>
      <trkpt lat="48.6083" lon="6.17119">
        <ele>237.2</ele>
        <time>2022-07-06T07:52:22Z</time>
      </trkpt>
      <trkpt lat="48.60831" lon="6.17151">
        <ele>237</ele>
        <time>2022-07-06T07:52:26Z</time>
      </trkpt>
      <trkpt lat="48.60826" lon="6.17243">
        <ele>237.6</ele>
        <time>2022-07-06T07:52:37Z</time>
      </trkpt>
      <trkpt lat="48.6082" lon="6.17332">
        <ele>239.2</ele>
        <time>2022-07-06T07:52:50Z</time>
      </trkpt>
      <trkpt lat="48.60822" lon="6.17355">
        <ele>241.2</ele>
        <time>2022-07-06T07:53:04Z</time>
      </trkpt>
      <trkpt lat="48.60825" lon="6.17364">
        <ele>242.2</ele>
        <time>2022-07-06T07:53:27Z</time>
      </trkpt>
      <trkpt lat="48.60826" lon="6.17367">
        <ele>242.4</ele>
        <time>2022-07-06T07:53:28Z</time>
      </trkpt>
      <trkpt lat="48.6083" lon="6.17412">
        <ele>240.8</ele>
        <time>2022-07-06T07:53:38Z</time>
      </trkpt>
      <trkpt lat="48.6083" lon="6.17418">
        <ele>241.6</ele>
        <time>2022-07-06T07:53:39Z</time>
      </trkpt>
      <trkpt lat="48.60825" lon="6.17509">
        <ele>242</ele>
        <time>2022-07-06T07:53:51Z</time>
      </trkpt>
      <trkpt lat="48.60824" lon="6.17561">
        <ele>242.4</ele>
        <time>2022-07-06T07:53:58Z</time>
      </trkpt>
      <trkpt lat="48.60824" lon="6.17567">
        <ele>242.6</ele>
        <time>2022-07-06T07:53:59Z</time>
      </trkpt>
      <trkpt lat="48.60826" lon="6.17599">
        <ele>242.4</ele>
        <time>2022-07-06T07:54:04Z</time>
      </trkpt>
      <trkpt lat="48.60827" lon="6.17606">
        <ele>242.2</ele>
        <time>2022-07-06T07:54:05Z</time>
      </trkpt>
      <trkpt lat="48.60827" lon="6.17612">
        <ele>242.2</ele>
        <time>2022-07-06T07:54:06Z</time>
      </trkpt>
      <trkpt lat="48.60826" lon="6.17697">
        <ele>242.2</ele>
        <time>2022-07-06T07:54:19Z</time>
      </trkpt>
      <trkpt lat="48.60826" lon="6.17785">
        <ele>241.8</ele>
        <time>2022-07-06T07:54:31Z</time>
      </trkpt>
      <trkpt lat="48.60823" lon="6.17873">
        <ele>242.4</ele>
        <time>2022-07-06T07:54:41Z</time>
      </trkpt>
      <trkpt lat="48.60819" lon="6.17968">
        <ele>242.8</ele>
        <time>2022-07-06T07:54:51Z</time>
      </trkpt>
      <trkpt lat="48.60816" lon="6.18055">
        <ele>242.2</ele>
        <time>2022-07-06T07:55:00Z</time>
      </trkpt>
      <trkpt lat="48.60815" lon="6.18147">
        <ele>242.2</ele>
        <time>2022-07-06T07:55:09Z</time>
      </trkpt>
      <trkpt lat="48.60813" lon="6.18186">
        <ele>242.8</ele>
        <time>2022-07-06T07:55:13Z</time>
      </trkpt>
      <trkpt lat="48.60808" lon="6.18274">
        <ele>242.6</ele>
        <time>2022-07-06T07:55:22Z</time>
      </trkpt>
      <trkpt lat="48.60803" lon="6.18367">
        <ele>241.8</ele>
        <time>2022-07-06T07:55:33Z</time>
      </trkpt>
      <trkpt lat="48.60803" lon="6.18457">
        <ele>242.4</ele>
        <time>2022-07-06T07:55:44Z</time>
      </trkpt>
      <trkpt lat="48.60807" lon="6.18507">
        <ele>242.4</ele>
        <time>2022-07-06T07:55:50Z</time>
      </trkpt>
      <trkpt lat="48.60809" lon="6.18516">
        <ele>242.2</ele>
        <time>2022-07-06T07:55:51Z</time>
      </trkpt>
      <trkpt lat="48.60825" lon="6.18607">
        <ele>241.4</ele>
        <time>2022-07-06T07:56:02Z</time>
      </trkpt>
      <trkpt lat="48.60836" lon="6.18662">
        <ele>241.6</ele>
        <time>2022-07-06T07:56:09Z</time>
      </trkpt>
      <trkpt lat="48.60838" lon="6.1867">
        <ele>241.6</ele>
        <time>2022-07-06T07:56:10Z</time>
      </trkpt>
      <trkpt lat="48.60859" lon="6.18752">
        <ele>241.8</ele>
        <time>2022-07-06T07:56:20Z</time>
      </trkpt>
      <trkpt lat="48.60888" lon="6.18827">
        <ele>242.2</ele>
        <time>2022-07-06T07:56:30Z</time>
      </trkpt>
      <trkpt lat="48.609" lon="6.18855">
        <ele>242.2</ele>
        <time>2022-07-06T07:56:34Z</time>
      </trkpt>
      <trkpt lat="48.60903" lon="6.18862">
        <ele>242.2</ele>
        <time>2022-07-06T07:56:35Z</time>
      </trkpt>
      <trkpt lat="48.60906" lon="6.18869">
        <ele>242.2</ele>
        <time>2022-07-06T07:56:36Z</time>
      </trkpt>
      <trkpt lat="48.60928" lon="6.18924">
        <ele>241.6</ele>
        <time>2022-07-06T07:56:44Z</time>
      </trkpt>
      <trkpt lat="48.60931" lon="6.18931">
        <ele>241.8</ele>
        <time>2022-07-06T07:56:45Z</time>
      </trkpt>
      <trkpt lat="48.6096" lon="6.19">
        <ele>241.4</ele>
        <time>2022-07-06T07:56:55Z</time>
      </trkpt>
      <trkpt lat="48.60968" lon="6.19014">
        <ele>241.4</ele>
        <time>2022-07-06T07:56:57Z</time>
      </trkpt>
      <trkpt lat="48.60989" lon="6.19054">
        <ele>242.4</ele>
        <time>2022-07-06T07:57:03Z</time>
      </trkpt>
      <trkpt lat="48.61024" lon="6.19129">
        <ele>241.8</ele>
        <time>2022-07-06T07:57:14Z</time>
      </trkpt>
      <trkpt lat="48.61031" lon="6.1914">
        <ele>241.8</ele>
        <time>2022-07-06T07:57:16Z</time>
      </trkpt>
      <trkpt lat="48.61034" lon="6.19146">
        <ele>241.8</ele>
        <time>2022-07-06T07:57:17Z</time>
      </trkpt>
      <trkpt lat="48.61037" lon="6.19154">
        <ele>241.8</ele>
        <time>2022-07-06T07:57:18Z</time>
      </trkpt>
      <trkpt lat="48.61076" lon="6.19233">
        <ele>241.6</ele>
        <time>2022-07-06T07:57:29Z</time>
      </trkpt>
      <trkpt lat="48.61114" lon="6.19311">
        <ele>241.4</ele>
        <time>2022-07-06T07:57:40Z</time>
      </trkpt>
      <trkpt lat="48.61137" lon="6.19353">
        <ele>241.6</ele>
        <time>2022-07-06T07:57:47Z</time>
      </trkpt>
      <trkpt lat="48.61144" lon="6.19364">
        <ele>241.2</ele>
        <time>2022-07-06T07:57:49Z</time>
      </trkpt>
      <trkpt lat="48.61146" lon="6.1937">
        <ele>241</ele>
        <time>2022-07-06T07:57:50Z</time>
      </trkpt>
      <trkpt lat="48.61148" lon="6.19377">
        <ele>241.2</ele>
        <time>2022-07-06T07:57:51Z</time>
      </trkpt>
      <trkpt lat="48.6115" lon="6.19384">
        <ele>241.4</ele>
        <time>2022-07-06T07:57:52Z</time>
      </trkpt>
      <trkpt lat="48.61151" lon="6.19391">
        <ele>241.4</ele>
        <time>2022-07-06T07:57:53Z</time>
      </trkpt>
      <trkpt lat="48.61154" lon="6.19398">
        <ele>241.4</ele>
        <time>2022-07-06T07:57:54Z</time>
      </trkpt>
      <trkpt lat="48.61156" lon="6.19405">
        <ele>241.4</ele>
        <time>2022-07-06T07:57:55Z</time>
      </trkpt>
      <trkpt lat="48.61188" lon="6.19475">
        <ele>241</ele>
        <time>2022-07-06T07:58:05Z</time>
      </trkpt>
      <trkpt lat="48.61224" lon="6.19547">
        <ele>241.2</ele>
        <time>2022-07-06T07:58:15Z</time>
      </trkpt>
      <trkpt lat="48.61266" lon="6.19621">
        <ele>241</ele>
        <time>2022-07-06T07:58:25Z</time>
      </trkpt>
      <trkpt lat="48.61303" lon="6.19698">
        <ele>241</ele>
        <time>2022-07-06T07:58:35Z</time>
      </trkpt>
      <trkpt lat="48.61336" lon="6.19771">
        <ele>240.6</ele>
        <time>2022-07-06T07:58:45Z</time>
      </trkpt>
      <trkpt lat="48.6137" lon="6.1984">
        <ele>241.2</ele>
        <time>2022-07-06T07:58:55Z</time>
      </trkpt>
      <trkpt lat="48.61406" lon="6.19906">
        <ele>241.4</ele>
        <time>2022-07-06T07:59:05Z</time>
      </trkpt>
      <trkpt lat="48.61448" lon="6.19966">
        <ele>242</ele>
        <time>2022-07-06T07:59:15Z</time>
      </trkpt>
      <trkpt lat="48.61495" lon="6.20028">
        <ele>241.4</ele>
        <time>2022-07-06T07:59:26Z</time>
      </trkpt>
      <trkpt lat="48.61513" lon="6.20051">
        <ele>241.8</ele>
        <time>2022-07-06T07:59:30Z</time>
      </trkpt>
      <trkpt lat="48.61562" lon="6.20103">
        <ele>241</ele>
        <time>2022-07-06T07:59:40Z</time>
      </trkpt>
      <trkpt lat="48.61588" lon="6.20127">
        <ele>242.8</ele>
        <time>2022-07-06T07:59:45Z</time>
      </trkpt>
      <trkpt lat="48.61603" lon="6.20142">
        <ele>241.4</ele>
        <time>2022-07-06T07:59:48Z</time>
      </trkpt>
      <trkpt lat="48.61656" lon="6.20187">
        <ele>240.8</ele>
        <time>2022-07-06T07:59:58Z</time>
      </trkpt>
      <trkpt lat="48.61706" lon="6.20232">
        <ele>240.8</ele>
        <time>2022-07-06T08:00:08Z</time>
      </trkpt>
      <trkpt lat="48.61758" lon="6.20278">
        <ele>239</ele>
        <time>2022-07-06T08:00:18Z</time>
      </trkpt>
      <trkpt lat="48.61811" lon="6.20317">
        <ele>241.4</ele>
        <time>2022-07-06T08:00:29Z</time>
      </trkpt>
      <trkpt lat="48.61834" lon="6.20336">
        <ele>241.4</ele>
        <time>2022-07-06T08:00:35Z</time>
      </trkpt>
      <trkpt lat="48.61839" lon="6.2034">
        <ele>241.2</ele>
        <time>2022-07-06T08:00:36Z</time>
      </trkpt>
      <trkpt lat="48.61843" lon="6.20344">
        <ele>241</ele>
        <time>2022-07-06T08:00:37Z</time>
      </trkpt>
      <trkpt lat="48.61891" lon="6.2039">
        <ele>239.6</ele>
        <time>2022-07-06T08:00:49Z</time>
      </trkpt>
      <trkpt lat="48.61942" lon="6.20429">
        <ele>241</ele>
        <time>2022-07-06T08:01:01Z</time>
      </trkpt>
      <trkpt lat="48.61952" lon="6.2044">
        <ele>241.4</ele>
        <time>2022-07-06T08:01:05Z</time>
      </trkpt>
      <trkpt lat="48.61954" lon="6.20439">
        <ele>241.6</ele>
        <time>2022-07-06T08:01:06Z</time>
      </trkpt>
      <trkpt lat="48.61955" lon="6.20437">
        <ele>241.8</ele>
        <time>2022-07-06T08:01:07Z</time>
      </trkpt>
      <trkpt lat="48.61973" lon="6.2041">
        <ele>242.4</ele>
        <time>2022-07-06T08:01:17Z</time>
      </trkpt>
      <trkpt lat="48.61975" lon="6.20411">
        <ele>242.4</ele>
        <time>2022-07-06T08:01:18Z</time>
      </trkpt>
      <trkpt lat="48.61977" lon="6.20413">
        <ele>242.4</ele>
        <time>2022-07-06T08:01:19Z</time>
      </trkpt>
      <trkpt lat="48.61979" lon="6.20416">
        <ele>242.4</ele>
        <time>2022-07-06T08:01:20Z</time>
      </trkpt>
      <trkpt lat="48.61981" lon="6.20418">
        <ele>242.4</ele>
        <time>2022-07-06T08:01:21Z</time>
      </trkpt>
      <trkpt lat="48.61984" lon="6.20418">
        <ele>242.2</ele>
        <time>2022-07-06T08:01:22Z</time>
      </trkpt>
      <trkpt lat="48.61986" lon="6.20417">
        <ele>242.4</ele>
        <time>2022-07-06T08:01:23Z</time>
      </trkpt>
      <trkpt lat="48.61988" lon="6.20415">
        <ele>242.4</ele>
        <time>2022-07-06T08:01:24Z</time>
      </trkpt>
      <trkpt lat="48.61989" lon="6.20411">
        <ele>242.6</ele>
        <time>2022-07-06T08:01:25Z</time>
      </trkpt>
      <trkpt lat="48.61999" lon="6.20391">
        <ele>242.6</ele>
        <time>2022-07-06T08:01:31Z</time>
      </trkpt>
      <trkpt lat="48.62002" lon="6.20392">
        <ele>242.4</ele>
        <time>2022-07-06T08:01:32Z</time>
      </trkpt>
      <trkpt lat="48.62003" lon="6.20395">
        <ele>241.4</ele>
        <time>2022-07-06T08:01:33Z</time>
      </trkpt>
      <trkpt lat="48.62009" lon="6.20417">
        <ele>239.6</ele>
        <time>2022-07-06T08:01:37Z</time>
      </trkpt>
      <trkpt lat="48.6201" lon="6.20426">
        <ele>239.6</ele>
        <time>2022-07-06T08:01:38Z</time>
      </trkpt>
      <trkpt lat="48.62014" lon="6.20465">
        <ele>237.6</ele>
        <time>2022-07-06T08:01:42Z</time>
      </trkpt>
      <trkpt lat="48.62018" lon="6.20475">
        <ele>236.6</ele>
        <time>2022-07-06T08:01:43Z</time>
      </trkpt>
      <trkpt lat="48.62021" lon="6.20484">
        <ele>236.2</ele>
        <time>2022-07-06T08:01:44Z</time>
      </trkpt>
      <trkpt lat="48.62025" lon="6.20492">
        <ele>236</ele>
        <time>2022-07-06T08:01:45Z</time>
      </trkpt>
      <trkpt lat="48.62029" lon="6.20499">
        <ele>236</ele>
        <time>2022-07-06T08:01:46Z</time>
      </trkpt>
      <trkpt lat="48.6205" lon="6.20572">
        <ele>236.6</ele>
        <time>2022-07-06T08:01:55Z</time>
      </trkpt>
      <trkpt lat="48.62062" lon="6.20658">
        <ele>236.8</ele>
        <time>2022-07-06T08:02:05Z</time>
      </trkpt>
      <trkpt lat="48.62069" lon="6.20708">
        <ele>234.8</ele>
        <time>2022-07-06T08:02:10Z</time>
      </trkpt>
      <trkpt lat="48.62071" lon="6.20718">
        <ele>234.6</ele>
        <time>2022-07-06T08:02:11Z</time>
      </trkpt>
      <trkpt lat="48.62072" lon="6.20729">
        <ele>234.4</ele>
        <time>2022-07-06T08:02:12Z</time>
      </trkpt>
      <trkpt lat="48.62087" lon="6.20808">
        <ele>233.6</ele>
        <time>2022-07-06T08:02:20Z</time>
      </trkpt>
      <trkpt lat="48.62098" lon="6.20894">
        <ele>233.8</ele>
        <time>2022-07-06T08:02:29Z</time>
      </trkpt>
      <trkpt lat="48.62112" lon="6.20968">
        <ele>230.8</ele>
        <time>2022-07-06T08:02:36Z</time>
      </trkpt>
      <trkpt lat="48.62115" lon="6.2098">
        <ele>230.6</ele>
        <time>2022-07-06T08:02:37Z</time>
      </trkpt>
      <trkpt lat="48.62131" lon="6.21069">
        <ele>230</ele>
        <time>2022-07-06T08:02:45Z</time>
      </trkpt>
      <trkpt lat="48.62141" lon="6.2116">
        <ele>229.8</ele>
        <time>2022-07-06T08:02:54Z</time>
      </trkpt>
      <trkpt lat="48.62143" lon="6.2117">
        <ele>229.8</ele>
        <time>2022-07-06T08:02:55Z</time>
      </trkpt>
      <trkpt lat="48.62163" lon="6.21253">
        <ele>227.8</ele>
        <time>2022-07-06T08:03:03Z</time>
      </trkpt>
      <trkpt lat="48.62188" lon="6.21325">
        <ele>227.6</ele>
        <time>2022-07-06T08:03:11Z</time>
      </trkpt>
      <trkpt lat="48.62229" lon="6.21395">
        <ele>226</ele>
        <time>2022-07-06T08:03:20Z</time>
      </trkpt>
      <trkpt lat="48.62239" lon="6.21413">
        <ele>225</ele>
        <time>2022-07-06T08:03:22Z</time>
      </trkpt>
      <trkpt lat="48.62245" lon="6.21422">
        <ele>224.8</ele>
        <time>2022-07-06T08:03:23Z</time>
      </trkpt>
      <trkpt lat="48.62288" lon="6.21499">
        <ele>224.2</ele>
        <time>2022-07-06T08:03:32Z</time>
      </trkpt>
      <trkpt lat="48.62327" lon="6.2157">
        <ele>224</ele>
        <time>2022-07-06T08:03:41Z</time>
      </trkpt>
      <trkpt lat="48.62366" lon="6.2163">
        <ele>221.4</ele>
        <time>2022-07-06T08:03:48Z</time>
      </trkpt>
      <trkpt lat="48.62377" lon="6.21645">
        <ele>220.4</ele>
        <time>2022-07-06T08:03:50Z</time>
      </trkpt>
      <trkpt lat="48.62425" lon="6.21701">
        <ele>221.6</ele>
        <time>2022-07-06T08:03:59Z</time>
      </trkpt>
      <trkpt lat="48.6248" lon="6.21748">
        <ele>219.4</ele>
        <time>2022-07-06T08:04:08Z</time>
      </trkpt>
      <trkpt lat="48.62538" lon="6.21791">
        <ele>218.6</ele>
        <time>2022-07-06T08:04:17Z</time>
      </trkpt>
      <trkpt lat="48.6255" lon="6.21799">
        <ele>218.8</ele>
        <time>2022-07-06T08:04:19Z</time>
      </trkpt>
      <trkpt lat="48.62555" lon="6.21803">
        <ele>218.8</ele>
        <time>2022-07-06T08:04:20Z</time>
      </trkpt>
      <trkpt lat="48.62608" lon="6.21836">
        <ele>219.8</ele>
        <time>2022-07-06T08:04:32Z</time>
      </trkpt>
      <trkpt lat="48.62645" lon="6.21848">
        <ele>216.4</ele>
        <time>2022-07-06T08:04:43Z</time>
      </trkpt>
      <trkpt lat="48.62657" lon="6.21855">
        <ele>215.6</ele>
        <time>2022-07-06T08:04:45Z</time>
      </trkpt>
      <trkpt lat="48.62695" lon="6.21874">
        <ele>217</ele>
        <time>2022-07-06T08:04:51Z</time>
      </trkpt>
      <trkpt lat="48.62752" lon="6.21903">
        <ele>217.2</ele>
        <time>2022-07-06T08:05:01Z</time>
      </trkpt>
      <trkpt lat="48.62769" lon="6.21908">
        <ele>216.6</ele>
        <time>2022-07-06T08:05:04Z</time>
      </trkpt>
      <trkpt lat="48.62781" lon="6.21909">
        <ele>216.4</ele>
        <time>2022-07-06T08:05:06Z</time>
      </trkpt>
      <trkpt lat="48.62787" lon="6.21907">
        <ele>216.2</ele>
        <time>2022-07-06T08:05:07Z</time>
      </trkpt>
      <trkpt lat="48.6281" lon="6.21897">
        <ele>216.4</ele>
        <time>2022-07-06T08:05:11Z</time>
      </trkpt>
      <trkpt lat="48.62815" lon="6.21892">
        <ele>216.4</ele>
        <time>2022-07-06T08:05:12Z</time>
      </trkpt>
      <trkpt lat="48.62821" lon="6.21888">
        <ele>216.6</ele>
        <time>2022-07-06T08:05:13Z</time>
      </trkpt>
      <trkpt lat="48.6283" lon="6.21877">
        <ele>216.6</ele>
        <time>2022-07-06T08:05:15Z</time>
      </trkpt>
      <trkpt lat="48.62834" lon="6.2187">
        <ele>216.6</ele>
        <time>2022-07-06T08:05:16Z</time>
      </trkpt>
      <trkpt lat="48.62855" lon="6.21837">
        <ele>217</ele>
        <time>2022-07-06T08:05:21Z</time>
      </trkpt>
      <trkpt lat="48.6287" lon="6.21809">
        <ele>216.4</ele>
        <time>2022-07-06T08:05:25Z</time>
      </trkpt>
      <trkpt lat="48.62873" lon="6.21802">
        <ele>216.6</ele>
        <time>2022-07-06T08:05:26Z</time>
      </trkpt>
      <trkpt lat="48.62875" lon="6.21793">
        <ele>216.4</ele>
        <time>2022-07-06T08:05:27Z</time>
      </trkpt>
      <trkpt lat="48.62877" lon="6.21785">
        <ele>216.2</ele>
        <time>2022-07-06T08:05:28Z</time>
      </trkpt>
      <trkpt lat="48.62878" lon="6.21777">
        <ele>216</ele>
        <time>2022-07-06T08:05:29Z</time>
      </trkpt>
      <trkpt lat="48.62881" lon="6.21769">
        <ele>215.8</ele>
        <time>2022-07-06T08:05:30Z</time>
      </trkpt>
      <trkpt lat="48.62884" lon="6.21761">
        <ele>215.8</ele>
        <time>2022-07-06T08:05:31Z</time>
      </trkpt>
      <trkpt lat="48.6292" lon="6.21682">
        <ele>213.2</ele>
        <time>2022-07-06T08:05:40Z</time>
      </trkpt>
      <trkpt lat="48.62932" lon="6.21658">
        <ele>213.2</ele>
        <time>2022-07-06T08:05:43Z</time>
      </trkpt>
      <trkpt lat="48.62936" lon="6.2165">
        <ele>213.2</ele>
        <time>2022-07-06T08:05:44Z</time>
      </trkpt>
      <trkpt lat="48.62975" lon="6.21577">
        <ele>212.8</ele>
        <time>2022-07-06T08:05:54Z</time>
      </trkpt>
      <trkpt lat="48.63006" lon="6.21503">
        <ele>210.6</ele>
        <time>2022-07-06T08:06:02Z</time>
      </trkpt>
      <trkpt lat="48.63012" lon="6.21493">
        <ele>210.2</ele>
        <time>2022-07-06T08:06:03Z</time>
      </trkpt>
      <trkpt lat="48.6304" lon="6.2145">
        <ele>210</ele>
        <time>2022-07-06T08:06:08Z</time>
      </trkpt>
      <trkpt lat="48.63095" lon="6.21403">
        <ele>210.4</ele>
        <time>2022-07-06T08:06:17Z</time>
      </trkpt>
      <trkpt lat="48.63151" lon="6.2138">
        <ele>210.4</ele>
        <time>2022-07-06T08:06:26Z</time>
      </trkpt>
      <trkpt lat="48.63208" lon="6.21358">
        <ele>210</ele>
        <time>2022-07-06T08:06:35Z</time>
      </trkpt>
      <trkpt lat="48.63269" lon="6.21338">
        <ele>210.2</ele>
        <time>2022-07-06T08:06:45Z</time>
      </trkpt>
      <trkpt lat="48.63327" lon="6.21319">
        <ele>210</ele>
        <time>2022-07-06T08:06:55Z</time>
      </trkpt>
      <trkpt lat="48.63388" lon="6.21295">
        <ele>210</ele>
        <time>2022-07-06T08:07:06Z</time>
      </trkpt>
      <trkpt lat="48.63448" lon="6.21282">
        <ele>209.6</ele>
        <time>2022-07-06T08:07:18Z</time>
      </trkpt>
      <trkpt lat="48.63517" lon="6.21283">
        <ele>210</ele>
        <time>2022-07-06T08:07:29Z</time>
      </trkpt>
      <trkpt lat="48.63577" lon="6.21289">
        <ele>209.6</ele>
        <time>2022-07-06T08:07:39Z</time>
      </trkpt>
      <trkpt lat="48.6364" lon="6.21305">
        <ele>209.6</ele>
        <time>2022-07-06T08:07:49Z</time>
      </trkpt>
      <trkpt lat="48.63701" lon="6.2133">
        <ele>210</ele>
        <time>2022-07-06T08:08:00Z</time>
      </trkpt>
      <trkpt lat="48.63758" lon="6.21362">
        <ele>209.8</ele>
        <time>2022-07-06T08:08:10Z</time>
      </trkpt>
      <trkpt lat="48.63802" lon="6.21393">
        <ele>209.2</ele>
        <time>2022-07-06T08:08:18Z</time>
      </trkpt>
      <trkpt lat="48.63859" lon="6.21439">
        <ele>208.6</ele>
        <time>2022-07-06T08:08:28Z</time>
      </trkpt>
      <trkpt lat="48.63869" lon="6.21448">
        <ele>209</ele>
        <time>2022-07-06T08:08:30Z</time>
      </trkpt>
      <trkpt lat="48.63899" lon="6.21472">
        <ele>209.2</ele>
        <time>2022-07-06T08:08:36Z</time>
      </trkpt>
      <trkpt lat="48.63905" lon="6.21476">
        <ele>209.2</ele>
        <time>2022-07-06T08:08:37Z</time>
      </trkpt>
      <trkpt lat="48.63941" lon="6.21505">
        <ele>209.4</ele>
        <time>2022-07-06T08:08:44Z</time>
      </trkpt>
      <trkpt lat="48.63997" lon="6.21552">
        <ele>209.8</ele>
        <time>2022-07-06T08:08:55Z</time>
      </trkpt>
      <trkpt lat="48.64045" lon="6.21601">
        <ele>208.8</ele>
        <time>2022-07-06T08:09:05Z</time>
      </trkpt>
      <trkpt lat="48.64087" lon="6.21668">
        <ele>208.4</ele>
        <time>2022-07-06T08:09:16Z</time>
      </trkpt>
      <trkpt lat="48.6409" lon="6.21674">
        <ele>208.4</ele>
        <time>2022-07-06T08:09:17Z</time>
      </trkpt>
      <trkpt lat="48.64108" lon="6.21706">
        <ele>208.8</ele>
        <time>2022-07-06T08:09:22Z</time>
      </trkpt>
      <trkpt lat="48.64115" lon="6.21716">
        <ele>209</ele>
        <time>2022-07-06T08:09:24Z</time>
      </trkpt>
      <trkpt lat="48.64118" lon="6.2172">
        <ele>209.2</ele>
        <time>2022-07-06T08:09:25Z</time>
      </trkpt>
      <trkpt lat="48.64121" lon="6.21722">
        <ele>209.2</ele>
        <time>2022-07-06T08:09:26Z</time>
      </trkpt>
      <trkpt lat="48.64125" lon="6.21725">
        <ele>209.2</ele>
        <time>2022-07-06T08:09:27Z</time>
      </trkpt>
      <trkpt lat="48.64128" lon="6.21726">
        <ele>209.2</ele>
        <time>2022-07-06T08:09:28Z</time>
      </trkpt>
      <trkpt lat="48.6417" lon="6.21789">
        <ele>206.6</ele>
        <time>2022-07-06T08:09:40Z</time>
      </trkpt>
      <trkpt lat="48.64212" lon="6.21859">
        <ele>205.8</ele>
        <time>2022-07-06T08:09:50Z</time>
      </trkpt>
      <trkpt lat="48.64258" lon="6.21925">
        <ele>206</ele>
        <time>2022-07-06T08:10:00Z</time>
      </trkpt>
      <trkpt lat="48.64277" lon="6.21949">
        <ele>205.6</ele>
        <time>2022-07-06T08:10:04Z</time>
      </trkpt>
      <trkpt lat="48.6433" lon="6.22003">
        <ele>205.4</ele>
        <time>2022-07-06T08:10:14Z</time>
      </trkpt>
      <trkpt lat="48.64381" lon="6.22049">
        <ele>206</ele>
        <time>2022-07-06T08:10:23Z</time>
      </trkpt>
      <trkpt lat="48.64432" lon="6.22094">
        <ele>205.6</ele>
        <time>2022-07-06T08:10:32Z</time>
      </trkpt>
      <trkpt lat="48.64486" lon="6.22142">
        <ele>205.8</ele>
        <time>2022-07-06T08:10:42Z</time>
      </trkpt>
      <trkpt lat="48.64539" lon="6.22188">
        <ele>205.6</ele>
        <time>2022-07-06T08:10:52Z</time>
      </trkpt>
      <trkpt lat="48.64551" lon="6.22196">
        <ele>205.8</ele>
        <time>2022-07-06T08:10:54Z</time>
      </trkpt>
      <trkpt lat="48.64579" lon="6.22215">
        <ele>206.4</ele>
        <time>2022-07-06T08:10:59Z</time>
      </trkpt>
      <trkpt lat="48.64639" lon="6.22232">
        <ele>206.4</ele>
        <time>2022-07-06T08:11:09Z</time>
      </trkpt>
      <trkpt lat="48.647" lon="6.22231">
        <ele>206.6</ele>
        <time>2022-07-06T08:11:19Z</time>
      </trkpt>
      <trkpt lat="48.64761" lon="6.22215">
        <ele>206.4</ele>
        <time>2022-07-06T08:11:29Z</time>
      </trkpt>
      <trkpt lat="48.64817" lon="6.22188">
        <ele>206.6</ele>
        <time>2022-07-06T08:11:39Z</time>
      </trkpt>
      <trkpt lat="48.64858" lon="6.22163">
        <ele>206.2</ele>
        <time>2022-07-06T08:11:46Z</time>
      </trkpt>
      <trkpt lat="48.64913" lon="6.22118">
        <ele>206.2</ele>
        <time>2022-07-06T08:11:56Z</time>
      </trkpt>
      <trkpt lat="48.64965" lon="6.22075">
        <ele>206.6</ele>
        <time>2022-07-06T08:12:05Z</time>
      </trkpt>
      <trkpt lat="48.65021" lon="6.22035">
        <ele>206.6</ele>
        <time>2022-07-06T08:12:15Z</time>
      </trkpt>
      <trkpt lat="48.65077" lon="6.22011">
        <ele>206</ele>
        <time>2022-07-06T08:12:25Z</time>
      </trkpt>
      <trkpt lat="48.65136" lon="6.22004">
        <ele>206.2</ele>
        <time>2022-07-06T08:12:35Z</time>
      </trkpt>
      <trkpt lat="48.65142" lon="6.22005">
        <ele>206</ele>
        <time>2022-07-06T08:12:36Z</time>
      </trkpt>
      <trkpt lat="48.652" lon="6.22029">
        <ele>205.6</ele>
        <time>2022-07-06T08:12:46Z</time>
      </trkpt>
      <trkpt lat="48.65255" lon="6.22065">
        <ele>205.8</ele>
        <time>2022-07-06T08:12:55Z</time>
      </trkpt>
      <trkpt lat="48.65312" lon="6.22107">
        <ele>205.6</ele>
        <time>2022-07-06T08:13:05Z</time>
      </trkpt>
      <trkpt lat="48.65365" lon="6.22151">
        <ele>205.4</ele>
        <time>2022-07-06T08:13:15Z</time>
      </trkpt>
      <trkpt lat="48.65417" lon="6.222">
        <ele>205.4</ele>
        <time>2022-07-06T08:13:25Z</time>
      </trkpt>
      <trkpt lat="48.65468" lon="6.22255">
        <ele>205</ele>
        <time>2022-07-06T08:13:35Z</time>
      </trkpt>
      <trkpt lat="48.65474" lon="6.2226">
        <ele>205</ele>
        <time>2022-07-06T08:13:36Z</time>
      </trkpt>
      <trkpt lat="48.65479" lon="6.22267">
        <ele>205</ele>
        <time>2022-07-06T08:13:37Z</time>
      </trkpt>
      <trkpt lat="48.65522" lon="6.22333">
        <ele>206.2</ele>
        <time>2022-07-06T08:13:47Z</time>
      </trkpt>
      <trkpt lat="48.65557" lon="6.22411">
        <ele>205.6</ele>
        <time>2022-07-06T08:13:57Z</time>
      </trkpt>
      <trkpt lat="48.65559" lon="6.2242">
        <ele>205.8</ele>
        <time>2022-07-06T08:13:58Z</time>
      </trkpt>
      <trkpt lat="48.65581" lon="6.22505">
        <ele>205.4</ele>
        <time>2022-07-06T08:14:08Z</time>
      </trkpt>
      <trkpt lat="48.65604" lon="6.22589">
        <ele>206</ele>
        <time>2022-07-06T08:14:18Z</time>
      </trkpt>
      <trkpt lat="48.65635" lon="6.22666">
        <ele>205.8</ele>
        <time>2022-07-06T08:14:28Z</time>
      </trkpt>
      <trkpt lat="48.65645" lon="6.22687">
        <ele>205.8</ele>
        <time>2022-07-06T08:14:31Z</time>
      </trkpt>
      <trkpt lat="48.65651" lon="6.22691">
        <ele>205.8</ele>
        <time>2022-07-06T08:14:32Z</time>
      </trkpt>
      <trkpt lat="48.65655" lon="6.22697">
        <ele>205.8</ele>
        <time>2022-07-06T08:14:33Z</time>
      </trkpt>
      <trkpt lat="48.65659" lon="6.22703">
        <ele>205.8</ele>
        <time>2022-07-06T08:14:34Z</time>
      </trkpt>
      <trkpt lat="48.65663" lon="6.22709">
        <ele>205.6</ele>
        <time>2022-07-06T08:14:35Z</time>
      </trkpt>
      <trkpt lat="48.65667" lon="6.22716">
        <ele>205.6</ele>
        <time>2022-07-06T08:14:36Z</time>
      </trkpt>
      <trkpt lat="48.65671" lon="6.22721">
        <ele>205.6</ele>
        <time>2022-07-06T08:14:37Z</time>
      </trkpt>
      <trkpt lat="48.65675" lon="6.22726">
        <ele>205.6</ele>
        <time>2022-07-06T08:14:38Z</time>
      </trkpt>
      <trkpt lat="48.65678" lon="6.2273">
        <ele>205.6</ele>
        <time>2022-07-06T08:14:39Z</time>
      </trkpt>
      <trkpt lat="48.65682" lon="6.22734">
        <ele>205.6</ele>
        <time>2022-07-06T08:14:40Z</time>
      </trkpt>
      <trkpt lat="48.65686" lon="6.22738">
        <ele>205.6</ele>
        <time>2022-07-06T08:14:41Z</time>
      </trkpt>
      <trkpt lat="48.65688" lon="6.22742">
        <ele>205.8</ele>
        <time>2022-07-06T08:14:42Z</time>
      </trkpt>
      <trkpt lat="48.65689" lon="6.22746">
        <ele>205.8</ele>
        <time>2022-07-06T08:14:43Z</time>
      </trkpt>
      <trkpt lat="48.65689" lon="6.2275">
        <ele>205.8</ele>
        <time>2022-07-06T08:14:44Z</time>
      </trkpt>
      <trkpt lat="48.65687" lon="6.22752">
        <ele>205.8</ele>
        <time>2022-07-06T08:14:45Z</time>
      </trkpt>
      <trkpt lat="48.65685" lon="6.22754">
        <ele>205.8</ele>
        <time>2022-07-06T08:14:46Z</time>
      </trkpt>
      <trkpt lat="48.65683" lon="6.22755">
        <ele>206</ele>
        <time>2022-07-06T08:14:47Z</time>
      </trkpt>
      <trkpt lat="48.65681" lon="6.22754">
        <ele>206.2</ele>
        <time>2022-07-06T08:14:48Z</time>
      </trkpt>
      <trkpt lat="48.65678" lon="6.2275">
        <ele>206.2</ele>
        <time>2022-07-06T08:14:49Z</time>
      </trkpt>
      <trkpt lat="48.65677" lon="6.22745">
        <ele>206.2</ele>
        <time>2022-07-06T08:14:50Z</time>
      </trkpt>
      <trkpt lat="48.65676" lon="6.22741">
        <ele>206.2</ele>
        <time>2022-07-06T08:14:51Z</time>
      </trkpt>
      <trkpt lat="48.65674" lon="6.22738">
        <ele>206</ele>
        <time>2022-07-06T08:14:52Z</time>
      </trkpt>
      <trkpt lat="48.65673" lon="6.22736">
        <ele>206</ele>
        <time>2022-07-06T08:14:53Z</time>
      </trkpt>
      <trkpt lat="48.65671" lon="6.22739">
        <ele>205.8</ele>
        <time>2022-07-06T08:14:54Z</time>
      </trkpt>
      <trkpt lat="48.65672" lon="6.22743">
        <ele>205.6</ele>
        <time>2022-07-06T08:14:55Z</time>
      </trkpt>
      <trkpt lat="48.65674" lon="6.22747">
        <ele>205.6</ele>
        <time>2022-07-06T08:14:56Z</time>
      </trkpt>
      <trkpt lat="48.65677" lon="6.22752">
        <ele>205.6</ele>
        <time>2022-07-06T08:14:57Z</time>
      </trkpt>
      <trkpt lat="48.65679" lon="6.22757">
        <ele>205.6</ele>
        <time>2022-07-06T08:14:58Z</time>
      </trkpt>
      <trkpt lat="48.65683" lon="6.22763">
        <ele>205.4</ele>
        <time>2022-07-06T08:14:59Z</time>
      </trkpt>
      <trkpt lat="48.65686" lon="6.22769">
        <ele>204.8</ele>
        <time>2022-07-06T08:15:00Z</time>
      </trkpt>
      <trkpt lat="48.65715" lon="6.22826">
        <ele>204</ele>
        <time>2022-07-06T08:15:09Z</time>
      </trkpt>
      <trkpt lat="48.65718" lon="6.22831">
        <ele>204</ele>
        <time>2022-07-06T08:15:10Z</time>
      </trkpt>
      <trkpt lat="48.65766" lon="6.22885">
        <ele>204.4</ele>
        <time>2022-07-06T08:15:22Z</time>
      </trkpt>
      <trkpt lat="48.65771" lon="6.22889">
        <ele>204.2</ele>
        <time>2022-07-06T08:15:23Z</time>
      </trkpt>
      <trkpt lat="48.65776" lon="6.22892">
        <ele>204.4</ele>
        <time>2022-07-06T08:15:24Z</time>
      </trkpt>
      <trkpt lat="48.65781" lon="6.22895">
        <ele>204.4</ele>
        <time>2022-07-06T08:15:25Z</time>
      </trkpt>
      <trkpt lat="48.65836" lon="6.22923">
        <ele>204</ele>
        <time>2022-07-06T08:15:36Z</time>
      </trkpt>
      <trkpt lat="48.65874" lon="6.22954">
        <ele>200.6</ele>
        <time>2022-07-06T08:15:44Z</time>
      </trkpt>
      <trkpt lat="48.65877" lon="6.22959">
        <ele>199.8</ele>
        <time>2022-07-06T08:15:45Z</time>
      </trkpt>
      <trkpt lat="48.65881" lon="6.22963">
        <ele>199.8</ele>
        <time>2022-07-06T08:15:46Z</time>
      </trkpt>
      <trkpt lat="48.65893" lon="6.22974">
        <ele>200</ele>
        <time>2022-07-06T08:15:49Z</time>
      </trkpt>
      <trkpt lat="48.65943" lon="6.23021">
        <ele>200.8</ele>
        <time>2022-07-06T08:16:01Z</time>
      </trkpt>
      <trkpt lat="48.65947" lon="6.23026">
        <ele>201</ele>
        <time>2022-07-06T08:16:02Z</time>
      </trkpt>
      <trkpt lat="48.6595" lon="6.23031">
        <ele>201</ele>
        <time>2022-07-06T08:16:03Z</time>
      </trkpt>
      <trkpt lat="48.65953" lon="6.23037">
        <ele>201</ele>
        <time>2022-07-06T08:16:04Z</time>
      </trkpt>
      <trkpt lat="48.65956" lon="6.23043">
        <ele>200.6</ele>
        <time>2022-07-06T08:16:05Z</time>
      </trkpt>
      <trkpt lat="48.65957" lon="6.23049">
        <ele>200.4</ele>
        <time>2022-07-06T08:16:06Z</time>
      </trkpt>
      <trkpt lat="48.65959" lon="6.23055">
        <ele>200.6</ele>
        <time>2022-07-06T08:16:07Z</time>
      </trkpt>
      <trkpt lat="48.6596" lon="6.23061">
        <ele>200.6</ele>
        <time>2022-07-06T08:16:08Z</time>
      </trkpt>
      <trkpt lat="48.65961" lon="6.23067">
        <ele>200.6</ele>
        <time>2022-07-06T08:16:09Z</time>
      </trkpt>
      <trkpt lat="48.6596" lon="6.23071">
        <ele>200.6</ele>
        <time>2022-07-06T08:16:10Z</time>
      </trkpt>
      <trkpt lat="48.65958" lon="6.23074">
        <ele>200.8</ele>
        <time>2022-07-06T08:16:11Z</time>
      </trkpt>
      <trkpt lat="48.65957" lon="6.23076">
        <ele>201</ele>
        <time>2022-07-06T08:16:12Z</time>
      </trkpt>
      <trkpt lat="48.65956" lon="6.23077">
        <ele>201.2</ele>
        <time>2022-07-06T08:16:13Z</time>
      </trkpt>
      <trkpt lat="48.65954" lon="6.23078">
        <ele>201.6</ele>
        <time>2022-07-06T08:16:14Z</time>
      </trkpt>
      <trkpt lat="48.65952" lon="6.23079">
        <ele>202</ele>
        <time>2022-07-06T08:16:15Z</time>
      </trkpt>
      <trkpt lat="48.6595" lon="6.23079">
        <ele>202.2</ele>
        <time>2022-07-06T08:16:16Z</time>
      </trkpt>
      <trkpt lat="48.65949" lon="6.2308">
        <ele>202.6</ele>
        <time>2022-07-06T08:16:17Z</time>
      </trkpt>
      <trkpt lat="48.65948" lon="6.23081">
        <ele>203</ele>
        <time>2022-07-06T08:16:18Z</time>
      </trkpt>
      <trkpt lat="48.65946" lon="6.23083">
        <ele>203.2</ele>
        <time>2022-07-06T08:16:19Z</time>
      </trkpt>
      <trkpt lat="48.65946" lon="6.23085">
        <ele>203.2</ele>
        <time>2022-07-06T08:16:20Z</time>
      </trkpt>
      <trkpt lat="48.65945" lon="6.23088">
        <ele>203.2</ele>
        <time>2022-07-06T08:16:21Z</time>
      </trkpt>
      <trkpt lat="48.65946" lon="6.23092">
        <ele>203.2</ele>
        <time>2022-07-06T08:16:22Z</time>
      </trkpt>
      <trkpt lat="48.65947" lon="6.23095">
        <ele>203.4</ele>
        <time>2022-07-06T08:16:23Z</time>
      </trkpt>
      <trkpt lat="48.65947" lon="6.23097">
        <ele>203.6</ele>
        <time>2022-07-06T08:16:24Z</time>
      </trkpt>
      <trkpt lat="48.65948" lon="6.231">
        <ele>203.6</ele>
        <time>2022-07-06T08:16:25Z</time>
      </trkpt>
      <trkpt lat="48.65949" lon="6.23102">
        <ele>203.8</ele>
        <time>2022-07-06T08:16:26Z</time>
      </trkpt>
      <trkpt lat="48.6595" lon="6.23105">
        <ele>203.8</ele>
        <time>2022-07-06T08:16:27Z</time>
      </trkpt>
      <trkpt lat="48.6595" lon="6.23108">
        <ele>204</ele>
        <time>2022-07-06T08:16:28Z</time>
      </trkpt>
      <trkpt lat="48.65952" lon="6.23111">
        <ele>204</ele>
        <time>2022-07-06T08:16:29Z</time>
      </trkpt>
      <trkpt lat="48.65953" lon="6.23114">
        <ele>204</ele>
        <time>2022-07-06T08:16:30Z</time>
      </trkpt>
      <trkpt lat="48.65954" lon="6.23117">
        <ele>204.2</ele>
        <time>2022-07-06T08:16:31Z</time>
      </trkpt>
      <trkpt lat="48.65955" lon="6.2312">
        <ele>204.6</ele>
        <time>2022-07-06T08:16:32Z</time>
      </trkpt>
      <trkpt lat="48.65979" lon="6.23188">
        <ele>204.4</ele>
        <time>2022-07-06T08:16:48Z</time>
      </trkpt>
      <trkpt lat="48.65979" lon="6.23195">
        <ele>204.2</ele>
        <time>2022-07-06T08:16:49Z</time>
      </trkpt>
      <trkpt lat="48.65978" lon="6.23203">
        <ele>204.2</ele>
        <time>2022-07-06T08:16:50Z</time>
      </trkpt>
      <trkpt lat="48.65976" lon="6.23211">
        <ele>203.8</ele>
        <time>2022-07-06T08:16:51Z</time>
      </trkpt>
      <trkpt lat="48.65973" lon="6.23218">
        <ele>203.8</ele>
        <time>2022-07-06T08:16:52Z</time>
      </trkpt>
      <trkpt lat="48.6597" lon="6.23225">
        <ele>203.4</ele>
        <time>2022-07-06T08:16:53Z</time>
      </trkpt>
      <trkpt lat="48.65965" lon="6.23232">
        <ele>203</ele>
        <time>2022-07-06T08:16:54Z</time>
      </trkpt>
      <trkpt lat="48.65961" lon="6.23238">
        <ele>202.8</ele>
        <time>2022-07-06T08:16:55Z</time>
      </trkpt>
      <trkpt lat="48.65939" lon="6.23264">
        <ele>200.4</ele>
        <time>2022-07-06T08:17:03Z</time>
      </trkpt>
      <trkpt lat="48.65937" lon="6.23263">
        <ele>200.2</ele>
        <time>2022-07-06T08:17:04Z</time>
      </trkpt>
      <trkpt lat="48.65934" lon="6.23262">
        <ele>200.2</ele>
        <time>2022-07-06T08:17:05Z</time>
      </trkpt>
      <trkpt lat="48.65932" lon="6.23263">
        <ele>200.2</ele>
        <time>2022-07-06T08:17:06Z</time>
      </trkpt>
      <trkpt lat="48.65929" lon="6.23265">
        <ele>200</ele>
        <time>2022-07-06T08:17:07Z</time>
      </trkpt>
      <trkpt lat="48.65927" lon="6.23269">
        <ele>200</ele>
        <time>2022-07-06T08:17:08Z</time>
      </trkpt>
      <trkpt lat="48.65924" lon="6.23273">
        <ele>199.8</ele>
        <time>2022-07-06T08:17:09Z</time>
      </trkpt>
      <trkpt lat="48.65919" lon="6.23282">
        <ele>199.6</ele>
        <time>2022-07-06T08:17:11Z</time>
      </trkpt>
      <trkpt lat="48.65878" lon="6.23346">
        <ele>198.2</ele>
        <time>2022-07-06T08:17:24Z</time>
      </trkpt>
      <trkpt lat="48.6587" lon="6.23355">
        <ele>198.2</ele>
        <time>2022-07-06T08:17:27Z</time>
      </trkpt>
      <trkpt lat="48.65865" lon="6.23356">
        <ele>198.2</ele>
        <time>2022-07-06T08:17:28Z</time>
      </trkpt>
      <trkpt lat="48.65861" lon="6.23355">
        <ele>198.2</ele>
        <time>2022-07-06T08:17:29Z</time>
      </trkpt>
      <trkpt lat="48.65857" lon="6.23354">
        <ele>198.2</ele>
        <time>2022-07-06T08:17:30Z</time>
      </trkpt>
      <trkpt lat="48.65853" lon="6.23353">
        <ele>198.2</ele>
        <time>2022-07-06T08:17:31Z</time>
      </trkpt>
      <trkpt lat="48.65848" lon="6.23353">
        <ele>198.2</ele>
        <time>2022-07-06T08:17:32Z</time>
      </trkpt>
      <trkpt lat="48.65844" lon="6.23354">
        <ele>198.4</ele>
        <time>2022-07-06T08:17:33Z</time>
      </trkpt>
      <trkpt lat="48.65839" lon="6.23354">
        <ele>198.4</ele>
        <time>2022-07-06T08:17:34Z</time>
      </trkpt>
      <trkpt lat="48.65835" lon="6.23355">
        <ele>198.2</ele>
        <time>2022-07-06T08:17:35Z</time>
      </trkpt>
      <trkpt lat="48.65775" lon="6.23383">
        <ele>198.4</ele>
        <time>2022-07-06T08:17:48Z</time>
      </trkpt>
      <trkpt lat="48.65718" lon="6.23409">
        <ele>198.6</ele>
        <time>2022-07-06T08:17:59Z</time>
      </trkpt>
      <trkpt lat="48.65661" lon="6.23436">
        <ele>198.8</ele>
        <time>2022-07-06T08:18:10Z</time>
      </trkpt>
      <trkpt lat="48.65611" lon="6.23452">
        <ele>199.4</ele>
        <time>2022-07-06T08:18:20Z</time>
      </trkpt>
      <trkpt lat="48.65603" lon="6.23458">
        <ele>199.8</ele>
        <time>2022-07-06T08:18:22Z</time>
      </trkpt>
      <trkpt lat="48.65598" lon="6.23461">
        <ele>199.8</ele>
        <time>2022-07-06T08:18:23Z</time>
      </trkpt>
      <trkpt lat="48.65541" lon="6.23497">
        <ele>199.2</ele>
        <time>2022-07-06T08:18:33Z</time>
      </trkpt>
      <trkpt lat="48.65484" lon="6.23528">
        <ele>199.2</ele>
        <time>2022-07-06T08:18:43Z</time>
      </trkpt>
      <trkpt lat="48.65458" lon="6.23548">
        <ele>199.4</ele>
        <time>2022-07-06T08:18:48Z</time>
      </trkpt>
      <trkpt lat="48.65404" lon="6.23602">
        <ele>198.6</ele>
        <time>2022-07-06T08:18:58Z</time>
      </trkpt>
      <trkpt lat="48.65376" lon="6.23627">
        <ele>200</ele>
        <time>2022-07-06T08:19:04Z</time>
      </trkpt>
      <trkpt lat="48.65335" lon="6.23679">
        <ele>203.4</ele>
        <time>2022-07-06T08:19:19Z</time>
      </trkpt>
      <trkpt lat="48.6531" lon="6.23702">
        <ele>206.2</ele>
        <time>2022-07-06T08:19:29Z</time>
      </trkpt>
      <trkpt lat="48.65308" lon="6.23699">
        <ele>206.4</ele>
        <time>2022-07-06T08:19:30Z</time>
      </trkpt>
      <trkpt lat="48.65261" lon="6.23639">
        <ele>207.4</ele>
        <time>2022-07-06T08:19:52Z</time>
      </trkpt>
      <trkpt lat="48.6524" lon="6.23559">
        <ele>210.4</ele>
        <time>2022-07-06T08:20:10Z</time>
      </trkpt>
      <trkpt lat="48.65234" lon="6.23506">
        <ele>213.4</ele>
        <time>2022-07-06T08:20:23Z</time>
      </trkpt>
      <trkpt lat="48.65228" lon="6.23463">
        <ele>214.8</ele>
        <time>2022-07-06T08:20:35Z</time>
      </trkpt>
      <trkpt lat="48.65229" lon="6.2346">
        <ele>215</ele>
        <time>2022-07-06T08:20:36Z</time>
      </trkpt>
      <trkpt lat="48.65231" lon="6.23458">
        <ele>215</ele>
        <time>2022-07-06T08:20:37Z</time>
      </trkpt>
      <trkpt lat="48.65234" lon="6.23457">
        <ele>215.2</ele>
        <time>2022-07-06T08:20:38Z</time>
      </trkpt>
      <trkpt lat="48.65236" lon="6.23455">
        <ele>215.2</ele>
        <time>2022-07-06T08:20:39Z</time>
      </trkpt>
      <trkpt lat="48.65238" lon="6.23453">
        <ele>215.2</ele>
        <time>2022-07-06T08:20:40Z</time>
      </trkpt>
      <trkpt lat="48.6524" lon="6.2345">
        <ele>215.2</ele>
        <time>2022-07-06T08:20:41Z</time>
      </trkpt>
      <trkpt lat="48.65243" lon="6.23439">
        <ele>215.8</ele>
        <time>2022-07-06T08:20:44Z</time>
      </trkpt>
      <trkpt lat="48.65242" lon="6.23434">
        <ele>216</ele>
        <time>2022-07-06T08:20:45Z</time>
      </trkpt>
      <trkpt lat="48.65226" lon="6.23404">
        <ele>216.4</ele>
        <time>2022-07-06T08:20:53Z</time>
      </trkpt>
      <trkpt lat="48.65222" lon="6.23405">
        <ele>216.4</ele>
        <time>2022-07-06T08:20:54Z</time>
      </trkpt>
      <trkpt lat="48.65219" lon="6.23408">
        <ele>216.4</ele>
        <time>2022-07-06T08:20:55Z</time>
      </trkpt>
      <trkpt lat="48.65216" lon="6.23411">
        <ele>216.4</ele>
        <time>2022-07-06T08:20:56Z</time>
      </trkpt>
      <trkpt lat="48.65213" lon="6.23416">
        <ele>216.4</ele>
        <time>2022-07-06T08:20:57Z</time>
      </trkpt>
      <trkpt lat="48.65209" lon="6.23421">
        <ele>216.4</ele>
        <time>2022-07-06T08:20:58Z</time>
      </trkpt>
      <trkpt lat="48.65195" lon="6.23441">
        <ele>216.2</ele>
        <time>2022-07-06T08:21:02Z</time>
      </trkpt>
      <trkpt lat="48.65156" lon="6.23508">
        <ele>215</ele>
        <time>2022-07-06T08:21:14Z</time>
      </trkpt>
      <trkpt lat="48.65117" lon="6.23577">
        <ele>214.8</ele>
        <time>2022-07-06T08:21:25Z</time>
      </trkpt>
      <trkpt lat="48.65079" lon="6.23649">
        <ele>215.6</ele>
        <time>2022-07-06T08:21:36Z</time>
      </trkpt>
      <trkpt lat="48.65042" lon="6.2372">
        <ele>215.4</ele>
        <time>2022-07-06T08:21:46Z</time>
      </trkpt>
      <trkpt lat="48.65002" lon="6.23793">
        <ele>215.8</ele>
        <time>2022-07-06T08:21:56Z</time>
      </trkpt>
      <trkpt lat="48.64962" lon="6.23868">
        <ele>215.6</ele>
        <time>2022-07-06T08:22:06Z</time>
      </trkpt>
      <trkpt lat="48.64924" lon="6.23939">
        <ele>215.6</ele>
        <time>2022-07-06T08:22:15Z</time>
      </trkpt>
      <trkpt lat="48.64885" lon="6.24013">
        <ele>216</ele>
        <time>2022-07-06T08:22:25Z</time>
      </trkpt>
      <trkpt lat="48.64848" lon="6.24083">
        <ele>215</ele>
        <time>2022-07-06T08:22:35Z</time>
      </trkpt>
      <trkpt lat="48.64828" lon="6.24111">
        <ele>215</ele>
        <time>2022-07-06T08:22:39Z</time>
      </trkpt>
      <trkpt lat="48.64822" lon="6.24117">
        <ele>214.8</ele>
        <time>2022-07-06T08:22:40Z</time>
      </trkpt>
      <trkpt lat="48.64816" lon="6.24121">
        <ele>214.6</ele>
        <time>2022-07-06T08:22:41Z</time>
      </trkpt>
      <trkpt lat="48.64809" lon="6.24124">
        <ele>214.4</ele>
        <time>2022-07-06T08:22:42Z</time>
      </trkpt>
      <trkpt lat="48.64802" lon="6.24127">
        <ele>214.4</ele>
        <time>2022-07-06T08:22:43Z</time>
      </trkpt>
      <trkpt lat="48.64795" lon="6.24131">
        <ele>214.4</ele>
        <time>2022-07-06T08:22:44Z</time>
      </trkpt>
      <trkpt lat="48.64788" lon="6.24137">
        <ele>214</ele>
        <time>2022-07-06T08:22:45Z</time>
      </trkpt>
      <trkpt lat="48.64782" lon="6.24144">
        <ele>213.2</ele>
        <time>2022-07-06T08:22:46Z</time>
      </trkpt>
      <trkpt lat="48.64779" lon="6.24156">
        <ele>212.6</ele>
        <time>2022-07-06T08:22:47Z</time>
      </trkpt>
      <trkpt lat="48.64778" lon="6.24168">
        <ele>212</ele>
        <time>2022-07-06T08:22:48Z</time>
      </trkpt>
      <trkpt lat="48.64777" lon="6.24181">
        <ele>211.6</ele>
        <time>2022-07-06T08:22:49Z</time>
      </trkpt>
      <trkpt lat="48.64774" lon="6.24193">
        <ele>211.2</ele>
        <time>2022-07-06T08:22:50Z</time>
      </trkpt>
      <trkpt lat="48.6477" lon="6.24205">
        <ele>210.4</ele>
        <time>2022-07-06T08:22:51Z</time>
      </trkpt>
      <trkpt lat="48.64765" lon="6.24216">
        <ele>210.2</ele>
        <time>2022-07-06T08:22:52Z</time>
      </trkpt>
      <trkpt lat="48.6476" lon="6.24227">
        <ele>210</ele>
        <time>2022-07-06T08:22:53Z</time>
      </trkpt>
      <trkpt lat="48.64722" lon="6.24301">
        <ele>209.2</ele>
        <time>2022-07-06T08:23:00Z</time>
      </trkpt>
      <trkpt lat="48.64685" lon="6.24374">
        <ele>208.8</ele>
        <time>2022-07-06T08:23:07Z</time>
      </trkpt>
      <trkpt lat="48.64657" lon="6.24452">
        <ele>207.8</ele>
        <time>2022-07-06T08:23:14Z</time>
      </trkpt>
      <trkpt lat="48.64631" lon="6.24541">
        <ele>206.2</ele>
        <time>2022-07-06T08:23:22Z</time>
      </trkpt>
      <trkpt lat="48.64603" lon="6.24621">
        <ele>207.2</ele>
        <time>2022-07-06T08:23:30Z</time>
      </trkpt>
      <trkpt lat="48.64569" lon="6.24695">
        <ele>206.4</ele>
        <time>2022-07-06T08:23:38Z</time>
      </trkpt>
      <trkpt lat="48.6453" lon="6.24769">
        <ele>205.6</ele>
        <time>2022-07-06T08:23:46Z</time>
      </trkpt>
      <trkpt lat="48.64492" lon="6.24845">
        <ele>205.4</ele>
        <time>2022-07-06T08:23:54Z</time>
      </trkpt>
      <trkpt lat="48.64458" lon="6.24923">
        <ele>204.2</ele>
        <time>2022-07-06T08:24:02Z</time>
      </trkpt>
      <trkpt lat="48.64431" lon="6.25005">
        <ele>204</ele>
        <time>2022-07-06T08:24:10Z</time>
      </trkpt>
      <trkpt lat="48.64409" lon="6.25085">
        <ele>203.4</ele>
        <time>2022-07-06T08:24:18Z</time>
      </trkpt>
      <trkpt lat="48.64383" lon="6.25166">
        <ele>202.8</ele>
        <time>2022-07-06T08:24:27Z</time>
      </trkpt>
      <trkpt lat="48.64373" lon="6.25198">
        <ele>203</ele>
        <time>2022-07-06T08:24:31Z</time>
      </trkpt>
      <trkpt lat="48.64336" lon="6.25269">
        <ele>202.4</ele>
        <time>2022-07-06T08:24:41Z</time>
      </trkpt>
      <trkpt lat="48.64333" lon="6.25275">
        <ele>202.4</ele>
        <time>2022-07-06T08:24:42Z</time>
      </trkpt>
      <trkpt lat="48.64331" lon="6.25282">
        <ele>202.4</ele>
        <time>2022-07-06T08:24:43Z</time>
      </trkpt>
      <trkpt lat="48.6433" lon="6.2529">
        <ele>202.2</ele>
        <time>2022-07-06T08:24:44Z</time>
      </trkpt>
      <trkpt lat="48.64329" lon="6.25297">
        <ele>202.2</ele>
        <time>2022-07-06T08:24:45Z</time>
      </trkpt>
      <trkpt lat="48.6433" lon="6.25305">
        <ele>202</ele>
        <time>2022-07-06T08:24:46Z</time>
      </trkpt>
      <trkpt lat="48.6433" lon="6.25313">
        <ele>201.8</ele>
        <time>2022-07-06T08:24:47Z</time>
      </trkpt>
      <trkpt lat="48.64329" lon="6.25321">
        <ele>201.8</ele>
        <time>2022-07-06T08:24:48Z</time>
      </trkpt>
      <trkpt lat="48.64328" lon="6.25329">
        <ele>202</ele>
        <time>2022-07-06T08:24:49Z</time>
      </trkpt>
      <trkpt lat="48.64326" lon="6.25346">
        <ele>202.2</ele>
        <time>2022-07-06T08:24:51Z</time>
      </trkpt>
      <trkpt lat="48.64327" lon="6.25354">
        <ele>202.2</ele>
        <time>2022-07-06T08:24:52Z</time>
      </trkpt>
      <trkpt lat="48.64328" lon="6.25361">
        <ele>202.2</ele>
        <time>2022-07-06T08:24:53Z</time>
      </trkpt>
      <trkpt lat="48.64331" lon="6.25378">
        <ele>202.6</ele>
        <time>2022-07-06T08:24:55Z</time>
      </trkpt>
      <trkpt lat="48.64331" lon="6.25387">
        <ele>203</ele>
        <time>2022-07-06T08:24:56Z</time>
      </trkpt>
      <trkpt lat="48.6433" lon="6.25395">
        <ele>203.2</ele>
        <time>2022-07-06T08:24:57Z</time>
      </trkpt>
      <trkpt lat="48.64315" lon="6.25482">
        <ele>203.8</ele>
        <time>2022-07-06T08:25:07Z</time>
      </trkpt>
      <trkpt lat="48.64299" lon="6.25566">
        <ele>203.6</ele>
        <time>2022-07-06T08:25:17Z</time>
      </trkpt>
      <trkpt lat="48.64283" lon="6.25651">
        <ele>203.6</ele>
        <time>2022-07-06T08:25:27Z</time>
      </trkpt>
      <trkpt lat="48.64266" lon="6.25741">
        <ele>203.6</ele>
        <time>2022-07-06T08:25:37Z</time>
      </trkpt>
      <trkpt lat="48.64249" lon="6.2583">
        <ele>203.4</ele>
        <time>2022-07-06T08:25:47Z</time>
      </trkpt>
      <trkpt lat="48.64246" lon="6.25847">
        <ele>203</ele>
        <time>2022-07-06T08:25:49Z</time>
      </trkpt>
      <trkpt lat="48.64244" lon="6.25856">
        <ele>203.4</ele>
        <time>2022-07-06T08:25:50Z</time>
      </trkpt>
      <trkpt lat="48.64227" lon="6.25944">
        <ele>204</ele>
        <time>2022-07-06T08:26:00Z</time>
      </trkpt>
      <trkpt lat="48.6421" lon="6.26034">
        <ele>204.4</ele>
        <time>2022-07-06T08:26:10Z</time>
      </trkpt>
      <trkpt lat="48.64195" lon="6.26124">
        <ele>204.6</ele>
        <time>2022-07-06T08:26:20Z</time>
      </trkpt>
      <trkpt lat="48.64178" lon="6.26214">
        <ele>204.8</ele>
        <time>2022-07-06T08:26:30Z</time>
      </trkpt>
      <trkpt lat="48.64163" lon="6.26304">
        <ele>205.4</ele>
        <time>2022-07-06T08:26:40Z</time>
      </trkpt>
      <trkpt lat="48.64146" lon="6.26393">
        <ele>206.4</ele>
        <time>2022-07-06T08:26:50Z</time>
      </trkpt>
      <trkpt lat="48.6413" lon="6.26479">
        <ele>207.4</ele>
        <time>2022-07-06T08:27:01Z</time>
      </trkpt>
      <trkpt lat="48.64113" lon="6.26562">
        <ele>209.6</ele>
        <time>2022-07-06T08:27:13Z</time>
      </trkpt>
      <trkpt lat="48.64097" lon="6.2665">
        <ele>212</ele>
        <time>2022-07-06T08:27:26Z</time>
      </trkpt>
      <trkpt lat="48.64082" lon="6.26731">
        <ele>211.6</ele>
        <time>2022-07-06T08:27:36Z</time>
      </trkpt>
      <trkpt lat="48.64074" lon="6.26785">
        <ele>211.2</ele>
        <time>2022-07-06T08:27:42Z</time>
      </trkpt>
      <trkpt lat="48.64072" lon="6.26794">
        <ele>211</ele>
        <time>2022-07-06T08:27:43Z</time>
      </trkpt>
      <trkpt lat="48.6407" lon="6.26802">
        <ele>211.2</ele>
        <time>2022-07-06T08:27:44Z</time>
      </trkpt>
      <trkpt lat="48.64054" lon="6.26895">
        <ele>212.8</ele>
        <time>2022-07-06T08:27:55Z</time>
      </trkpt>
      <trkpt lat="48.64037" lon="6.26984">
        <ele>212.8</ele>
        <time>2022-07-06T08:28:06Z</time>
      </trkpt>
      <trkpt lat="48.64022" lon="6.27071">
        <ele>212</ele>
        <time>2022-07-06T08:28:17Z</time>
      </trkpt>
      <trkpt lat="48.6402" lon="6.27078">
        <ele>212.2</ele>
        <time>2022-07-06T08:28:18Z</time>
      </trkpt>
      <trkpt lat="48.64019" lon="6.27086">
        <ele>212.2</ele>
        <time>2022-07-06T08:28:19Z</time>
      </trkpt>
      <trkpt lat="48.64005" lon="6.27143">
        <ele>212.4</ele>
        <time>2022-07-06T08:28:26Z</time>
      </trkpt>
      <trkpt lat="48.6398" lon="6.2722">
        <ele>212.8</ele>
        <time>2022-07-06T08:28:36Z</time>
      </trkpt>
      <trkpt lat="48.63956" lon="6.27301">
        <ele>214.6</ele>
        <time>2022-07-06T08:28:49Z</time>
      </trkpt>
      <trkpt lat="48.63922" lon="6.27386">
        <ele>216.4</ele>
        <time>2022-07-06T08:29:03Z</time>
      </trkpt>
      <trkpt lat="48.63884" lon="6.27471">
        <ele>216</ele>
        <time>2022-07-06T08:29:15Z</time>
      </trkpt>
      <trkpt lat="48.63871" lon="6.27507">
        <ele>216.4</ele>
        <time>2022-07-06T08:29:20Z</time>
      </trkpt>
      <trkpt lat="48.63863" lon="6.27527">
        <ele>217.2</ele>
        <time>2022-07-06T08:29:23Z</time>
      </trkpt>
      <trkpt lat="48.6386" lon="6.27534">
        <ele>217.4</ele>
        <time>2022-07-06T08:29:24Z</time>
      </trkpt>
      <trkpt lat="48.63844" lon="6.2758">
        <ele>217</ele>
        <time>2022-07-06T08:29:30Z</time>
      </trkpt>
      <trkpt lat="48.63826" lon="6.27614">
        <ele>218.2</ele>
        <time>2022-07-06T08:29:36Z</time>
      </trkpt>
      <trkpt lat="48.63794" lon="6.2769">
        <ele>219.2</ele>
        <time>2022-07-06T08:29:48Z</time>
      </trkpt>
      <trkpt lat="48.63762" lon="6.27768">
        <ele>221</ele>
        <time>2022-07-06T08:30:00Z</time>
      </trkpt>
      <trkpt lat="48.63748" lon="6.27802">
        <ele>221.4</ele>
        <time>2022-07-06T08:30:05Z</time>
      </trkpt>
      <trkpt lat="48.63724" lon="6.27882">
        <ele>222.6</ele>
        <time>2022-07-06T08:30:17Z</time>
      </trkpt>
      <trkpt lat="48.63701" lon="6.27967">
        <ele>222</ele>
        <time>2022-07-06T08:30:28Z</time>
      </trkpt>
      <trkpt lat="48.6368" lon="6.28051">
        <ele>220.2</ele>
        <time>2022-07-06T08:30:38Z</time>
      </trkpt>
      <trkpt lat="48.63667" lon="6.28102">
        <ele>217</ele>
        <time>2022-07-06T08:30:43Z</time>
      </trkpt>
      <trkpt lat="48.63646" lon="6.28184">
        <ele>216.8</ele>
        <time>2022-07-06T08:30:50Z</time>
      </trkpt>
      <trkpt lat="48.63622" lon="6.28276">
        <ele>214.8</ele>
        <time>2022-07-06T08:30:57Z</time>
      </trkpt>
      <trkpt lat="48.63598" lon="6.28369">
        <ele>212.2</ele>
        <time>2022-07-06T08:31:04Z</time>
      </trkpt>
      <trkpt lat="48.63588" lon="6.28408">
        <ele>210.8</ele>
        <time>2022-07-06T08:31:07Z</time>
      </trkpt>
      <trkpt lat="48.63577" lon="6.285">
        <ele>209.4</ele>
        <time>2022-07-06T08:31:14Z</time>
      </trkpt>
      <trkpt lat="48.63573" lon="6.2855">
        <ele>207.4</ele>
        <time>2022-07-06T08:31:18Z</time>
      </trkpt>
      <trkpt lat="48.63573" lon="6.28562">
        <ele>207.2</ele>
        <time>2022-07-06T08:31:19Z</time>
      </trkpt>
      <trkpt lat="48.63574" lon="6.28627">
        <ele>208.4</ele>
        <time>2022-07-06T08:31:25Z</time>
      </trkpt>
      <trkpt lat="48.63564" lon="6.28716">
        <ele>210.4</ele>
        <time>2022-07-06T08:31:35Z</time>
      </trkpt>
      <trkpt lat="48.63562" lon="6.28732">
        <ele>210.6</ele>
        <time>2022-07-06T08:31:37Z</time>
      </trkpt>
      <trkpt lat="48.63538" lon="6.28814">
        <ele>212.6</ele>
        <time>2022-07-06T08:31:49Z</time>
      </trkpt>
      <trkpt lat="48.63502" lon="6.28882">
        <ele>213.8</ele>
        <time>2022-07-06T08:32:01Z</time>
      </trkpt>
      <trkpt lat="48.63471" lon="6.28956">
        <ele>215.4</ele>
        <time>2022-07-06T08:32:13Z</time>
      </trkpt>
      <trkpt lat="48.6346" lon="6.28997">
        <ele>215.8</ele>
        <time>2022-07-06T08:32:19Z</time>
      </trkpt>
      <trkpt lat="48.63458" lon="6.29004">
        <ele>215.8</ele>
        <time>2022-07-06T08:32:20Z</time>
      </trkpt>
      <trkpt lat="48.63444" lon="6.29089">
        <ele>216.2</ele>
        <time>2022-07-06T08:32:31Z</time>
      </trkpt>
      <trkpt lat="48.63448" lon="6.29179">
        <ele>215</ele>
        <time>2022-07-06T08:32:40Z</time>
      </trkpt>
      <trkpt lat="48.63476" lon="6.29263">
        <ele>211.6</ele>
        <time>2022-07-06T08:32:49Z</time>
      </trkpt>
      <trkpt lat="48.63483" lon="6.29283">
        <ele>209.2</ele>
        <time>2022-07-06T08:33:02Z</time>
      </trkpt>
      <trkpt lat="48.63487" lon="6.29295">
        <ele>209.6</ele>
        <time>2022-07-06T08:33:11Z</time>
      </trkpt>
      <trkpt lat="48.63501" lon="6.2934">
        <ele>208.6</ele>
        <time>2022-07-06T08:33:18Z</time>
      </trkpt>
      <trkpt lat="48.63522" lon="6.29432">
        <ele>206.6</ele>
        <time>2022-07-06T08:33:27Z</time>
      </trkpt>
      <trkpt lat="48.63532" lon="6.29521">
        <ele>205.6</ele>
        <time>2022-07-06T08:33:35Z</time>
      </trkpt>
      <trkpt lat="48.63539" lon="6.29613">
        <ele>205.2</ele>
        <time>2022-07-06T08:33:44Z</time>
      </trkpt>
      <trkpt lat="48.63548" lon="6.29701">
        <ele>205.4</ele>
        <time>2022-07-06T08:33:53Z</time>
      </trkpt>
      <trkpt lat="48.63561" lon="6.29786">
        <ele>205.2</ele>
        <time>2022-07-06T08:34:02Z</time>
      </trkpt>
      <trkpt lat="48.63576" lon="6.29879">
        <ele>205.6</ele>
        <time>2022-07-06T08:34:12Z</time>
      </trkpt>
      <trkpt lat="48.63588" lon="6.29973">
        <ele>205.8</ele>
        <time>2022-07-06T08:34:22Z</time>
      </trkpt>
      <trkpt lat="48.63597" lon="6.3006">
        <ele>205.2</ele>
        <time>2022-07-06T08:34:31Z</time>
      </trkpt>
      <trkpt lat="48.63605" lon="6.30147">
        <ele>205.2</ele>
        <time>2022-07-06T08:34:40Z</time>
      </trkpt>
      <trkpt lat="48.63608" lon="6.30235">
        <ele>205.2</ele>
        <time>2022-07-06T08:34:49Z</time>
      </trkpt>
      <trkpt lat="48.63603" lon="6.30321">
        <ele>204.8</ele>
        <time>2022-07-06T08:34:58Z</time>
      </trkpt>
      <trkpt lat="48.63586" lon="6.30404">
        <ele>204.8</ele>
        <time>2022-07-06T08:35:07Z</time>
      </trkpt>
      <trkpt lat="48.6356" lon="6.30482">
        <ele>205</ele>
        <time>2022-07-06T08:35:16Z</time>
      </trkpt>
      <trkpt lat="48.63524" lon="6.30552">
        <ele>204.8</ele>
        <time>2022-07-06T08:35:25Z</time>
      </trkpt>
      <trkpt lat="48.63482" lon="6.30625">
        <ele>204.8</ele>
        <time>2022-07-06T08:35:35Z</time>
      </trkpt>
      <trkpt lat="48.63443" lon="6.30693">
        <ele>204.8</ele>
        <time>2022-07-06T08:35:44Z</time>
      </trkpt>
      <trkpt lat="48.63413" lon="6.30731">
        <ele>204.8</ele>
        <time>2022-07-06T08:35:50Z</time>
      </trkpt>
      <trkpt lat="48.63407" lon="6.30735">
        <ele>205</ele>
        <time>2022-07-06T08:35:51Z</time>
      </trkpt>
      <trkpt lat="48.63401" lon="6.30738">
        <ele>205</ele>
        <time>2022-07-06T08:35:52Z</time>
      </trkpt>
      <trkpt lat="48.63395" lon="6.30741">
        <ele>205.2</ele>
        <time>2022-07-06T08:35:53Z</time>
      </trkpt>
      <trkpt lat="48.63389" lon="6.30743">
        <ele>205.4</ele>
        <time>2022-07-06T08:35:54Z</time>
      </trkpt>
      <trkpt lat="48.63335" lon="6.30746">
        <ele>207.4</ele>
        <time>2022-07-06T08:36:04Z</time>
      </trkpt>
      <trkpt lat="48.6333" lon="6.30747">
        <ele>207.4</ele>
        <time>2022-07-06T08:36:05Z</time>
      </trkpt>
      <trkpt lat="48.63326" lon="6.30749">
        <ele>207.4</ele>
        <time>2022-07-06T08:36:06Z</time>
      </trkpt>
      <trkpt lat="48.63322" lon="6.30752">
        <ele>207.6</ele>
        <time>2022-07-06T08:36:07Z</time>
      </trkpt>
      <trkpt lat="48.63319" lon="6.30755">
        <ele>207.6</ele>
        <time>2022-07-06T08:36:08Z</time>
      </trkpt>
      <trkpt lat="48.63316" lon="6.30757">
        <ele>207.8</ele>
        <time>2022-07-06T08:36:09Z</time>
      </trkpt>
      <trkpt lat="48.63305" lon="6.30769">
        <ele>208.2</ele>
        <time>2022-07-06T08:36:20Z</time>
      </trkpt>
      <trkpt lat="48.63299" lon="6.30778">
        <ele>208.4</ele>
        <time>2022-07-06T08:36:45Z</time>
      </trkpt>
      <trkpt lat="48.63297" lon="6.30781">
        <ele>208.4</ele>
        <time>2022-07-06T08:36:46Z</time>
      </trkpt>
      <trkpt lat="48.63326" lon="6.30851">
        <ele>209.6</ele>
        <time>2022-07-06T08:37:02Z</time>
      </trkpt>
      <trkpt lat="48.63329" lon="6.30856">
        <ele>209.8</ele>
        <time>2022-07-06T08:37:03Z</time>
      </trkpt>
      <trkpt lat="48.63371" lon="6.30922">
        <ele>208.2</ele>
        <time>2022-07-06T08:37:15Z</time>
      </trkpt>
      <trkpt lat="48.63389" lon="6.30957">
        <ele>208</ele>
        <time>2022-07-06T08:37:20Z</time>
      </trkpt>
      <trkpt lat="48.63414" lon="6.31014">
        <ele>207.6</ele>
        <time>2022-07-06T08:37:27Z</time>
      </trkpt>
      <trkpt lat="48.63419" lon="6.31022">
        <ele>207.4</ele>
        <time>2022-07-06T08:37:28Z</time>
      </trkpt>
      <trkpt lat="48.63425" lon="6.31027">
        <ele>207.4</ele>
        <time>2022-07-06T08:37:29Z</time>
      </trkpt>
      <trkpt lat="48.63431" lon="6.31032">
        <ele>207.2</ele>
        <time>2022-07-06T08:37:30Z</time>
      </trkpt>
      <trkpt lat="48.63437" lon="6.31036">
        <ele>207.2</ele>
        <time>2022-07-06T08:37:31Z</time>
      </trkpt>
      <trkpt lat="48.63492" lon="6.31073">
        <ele>208.2</ele>
        <time>2022-07-06T08:37:42Z</time>
      </trkpt>
      <trkpt lat="48.63541" lon="6.31108">
        <ele>210.2</ele>
        <time>2022-07-06T08:37:56Z</time>
      </trkpt>
      <trkpt lat="48.63578" lon="6.31133">
        <ele>212.2</ele>
        <time>2022-07-06T08:38:20Z</time>
      </trkpt>
      <trkpt lat="48.63585" lon="6.31137">
        <ele>212.6</ele>
        <time>2022-07-06T08:38:31Z</time>
      </trkpt>
      <trkpt lat="48.63629" lon="6.31167">
        <ele>213</ele>
        <time>2022-07-06T08:38:43Z</time>
      </trkpt>
      <trkpt lat="48.63633" lon="6.31171">
        <ele>213</ele>
        <time>2022-07-06T08:38:44Z</time>
      </trkpt>
      <trkpt lat="48.63636" lon="6.31177">
        <ele>212.8</ele>
        <time>2022-07-06T08:38:45Z</time>
      </trkpt>
      <trkpt lat="48.63639" lon="6.31183">
        <ele>212.6</ele>
        <time>2022-07-06T08:38:46Z</time>
      </trkpt>
      <trkpt lat="48.63642" lon="6.3119">
        <ele>212.4</ele>
        <time>2022-07-06T08:38:47Z</time>
      </trkpt>
      <trkpt lat="48.63645" lon="6.31198">
        <ele>212.2</ele>
        <time>2022-07-06T08:38:48Z</time>
      </trkpt>
      <trkpt lat="48.63647" lon="6.31206">
        <ele>212.2</ele>
        <time>2022-07-06T08:38:49Z</time>
      </trkpt>
      <trkpt lat="48.63649" lon="6.31214">
        <ele>212</ele>
        <time>2022-07-06T08:38:50Z</time>
      </trkpt>
      <trkpt lat="48.63652" lon="6.31232">
        <ele>212</ele>
        <time>2022-07-06T08:38:52Z</time>
      </trkpt>
      <trkpt lat="48.63653" lon="6.31251">
        <ele>212.2</ele>
        <time>2022-07-06T08:38:54Z</time>
      </trkpt>
      <trkpt lat="48.63652" lon="6.3126">
        <ele>212.4</ele>
        <time>2022-07-06T08:38:55Z</time>
      </trkpt>
      <trkpt lat="48.6365" lon="6.31269">
        <ele>212.4</ele>
        <time>2022-07-06T08:38:56Z</time>
      </trkpt>
      <trkpt lat="48.63628" lon="6.31361">
        <ele>212</ele>
        <time>2022-07-06T08:39:05Z</time>
      </trkpt>
      <trkpt lat="48.63598" lon="6.31445">
        <ele>211.2</ele>
        <time>2022-07-06T08:39:13Z</time>
      </trkpt>
      <trkpt lat="48.63557" lon="6.31522">
        <ele>210</ele>
        <time>2022-07-06T08:39:21Z</time>
      </trkpt>
      <trkpt lat="48.63533" lon="6.31567">
        <ele>208.6</ele>
        <time>2022-07-06T08:39:26Z</time>
      </trkpt>
      <trkpt lat="48.63529" lon="6.31576">
        <ele>208.6</ele>
        <time>2022-07-06T08:39:27Z</time>
      </trkpt>
      <trkpt lat="48.63515" lon="6.31636">
        <ele>205.6</ele>
        <time>2022-07-06T08:39:33Z</time>
      </trkpt>
      <trkpt lat="48.63511" lon="6.31656">
        <ele>204.6</ele>
        <time>2022-07-06T08:39:35Z</time>
      </trkpt>
      <trkpt lat="48.63505" lon="6.31687">
        <ele>206</ele>
        <time>2022-07-06T08:39:38Z</time>
      </trkpt>
      <trkpt lat="48.63487" lon="6.31778">
        <ele>206.4</ele>
        <time>2022-07-06T08:39:48Z</time>
      </trkpt>
      <trkpt lat="48.6347" lon="6.31862">
        <ele>206.2</ele>
        <time>2022-07-06T08:39:58Z</time>
      </trkpt>
      <trkpt lat="48.63468" lon="6.3187">
        <ele>206.2</ele>
        <time>2022-07-06T08:39:59Z</time>
      </trkpt>
      <trkpt lat="48.63451" lon="6.31958">
        <ele>207</ele>
        <time>2022-07-06T08:40:10Z</time>
      </trkpt>
      <trkpt lat="48.63432" lon="6.32047">
        <ele>207.2</ele>
        <time>2022-07-06T08:40:21Z</time>
      </trkpt>
      <trkpt lat="48.63423" lon="6.32085">
        <ele>208.2</ele>
        <time>2022-07-06T08:40:35Z</time>
      </trkpt>
      <trkpt lat="48.63426" lon="6.32092">
        <ele>208.2</ele>
        <time>2022-07-06T08:41:02Z</time>
      </trkpt>
      <trkpt lat="48.63426" lon="6.32096">
        <ele>208.2</ele>
        <time>2022-07-06T08:41:03Z</time>
      </trkpt>
      <trkpt lat="48.63409" lon="6.32185">
        <ele>210</ele>
        <time>2022-07-06T08:41:18Z</time>
      </trkpt>
      <trkpt lat="48.63385" lon="6.32267">
        <ele>209.8</ele>
        <time>2022-07-06T08:41:30Z</time>
      </trkpt>
      <trkpt lat="48.63352" lon="6.32348">
        <ele>210.2</ele>
        <time>2022-07-06T08:41:41Z</time>
      </trkpt>
      <trkpt lat="48.63326" lon="6.32413">
        <ele>210.8</ele>
        <time>2022-07-06T08:41:50Z</time>
      </trkpt>
      <trkpt lat="48.63325" lon="6.32422">
        <ele>210.8</ele>
        <time>2022-07-06T08:41:51Z</time>
      </trkpt>
      <trkpt lat="48.63323" lon="6.3243">
        <ele>210.2</ele>
        <time>2022-07-06T08:41:52Z</time>
      </trkpt>
      <trkpt lat="48.63321" lon="6.32438">
        <ele>209.8</ele>
        <time>2022-07-06T08:41:53Z</time>
      </trkpt>
      <trkpt lat="48.63319" lon="6.32446">
        <ele>209.6</ele>
        <time>2022-07-06T08:41:54Z</time>
      </trkpt>
      <trkpt lat="48.63316" lon="6.32454">
        <ele>209.8</ele>
        <time>2022-07-06T08:41:55Z</time>
      </trkpt>
      <trkpt lat="48.6331" lon="6.32468">
        <ele>210</ele>
        <time>2022-07-06T08:41:57Z</time>
      </trkpt>
      <trkpt lat="48.63304" lon="6.32483">
        <ele>210.2</ele>
        <time>2022-07-06T08:41:59Z</time>
      </trkpt>
      <trkpt lat="48.63302" lon="6.3249">
        <ele>210.2</ele>
        <time>2022-07-06T08:42:00Z</time>
      </trkpt>
      <trkpt lat="48.6327" lon="6.3257">
        <ele>210.4</ele>
        <time>2022-07-06T08:42:11Z</time>
      </trkpt>
      <trkpt lat="48.63243" lon="6.32649">
        <ele>210.4</ele>
        <time>2022-07-06T08:42:22Z</time>
      </trkpt>
      <trkpt lat="48.63215" lon="6.32731">
        <ele>210.4</ele>
        <time>2022-07-06T08:42:34Z</time>
      </trkpt>
      <trkpt lat="48.63189" lon="6.32814">
        <ele>210.4</ele>
        <time>2022-07-06T08:42:45Z</time>
      </trkpt>
      <trkpt lat="48.63168" lon="6.32899">
        <ele>210.6</ele>
        <time>2022-07-06T08:42:55Z</time>
      </trkpt>
      <trkpt lat="48.6315" lon="6.32984">
        <ele>211.2</ele>
        <time>2022-07-06T08:43:05Z</time>
      </trkpt>
      <trkpt lat="48.63131" lon="6.3307">
        <ele>213</ele>
        <time>2022-07-06T08:43:16Z</time>
      </trkpt>
      <trkpt lat="48.63111" lon="6.33155">
        <ele>213.4</ele>
        <time>2022-07-06T08:43:28Z</time>
      </trkpt>
      <trkpt lat="48.63093" lon="6.33232">
        <ele>214</ele>
        <time>2022-07-06T08:43:39Z</time>
      </trkpt>
      <trkpt lat="48.63074" lon="6.33314">
        <ele>214.4</ele>
        <time>2022-07-06T08:43:50Z</time>
      </trkpt>
      <trkpt lat="48.63054" lon="6.33402">
        <ele>212.6</ele>
        <time>2022-07-06T08:44:01Z</time>
      </trkpt>
      <trkpt lat="48.63031" lon="6.33489">
        <ele>212.2</ele>
        <time>2022-07-06T08:44:10Z</time>
      </trkpt>
      <trkpt lat="48.63028" lon="6.33499">
        <ele>212</ele>
        <time>2022-07-06T08:44:11Z</time>
      </trkpt>
      <trkpt lat="48.63009" lon="6.33583">
        <ele>210.4</ele>
        <time>2022-07-06T08:44:19Z</time>
      </trkpt>
      <trkpt lat="48.62987" lon="6.3367">
        <ele>209.6</ele>
        <time>2022-07-06T08:44:28Z</time>
      </trkpt>
      <trkpt lat="48.62966" lon="6.33757">
        <ele>211.4</ele>
        <time>2022-07-06T08:44:38Z</time>
      </trkpt>
      <trkpt lat="48.62947" lon="6.33846">
        <ele>211.4</ele>
        <time>2022-07-06T08:44:48Z</time>
      </trkpt>
      <trkpt lat="48.62934" lon="6.33912">
        <ele>210.4</ele>
        <time>2022-07-06T08:44:55Z</time>
      </trkpt>
      <trkpt lat="48.62932" lon="6.33922">
        <ele>210.2</ele>
        <time>2022-07-06T08:44:56Z</time>
      </trkpt>
      <trkpt lat="48.62911" lon="6.34014">
        <ele>210.2</ele>
        <time>2022-07-06T08:45:05Z</time>
      </trkpt>
      <trkpt lat="48.62891" lon="6.341">
        <ele>210</ele>
        <time>2022-07-06T08:45:14Z</time>
      </trkpt>
      <trkpt lat="48.62869" lon="6.3419">
        <ele>209.2</ele>
        <time>2022-07-06T08:45:23Z</time>
      </trkpt>
      <trkpt lat="48.62851" lon="6.34274">
        <ele>209.6</ele>
        <time>2022-07-06T08:45:32Z</time>
      </trkpt>
      <trkpt lat="48.62851" lon="6.34293">
        <ele>209.6</ele>
        <time>2022-07-06T08:45:34Z</time>
      </trkpt>
      <trkpt lat="48.62866" lon="6.34381">
        <ele>210.2</ele>
        <time>2022-07-06T08:45:43Z</time>
      </trkpt>
      <trkpt lat="48.62896" lon="6.34461">
        <ele>211</ele>
        <time>2022-07-06T08:45:52Z</time>
      </trkpt>
      <trkpt lat="48.62918" lon="6.34543">
        <ele>213</ele>
        <time>2022-07-06T08:46:01Z</time>
      </trkpt>
      <trkpt lat="48.62941" lon="6.34623">
        <ele>212.8</ele>
        <time>2022-07-06T08:46:11Z</time>
      </trkpt>
      <trkpt lat="48.62951" lon="6.34659">
        <ele>212.8</ele>
        <time>2022-07-06T08:46:16Z</time>
      </trkpt>
      <trkpt lat="48.62953" lon="6.34666">
        <ele>212.6</ele>
        <time>2022-07-06T08:46:17Z</time>
      </trkpt>
      <trkpt lat="48.62951" lon="6.34688">
        <ele>213.2</ele>
        <time>2022-07-06T08:46:21Z</time>
      </trkpt>
      <trkpt lat="48.62948" lon="6.34691">
        <ele>213.4</ele>
        <time>2022-07-06T08:46:22Z</time>
      </trkpt>
      <trkpt lat="48.62945" lon="6.34694">
        <ele>213.8</ele>
        <time>2022-07-06T08:46:23Z</time>
      </trkpt>
      <trkpt lat="48.62887" lon="6.3473">
        <ele>212</ele>
        <time>2022-07-06T08:46:36Z</time>
      </trkpt>
      <trkpt lat="48.62846" lon="6.34755">
        <ele>211</ele>
        <time>2022-07-06T08:46:42Z</time>
      </trkpt>
      <trkpt lat="48.62838" lon="6.34755">
        <ele>210.6</ele>
        <time>2022-07-06T08:46:43Z</time>
      </trkpt>
      <trkpt lat="48.62831" lon="6.34754">
        <ele>210.2</ele>
        <time>2022-07-06T08:46:44Z</time>
      </trkpt>
      <trkpt lat="48.6277" lon="6.34741">
        <ele>207.8</ele>
        <time>2022-07-06T08:46:52Z</time>
      </trkpt>
      <trkpt lat="48.62724" lon="6.34736">
        <ele>208.4</ele>
        <time>2022-07-06T08:46:59Z</time>
      </trkpt>
      <trkpt lat="48.62718" lon="6.34737">
        <ele>208.4</ele>
        <time>2022-07-06T08:47:00Z</time>
      </trkpt>
      <trkpt lat="48.62708" lon="6.3474">
        <ele>208.2</ele>
        <time>2022-07-06T08:47:02Z</time>
      </trkpt>
      <trkpt lat="48.62703" lon="6.34743">
        <ele>208.2</ele>
        <time>2022-07-06T08:47:03Z</time>
      </trkpt>
      <trkpt lat="48.62699" lon="6.34748">
        <ele>208.2</ele>
        <time>2022-07-06T08:47:04Z</time>
      </trkpt>
      <trkpt lat="48.6265" lon="6.348">
        <ele>209.2</ele>
        <time>2022-07-06T08:47:16Z</time>
      </trkpt>
      <trkpt lat="48.626" lon="6.34851">
        <ele>212</ele>
        <time>2022-07-06T08:47:35Z</time>
      </trkpt>
      <trkpt lat="48.62543" lon="6.34884">
        <ele>213.4</ele>
        <time>2022-07-06T08:47:50Z</time>
      </trkpt>
      <trkpt lat="48.62539" lon="6.34886">
        <ele>213.4</ele>
        <time>2022-07-06T08:47:51Z</time>
      </trkpt>
      <trkpt lat="48.62536" lon="6.34888">
        <ele>213.6</ele>
        <time>2022-07-06T08:47:52Z</time>
      </trkpt>
      <trkpt lat="48.62484" lon="6.34918">
        <ele>214.8</ele>
        <time>2022-07-06T08:48:05Z</time>
      </trkpt>
      <trkpt lat="48.6248" lon="6.3492">
        <ele>214.8</ele>
        <time>2022-07-06T08:48:06Z</time>
      </trkpt>
      <trkpt lat="48.62449" lon="6.34935">
        <ele>215.6</ele>
        <time>2022-07-06T08:48:14Z</time>
      </trkpt>
      <trkpt lat="48.62445" lon="6.34936">
        <ele>215.4</ele>
        <time>2022-07-06T08:48:15Z</time>
      </trkpt>
      <trkpt lat="48.62387" lon="6.34954">
        <ele>216.4</ele>
        <time>2022-07-06T08:48:31Z</time>
      </trkpt>
      <trkpt lat="48.62372" lon="6.34953">
        <ele>216.4</ele>
        <time>2022-07-06T08:48:39Z</time>
      </trkpt>
      <trkpt lat="48.62371" lon="6.34953">
        <ele>216.4</ele>
        <time>2022-07-06T08:48:40Z</time>
      </trkpt>
      <trkpt lat="48.62369" lon="6.34954">
        <ele>216.4</ele>
        <time>2022-07-06T08:48:47Z</time>
      </trkpt>
      <trkpt lat="48.62367" lon="6.34966">
        <ele>216.2</ele>
        <time>2022-07-06T08:57:38Z</time>
      </trkpt>
      <trkpt lat="48.62369" lon="6.34966">
        <ele>216.4</ele>
        <time>2022-07-06T08:57:42Z</time>
      </trkpt>
      <trkpt lat="48.62376" lon="6.34966">
        <ele>216.4</ele>
        <time>2022-07-06T08:57:48Z</time>
      </trkpt>
      <trkpt lat="48.62378" lon="6.34965">
        <ele>216.4</ele>
        <time>2022-07-06T08:57:49Z</time>
      </trkpt>
      <trkpt lat="48.62381" lon="6.34967">
        <ele>216</ele>
        <time>2022-07-06T08:57:50Z</time>
      </trkpt>
      <trkpt lat="48.62383" lon="6.34971">
        <ele>215.6</ele>
        <time>2022-07-06T08:57:51Z</time>
      </trkpt>
      <trkpt lat="48.62383" lon="6.34977">
        <ele>215.8</ele>
        <time>2022-07-06T08:57:52Z</time>
      </trkpt>
      <trkpt lat="48.62383" lon="6.34983">
        <ele>216</ele>
        <time>2022-07-06T08:57:53Z</time>
      </trkpt>
      <trkpt lat="48.62382" lon="6.34989">
        <ele>216.2</ele>
        <time>2022-07-06T08:57:54Z</time>
      </trkpt>
      <trkpt lat="48.6238" lon="6.34995">
        <ele>216.2</ele>
        <time>2022-07-06T08:57:55Z</time>
      </trkpt>
      <trkpt lat="48.62379" lon="6.35">
        <ele>216.2</ele>
        <time>2022-07-06T08:57:56Z</time>
      </trkpt>
      <trkpt lat="48.62372" lon="6.35025">
        <ele>216.4</ele>
        <time>2022-07-06T08:58:00Z</time>
      </trkpt>
      <trkpt lat="48.62371" lon="6.35031">
        <ele>216.4</ele>
        <time>2022-07-06T08:58:01Z</time>
      </trkpt>
      <trkpt lat="48.6237" lon="6.35038">
        <ele>216.4</ele>
        <time>2022-07-06T08:58:02Z</time>
      </trkpt>
      <trkpt lat="48.62362" lon="6.35071">
        <ele>216.8</ele>
        <time>2022-07-06T08:58:07Z</time>
      </trkpt>
      <trkpt lat="48.62359" lon="6.35076">
        <ele>216.8</ele>
        <time>2022-07-06T08:58:08Z</time>
      </trkpt>
      <trkpt lat="48.62355" lon="6.35088">
        <ele>217</ele>
        <time>2022-07-06T08:58:10Z</time>
      </trkpt>
      <trkpt lat="48.62331" lon="6.35171">
        <ele>217.6</ele>
        <time>2022-07-06T08:58:23Z</time>
      </trkpt>
      <trkpt lat="48.62313" lon="6.35213">
        <ele>216.8</ele>
        <time>2022-07-06T08:58:41Z</time>
      </trkpt>
      <trkpt lat="48.62312" lon="6.35222">
        <ele>216.6</ele>
        <time>2022-07-06T08:58:49Z</time>
      </trkpt>
      <trkpt lat="48.62288" lon="6.3529">
        <ele>217</ele>
        <time>2022-07-06T08:59:03Z</time>
      </trkpt>
      <trkpt lat="48.62268" lon="6.35339">
        <ele>216.8</ele>
        <time>2022-07-06T08:59:11Z</time>
      </trkpt>
      <trkpt lat="48.62266" lon="6.35347">
        <ele>216.6</ele>
        <time>2022-07-06T08:59:12Z</time>
      </trkpt>
      <trkpt lat="48.62264" lon="6.35354">
        <ele>216.6</ele>
        <time>2022-07-06T08:59:13Z</time>
      </trkpt>
      <trkpt lat="48.62252" lon="6.35427">
        <ele>214.6</ele>
        <time>2022-07-06T08:59:22Z</time>
      </trkpt>
      <trkpt lat="48.62252" lon="6.35435">
        <ele>214.6</ele>
        <time>2022-07-06T08:59:23Z</time>
      </trkpt>
      <trkpt lat="48.62253" lon="6.35488">
        <ele>214.2</ele>
        <time>2022-07-06T08:59:29Z</time>
      </trkpt>
      <trkpt lat="48.62253" lon="6.35575">
        <ele>214.6</ele>
        <time>2022-07-06T08:59:39Z</time>
      </trkpt>
      <trkpt lat="48.62258" lon="6.35669">
        <ele>213.2</ele>
        <time>2022-07-06T08:59:50Z</time>
      </trkpt>
      <trkpt lat="48.62256" lon="6.35727">
        <ele>213.4</ele>
        <time>2022-07-06T08:59:57Z</time>
      </trkpt>
      <trkpt lat="48.62238" lon="6.35815">
        <ele>212.8</ele>
        <time>2022-07-06T09:00:09Z</time>
      </trkpt>
      <trkpt lat="48.62236" lon="6.35822">
        <ele>212.8</ele>
        <time>2022-07-06T09:00:10Z</time>
      </trkpt>
      <trkpt lat="48.62233" lon="6.35828">
        <ele>212.8</ele>
        <time>2022-07-06T09:00:11Z</time>
      </trkpt>
      <trkpt lat="48.62227" lon="6.35838">
        <ele>212.8</ele>
        <time>2022-07-06T09:00:13Z</time>
      </trkpt>
      <trkpt lat="48.62226" lon="6.35844">
        <ele>212.8</ele>
        <time>2022-07-06T09:00:14Z</time>
      </trkpt>
      <trkpt lat="48.62227" lon="6.35851">
        <ele>212.8</ele>
        <time>2022-07-06T09:00:15Z</time>
      </trkpt>
      <trkpt lat="48.62231" lon="6.35868">
        <ele>213.6</ele>
        <time>2022-07-06T09:00:18Z</time>
      </trkpt>
      <trkpt lat="48.62244" lon="6.35953">
        <ele>214.4</ele>
        <time>2022-07-06T09:00:31Z</time>
      </trkpt>
      <trkpt lat="48.62257" lon="6.3604">
        <ele>216.2</ele>
        <time>2022-07-06T09:00:46Z</time>
      </trkpt>
      <trkpt lat="48.6227" lon="6.36124">
        <ele>217.2</ele>
        <time>2022-07-06T09:01:02Z</time>
      </trkpt>
      <trkpt lat="48.6228" lon="6.36209">
        <ele>217.6</ele>
        <time>2022-07-06T09:01:19Z</time>
      </trkpt>
      <trkpt lat="48.6229" lon="6.36297">
        <ele>219</ele>
        <time>2022-07-06T09:01:36Z</time>
      </trkpt>
      <trkpt lat="48.623" lon="6.36383">
        <ele>218.6</ele>
        <time>2022-07-06T09:01:51Z</time>
      </trkpt>
      <trkpt lat="48.62297" lon="6.36474">
        <ele>220.6</ele>
        <time>2022-07-06T09:02:05Z</time>
      </trkpt>
      <trkpt lat="48.62278" lon="6.36555">
        <ele>222</ele>
        <time>2022-07-06T09:02:20Z</time>
      </trkpt>
      <trkpt lat="48.62262" lon="6.36637">
        <ele>223</ele>
        <time>2022-07-06T09:02:35Z</time>
      </trkpt>
      <trkpt lat="48.62246" lon="6.36722">
        <ele>224.4</ele>
        <time>2022-07-06T09:02:50Z</time>
      </trkpt>
      <trkpt lat="48.62232" lon="6.36808">
        <ele>226.6</ele>
        <time>2022-07-06T09:03:07Z</time>
      </trkpt>
      <trkpt lat="48.62214" lon="6.36864">
        <ele>229.8</ele>
        <time>2022-07-06T09:03:25Z</time>
      </trkpt>
      <trkpt lat="48.62195" lon="6.36902">
        <ele>232.8</ele>
        <time>2022-07-06T09:03:40Z</time>
      </trkpt>
      <trkpt lat="48.62178" lon="6.3693">
        <ele>235.8</ele>
        <time>2022-07-06T09:03:52Z</time>
      </trkpt>
      <trkpt lat="48.62162" lon="6.36949">
        <ele>238.8</ele>
        <time>2022-07-06T09:04:02Z</time>
      </trkpt>
      <trkpt lat="48.62142" lon="6.36982">
        <ele>242</ele>
        <time>2022-07-06T09:04:15Z</time>
      </trkpt>
      <trkpt lat="48.62132" lon="6.37026">
        <ele>245.2</ele>
        <time>2022-07-06T09:04:28Z</time>
      </trkpt>
      <trkpt lat="48.62127" lon="6.3708">
        <ele>248.2</ele>
        <time>2022-07-06T09:04:44Z</time>
      </trkpt>
      <trkpt lat="48.62133" lon="6.37164">
        <ele>250.2</ele>
        <time>2022-07-06T09:05:05Z</time>
      </trkpt>
      <trkpt lat="48.62133" lon="6.3725">
        <ele>251.8</ele>
        <time>2022-07-06T09:05:25Z</time>
      </trkpt>
      <trkpt lat="48.62108" lon="6.37326">
        <ele>254.2</ele>
        <time>2022-07-06T09:05:45Z</time>
      </trkpt>
      <trkpt lat="48.62093" lon="6.37409">
        <ele>256.8</ele>
        <time>2022-07-06T09:06:07Z</time>
      </trkpt>
      <trkpt lat="48.6209" lon="6.37496">
        <ele>259.4</ele>
        <time>2022-07-06T09:06:27Z</time>
      </trkpt>
      <trkpt lat="48.62093" lon="6.37584">
        <ele>262.4</ele>
        <time>2022-07-06T09:06:47Z</time>
      </trkpt>
      <trkpt lat="48.62091" lon="6.37672">
        <ele>264.8</ele>
        <time>2022-07-06T09:07:07Z</time>
      </trkpt>
      <trkpt lat="48.62091" lon="6.37758">
        <ele>264.6</ele>
        <time>2022-07-06T09:07:23Z</time>
      </trkpt>
      <trkpt lat="48.62083" lon="6.37848">
        <ele>263.8</ele>
        <time>2022-07-06T09:07:36Z</time>
      </trkpt>
      <trkpt lat="48.62071" lon="6.37938">
        <ele>263.8</ele>
        <time>2022-07-06T09:07:48Z</time>
      </trkpt>
      <trkpt lat="48.62065" lon="6.38025">
        <ele>264</ele>
        <time>2022-07-06T09:08:01Z</time>
      </trkpt>
      <trkpt lat="48.62059" lon="6.38106">
        <ele>263.2</ele>
        <time>2022-07-06T09:08:12Z</time>
      </trkpt>
      <trkpt lat="48.6206" lon="6.38113">
        <ele>263.2</ele>
        <time>2022-07-06T09:08:13Z</time>
      </trkpt>
      <trkpt lat="48.62061" lon="6.38121">
        <ele>263.2</ele>
        <time>2022-07-06T09:08:14Z</time>
      </trkpt>
      <trkpt lat="48.62062" lon="6.38128">
        <ele>263</ele>
        <time>2022-07-06T09:08:15Z</time>
      </trkpt>
      <trkpt lat="48.62065" lon="6.38135">
        <ele>262.8</ele>
        <time>2022-07-06T09:08:16Z</time>
      </trkpt>
      <trkpt lat="48.62068" lon="6.38141">
        <ele>262.6</ele>
        <time>2022-07-06T09:08:17Z</time>
      </trkpt>
      <trkpt lat="48.62103" lon="6.38212">
        <ele>265</ele>
        <time>2022-07-06T09:08:30Z</time>
      </trkpt>
      <trkpt lat="48.62131" lon="6.38286">
        <ele>267.2</ele>
        <time>2022-07-06T09:08:45Z</time>
      </trkpt>
      <trkpt lat="48.62161" lon="6.3836">
        <ele>267</ele>
        <time>2022-07-06T09:08:59Z</time>
      </trkpt>
      <trkpt lat="48.62174" lon="6.38396">
        <ele>267</ele>
        <time>2022-07-06T09:09:04Z</time>
      </trkpt>
      <trkpt lat="48.62188" lon="6.38448">
        <ele>270.2</ele>
        <time>2022-07-06T09:09:14Z</time>
      </trkpt>
      <trkpt lat="48.62171" lon="6.38528">
        <ele>273</ele>
        <time>2022-07-06T09:09:29Z</time>
      </trkpt>
      <trkpt lat="48.62134" lon="6.38597">
        <ele>274</ele>
        <time>2022-07-06T09:09:43Z</time>
      </trkpt>
      <trkpt lat="48.62092" lon="6.38655">
        <ele>276.2</ele>
        <time>2022-07-06T09:09:57Z</time>
      </trkpt>
      <trkpt lat="48.62046" lon="6.38706">
        <ele>277</ele>
        <time>2022-07-06T09:10:10Z</time>
      </trkpt>
      <trkpt lat="48.62001" lon="6.38758">
        <ele>278</ele>
        <time>2022-07-06T09:10:23Z</time>
      </trkpt>
      <trkpt lat="48.61954" lon="6.38809">
        <ele>280.6</ele>
        <time>2022-07-06T09:10:37Z</time>
      </trkpt>
      <trkpt lat="48.61907" lon="6.38858">
        <ele>282</ele>
        <time>2022-07-06T09:10:52Z</time>
      </trkpt>
      <trkpt lat="48.61856" lon="6.38905">
        <ele>283</ele>
        <time>2022-07-06T09:11:07Z</time>
      </trkpt>
      <trkpt lat="48.61806" lon="6.38954">
        <ele>284.8</ele>
        <time>2022-07-06T09:11:22Z</time>
      </trkpt>
      <trkpt lat="48.61755" lon="6.39003">
        <ele>285</ele>
        <time>2022-07-06T09:11:36Z</time>
      </trkpt>
      <trkpt lat="48.61708" lon="6.39056">
        <ele>285.2</ele>
        <time>2022-07-06T09:11:50Z</time>
      </trkpt>
      <trkpt lat="48.61686" lon="6.39089">
        <ele>285</ele>
        <time>2022-07-06T09:11:57Z</time>
      </trkpt>
      <trkpt lat="48.61684" lon="6.39095">
        <ele>285</ele>
        <time>2022-07-06T09:11:58Z</time>
      </trkpt>
      <trkpt lat="48.61683" lon="6.39102">
        <ele>284.8</ele>
        <time>2022-07-06T09:11:59Z</time>
      </trkpt>
      <trkpt lat="48.61682" lon="6.39109">
        <ele>284.6</ele>
        <time>2022-07-06T09:12:00Z</time>
      </trkpt>
      <trkpt lat="48.61681" lon="6.39116">
        <ele>284.4</ele>
        <time>2022-07-06T09:12:01Z</time>
      </trkpt>
      <trkpt lat="48.61681" lon="6.39125">
        <ele>284</ele>
        <time>2022-07-06T09:12:02Z</time>
      </trkpt>
      <trkpt lat="48.61683" lon="6.3919">
        <ele>281.8</ele>
        <time>2022-07-06T09:12:08Z</time>
      </trkpt>
      <trkpt lat="48.61681" lon="6.39203">
        <ele>281.4</ele>
        <time>2022-07-06T09:12:09Z</time>
      </trkpt>
      <trkpt lat="48.61678" lon="6.39217">
        <ele>280.8</ele>
        <time>2022-07-06T09:12:10Z</time>
      </trkpt>
      <trkpt lat="48.61674" lon="6.3923">
        <ele>280.4</ele>
        <time>2022-07-06T09:12:11Z</time>
      </trkpt>
      <trkpt lat="48.61668" lon="6.39243">
        <ele>280</ele>
        <time>2022-07-06T09:12:12Z</time>
      </trkpt>
      <trkpt lat="48.61661" lon="6.39255">
        <ele>279.2</ele>
        <time>2022-07-06T09:12:13Z</time>
      </trkpt>
      <trkpt lat="48.61654" lon="6.39265">
        <ele>278.2</ele>
        <time>2022-07-06T09:12:14Z</time>
      </trkpt>
      <trkpt lat="48.61645" lon="6.39276">
        <ele>276.8</ele>
        <time>2022-07-06T09:12:15Z</time>
      </trkpt>
      <trkpt lat="48.61638" lon="6.39287">
        <ele>275.4</ele>
        <time>2022-07-06T09:12:16Z</time>
      </trkpt>
      <trkpt lat="48.61631" lon="6.39299">
        <ele>274.4</ele>
        <time>2022-07-06T09:12:17Z</time>
      </trkpt>
      <trkpt lat="48.61625" lon="6.39312">
        <ele>273.8</ele>
        <time>2022-07-06T09:12:18Z</time>
      </trkpt>
      <trkpt lat="48.61621" lon="6.39327">
        <ele>273</ele>
        <time>2022-07-06T09:12:19Z</time>
      </trkpt>
      <trkpt lat="48.61617" lon="6.39342">
        <ele>272.6</ele>
        <time>2022-07-06T09:12:20Z</time>
      </trkpt>
      <trkpt lat="48.61614" lon="6.39357">
        <ele>272.2</ele>
        <time>2022-07-06T09:12:21Z</time>
      </trkpt>
      <trkpt lat="48.61614" lon="6.39374">
        <ele>271.4</ele>
        <time>2022-07-06T09:12:22Z</time>
      </trkpt>
      <trkpt lat="48.61615" lon="6.39392">
        <ele>269.6</ele>
        <time>2022-07-06T09:12:23Z</time>
      </trkpt>
      <trkpt lat="48.61617" lon="6.3941">
        <ele>268.2</ele>
        <time>2022-07-06T09:12:24Z</time>
      </trkpt>
      <trkpt lat="48.61619" lon="6.39427">
        <ele>267.8</ele>
        <time>2022-07-06T09:12:25Z</time>
      </trkpt>
      <trkpt lat="48.61622" lon="6.39443">
        <ele>267.2</ele>
        <time>2022-07-06T09:12:26Z</time>
      </trkpt>
      <trkpt lat="48.61626" lon="6.39458">
        <ele>266.2</ele>
        <time>2022-07-06T09:12:27Z</time>
      </trkpt>
      <trkpt lat="48.61631" lon="6.39473">
        <ele>265</ele>
        <time>2022-07-06T09:12:28Z</time>
      </trkpt>
      <trkpt lat="48.61635" lon="6.39487">
        <ele>263.6</ele>
        <time>2022-07-06T09:12:29Z</time>
      </trkpt>
      <trkpt lat="48.61641" lon="6.39501">
        <ele>262.8</ele>
        <time>2022-07-06T09:12:30Z</time>
      </trkpt>
      <trkpt lat="48.61646" lon="6.39514">
        <ele>262.2</ele>
        <time>2022-07-06T09:12:31Z</time>
      </trkpt>
      <trkpt lat="48.61672" lon="6.39565">
        <ele>259</ele>
        <time>2022-07-06T09:12:35Z</time>
      </trkpt>
      <trkpt lat="48.61693" lon="6.39595">
        <ele>256.8</ele>
        <time>2022-07-06T09:12:38Z</time>
      </trkpt>
      <trkpt lat="48.61701" lon="6.39602">
        <ele>256.4</ele>
        <time>2022-07-06T09:12:39Z</time>
      </trkpt>
      <trkpt lat="48.6171" lon="6.39608">
        <ele>254.8</ele>
        <time>2022-07-06T09:12:40Z</time>
      </trkpt>
      <trkpt lat="48.61719" lon="6.39611">
        <ele>253.8</ele>
        <time>2022-07-06T09:12:41Z</time>
      </trkpt>
      <trkpt lat="48.61729" lon="6.39611">
        <ele>253</ele>
        <time>2022-07-06T09:12:42Z</time>
      </trkpt>
      <trkpt lat="48.61738" lon="6.39611">
        <ele>252.2</ele>
        <time>2022-07-06T09:12:43Z</time>
      </trkpt>
      <trkpt lat="48.61747" lon="6.3961">
        <ele>251.2</ele>
        <time>2022-07-06T09:12:44Z</time>
      </trkpt>
      <trkpt lat="48.61773" lon="6.39605">
        <ele>250</ele>
        <time>2022-07-06T09:12:47Z</time>
      </trkpt>
      <trkpt lat="48.61788" lon="6.39602">
        <ele>249.6</ele>
        <time>2022-07-06T09:12:49Z</time>
      </trkpt>
      <trkpt lat="48.61795" lon="6.39602">
        <ele>249.8</ele>
        <time>2022-07-06T09:12:50Z</time>
      </trkpt>
      <trkpt lat="48.61802" lon="6.39604">
        <ele>249.8</ele>
        <time>2022-07-06T09:12:51Z</time>
      </trkpt>
      <trkpt lat="48.61808" lon="6.39607">
        <ele>249.8</ele>
        <time>2022-07-06T09:12:52Z</time>
      </trkpt>
      <trkpt lat="48.61815" lon="6.39612">
        <ele>249.6</ele>
        <time>2022-07-06T09:12:53Z</time>
      </trkpt>
      <trkpt lat="48.61821" lon="6.39618">
        <ele>248.8</ele>
        <time>2022-07-06T09:12:54Z</time>
      </trkpt>
      <trkpt lat="48.61826" lon="6.39625">
        <ele>248.4</ele>
        <time>2022-07-06T09:12:55Z</time>
      </trkpt>
      <trkpt lat="48.61832" lon="6.39632">
        <ele>248</ele>
        <time>2022-07-06T09:12:56Z</time>
      </trkpt>
      <trkpt lat="48.61837" lon="6.3964">
        <ele>247.8</ele>
        <time>2022-07-06T09:12:57Z</time>
      </trkpt>
      <trkpt lat="48.61842" lon="6.39649">
        <ele>247.8</ele>
        <time>2022-07-06T09:12:58Z</time>
      </trkpt>
      <trkpt lat="48.61867" lon="6.39706">
        <ele>244.4</ele>
        <time>2022-07-06T09:13:04Z</time>
      </trkpt>
      <trkpt lat="48.61898" lon="6.39773">
        <ele>242</ele>
        <time>2022-07-06T09:13:18Z</time>
      </trkpt>
      <trkpt lat="48.61903" lon="6.39781">
        <ele>241.4</ele>
        <time>2022-07-06T09:13:31Z</time>
      </trkpt>
      <trkpt lat="48.61902" lon="6.39789">
        <ele>241.6</ele>
        <time>2022-07-06T09:16:37Z</time>
      </trkpt>
      <trkpt lat="48.61902" lon="6.39787">
        <ele>241.6</ele>
        <time>2022-07-06T09:16:38Z</time>
      </trkpt>
      <trkpt lat="48.619" lon="6.39778">
        <ele>242</ele>
        <time>2022-07-06T09:16:48Z</time>
      </trkpt>
      <trkpt lat="48.61901" lon="6.39777">
        <ele>241.8</ele>
        <time>2022-07-06T09:16:49Z</time>
      </trkpt>
      <trkpt lat="48.61902" lon="6.39775">
        <ele>242</ele>
        <time>2022-07-06T09:16:50Z</time>
      </trkpt>
      <trkpt lat="48.61902" lon="6.39773">
        <ele>241.8</ele>
        <time>2022-07-06T09:16:51Z</time>
      </trkpt>
      <trkpt lat="48.61905" lon="6.3977">
        <ele>242.2</ele>
        <time>2022-07-06T09:17:00Z</time>
      </trkpt>
      <trkpt lat="48.61916" lon="6.39756">
        <ele>242.4</ele>
        <time>2022-07-06T09:22:07Z</time>
      </trkpt>
      <trkpt lat="48.61916" lon="6.39755">
        <ele>242.6</ele>
        <time>2022-07-06T09:22:08Z</time>
      </trkpt>
      <trkpt lat="48.61922" lon="6.39752">
        <ele>243.2</ele>
        <time>2022-07-06T09:22:13Z</time>
      </trkpt>
      <trkpt lat="48.61923" lon="6.39751">
        <ele>243.2</ele>
        <time>2022-07-06T09:22:14Z</time>
      </trkpt>
      <trkpt lat="48.61925" lon="6.39752">
        <ele>243.4</ele>
        <time>2022-07-06T09:22:20Z</time>
      </trkpt>
    </trkseg>
  </trk>
</gpx>